<?xml version="1.0" encoding="UTF-8" standalone="no" ?>
<gpx xmlns="http://www.topografix.com/GPX/1/1" creator="CompeGPS" version="1.1" xmlns:xsi="http://www.w3.org/2001/XMLSchema-instance" xsi:schemaLocation="http://www.topografix.com/GPX/1/1 http://www.topografix.com/GPX/1/1/gpx.xsd http://www.garmin.com/xmlschemas/GpxExtensions/v3 http://www.garmin.com/xmlschemas/GpxExtensionsv3.xsd http://www.garmin.com/xmlschemas/TrackPointExtension/v1 http://www.garmin.com/xmlschemas/TrackPointExtensionv1.xsd" xmlns:gpxtpx="http://www.garmin.com/xmlschemas/TrackPointExtension/v1">
  <metadata>
    <link href="http://www.compegps.com">
      <text>CompeGPS TEAM, SL</text>
    </link>
    <time>2020-07-06T13:53:05Z</time>
    <bounds maxlat="42.775672" maxlon="0.223870" minlat="42.738493" minlon="0.190173"/>
  </metadata>
    <wpt lat="42.773774" lon="0.202601">
    <ele>1630.1</ele>
    <time>2020-07-06T12:25:16Z</time>
    <name>Route forestiere</name>
    <desc></desc>
    <sym>Waypoint</sym>
  </wpt>
  <wpt lat="42.773715" lon="0.214451">
    <ele>1807.2</ele>
    <time>2020-07-06T12:32:55Z</time>
    <name>Cabane Cortail de Prat</name>
    <desc></desc>
    <sym>Waypoint</sym>
  </wpt>
  <wpt lat="42.770793" lon="0.223669">
    <ele>2109.5</ele>
    <time>2020-07-06T12:48:46Z</time>
    <name>Pylone</name>
    <desc></desc>
    <sym>Waypoint</sym>
  </wpt>
  <wpt lat="42.769366" lon="0.223732">
    <ele>2197.9</ele>
    <time>2020-07-06T12:51:11Z</time>
    <name>Pic d Augas</name>
    <desc></desc>
    <sym>Waypoint</sym>
  </wpt>
  <wpt lat="42.758854" lon="0.216392">
    <ele>2565.9</ele>
    <time>2020-07-06T12:54:50Z</time>
    <name>Pic de Cuneille</name>
    <desc></desc>
    <sym>Waypoint</sym>
  </wpt>
  <wpt lat="42.749720" lon="0.218175">
    <ele>2679.2</ele>
    <time>2020-07-06T13:01:53Z</time>
    <name>Pic de Saoubete</name>
    <desc></desc>
    <sym>Waypoint</sym>
  </wpt>
  <wpt lat="42.746571" lon="0.214772">
    <ele>2700.8</ele>
    <time>2020-07-06T13:22:07Z</time>
    <name>Pic Garlitz</name>
    <desc></desc>
    <sym>Waypoint</sym>
  </wpt>
  <wpt lat="42.739168" lon="0.209052">
    <ele>2533.6</ele>
    <time>2020-07-06T13:35:28Z</time>
    <name>Pic de Pene Abeillere</name>
    <desc></desc>
    <sym>Waypoint</sym>
  </wpt>
  <wpt lat="42.739809" lon="0.192756">
    <ele>2103.1</ele>
    <time>2020-07-06T13:42:42Z</time>
    <name>Sentier du port de Bataillence</name>
    <desc></desc>
    <sym>Waypoint</sym>
  </wpt>
  <wpt lat="42.748512" lon="0.191471">
    <ele>1798.4</ele>
    <time>2020-07-06T13:52:40Z</time>
    <name>Entree du tunnel de Bielsa</name>
    <desc></desc>
    <sym>Waypoint</sym>
  </wpt>
<trk>
    <name>Pic_Garlitz</name>
    <userMyTwoNav></userMyTwoNav>
    <serialNumber></serialNumber>
    <trkseg>
      <trkpt lat="42.775333" lon="0.198106">
        <ele>1546.6</ele>
        <time>2020-07-04T07:21:17Z</time>
      </trkpt>
      <trkpt lat="42.775256" lon="0.198258">
        <ele>1532.5</ele>
        <time>2020-07-04T07:21:36Z</time>
      </trkpt>
      <trkpt lat="42.775158" lon="0.198234">
        <ele>1536.9</ele>
        <time>2020-07-04T07:21:47Z</time>
      </trkpt>
      <trkpt lat="42.775043" lon="0.198206">
        <ele>1542.0</ele>
        <time>2020-07-04T07:21:55Z</time>
      </trkpt>
      <trkpt lat="42.774912" lon="0.198209">
        <ele>1545.5</ele>
        <time>2020-07-04T07:22:03Z</time>
      </trkpt>
      <trkpt lat="42.774727" lon="0.198184">
        <ele>1549.0</ele>
        <time>2020-07-04T07:22:12Z</time>
      </trkpt>
      <trkpt lat="42.774598" lon="0.198214">
        <ele>1550.6</ele>
        <time>2020-07-04T07:22:21Z</time>
      </trkpt>
      <trkpt lat="42.774508" lon="0.198239">
        <ele>1551.9</ele>
        <time>2020-07-04T07:22:30Z</time>
      </trkpt>
      <trkpt lat="42.774381" lon="0.198313">
        <ele>1552.4</ele>
        <time>2020-07-04T07:22:39Z</time>
      </trkpt>
      <trkpt lat="42.774308" lon="0.198423">
        <ele>1551.4</ele>
        <time>2020-07-04T07:22:48Z</time>
      </trkpt>
      <trkpt lat="42.774212" lon="0.198434">
        <ele>1553.0</ele>
        <time>2020-07-04T07:22:57Z</time>
      </trkpt>
      <trkpt lat="42.774095" lon="0.198447">
        <ele>1554.1</ele>
        <time>2020-07-04T07:23:06Z</time>
      </trkpt>
      <trkpt lat="42.773990" lon="0.198516">
        <ele>1553.9</ele>
        <time>2020-07-04T07:23:15Z</time>
      </trkpt>
      <trkpt lat="42.773860" lon="0.198618">
        <ele>1553.8</ele>
        <time>2020-07-04T07:23:50Z</time>
      </trkpt>
      <trkpt lat="42.773733" lon="0.198711">
        <ele>1553.8</ele>
        <time>2020-07-04T07:23:58Z</time>
      </trkpt>
      <trkpt lat="42.773644" lon="0.198793">
        <ele>1553.8</ele>
        <time>2020-07-04T07:24:06Z</time>
      </trkpt>
      <trkpt lat="42.773594" lon="0.198859">
        <ele>1553.7</ele>
        <time>2020-07-04T07:24:15Z</time>
      </trkpt>
      <trkpt lat="42.773554" lon="0.198958">
        <ele>1553.2</ele>
        <time>2020-07-04T07:24:26Z</time>
      </trkpt>
      <trkpt lat="42.773510" lon="0.199038">
        <ele>1553.0</ele>
        <time>2020-07-04T07:25:53Z</time>
      </trkpt>
      <trkpt lat="42.773475" lon="0.199224">
        <ele>1552.6</ele>
        <time>2020-07-04T07:26:12Z</time>
      </trkpt>
      <trkpt lat="42.773476" lon="0.199329">
        <ele>1549.2</ele>
        <time>2020-07-04T07:26:22Z</time>
      </trkpt>
      <trkpt lat="42.773558" lon="0.199403">
        <ele>1548.4</ele>
        <time>2020-07-04T07:26:37Z</time>
      </trkpt>
      <trkpt lat="42.773550" lon="0.199499">
        <ele>1548.4</ele>
        <time>2020-07-04T07:27:08Z</time>
      </trkpt>
      <trkpt lat="42.773549" lon="0.199659">
        <ele>1550.7</ele>
        <time>2020-07-04T07:27:23Z</time>
      </trkpt>
      <trkpt lat="42.773517" lon="0.199850">
        <ele>1552.2</ele>
        <time>2020-07-04T07:27:36Z</time>
      </trkpt>
      <trkpt lat="42.773541" lon="0.200014">
        <ele>1554.9</ele>
        <time>2020-07-04T07:27:49Z</time>
      </trkpt>
      <trkpt lat="42.773507" lon="0.200181">
        <ele>1555.6</ele>
        <time>2020-07-04T07:27:59Z</time>
      </trkpt>
      <trkpt lat="42.773489" lon="0.200348">
        <ele>1558.0</ele>
        <time>2020-07-04T07:28:10Z</time>
      </trkpt>
      <trkpt lat="42.773435" lon="0.200496">
        <ele>1559.6</ele>
        <time>2020-07-04T07:28:22Z</time>
      </trkpt>
      <trkpt lat="42.773411" lon="0.200642">
        <ele>1561.3</ele>
        <time>2020-07-04T07:28:33Z</time>
      </trkpt>
      <trkpt lat="42.773405" lon="0.200819">
        <ele>1565.3</ele>
        <time>2020-07-04T07:28:47Z</time>
      </trkpt>
      <trkpt lat="42.773485" lon="0.200930">
        <ele>1567.8</ele>
        <time>2020-07-04T07:29:05Z</time>
      </trkpt>
      <trkpt lat="42.773485" lon="0.201073">
        <ele>1571.3</ele>
        <time>2020-07-04T07:29:21Z</time>
      </trkpt>
      <trkpt lat="42.773482" lon="0.201210">
        <ele>1574.8</ele>
        <time>2020-07-04T07:29:37Z</time>
      </trkpt>
      <trkpt lat="42.773512" lon="0.201323">
        <ele>1578.2</ele>
        <time>2020-07-04T07:29:53Z</time>
      </trkpt>
      <trkpt lat="42.773486" lon="0.201493">
        <ele>1581.2</ele>
        <time>2020-07-04T07:30:08Z</time>
      </trkpt>
      <trkpt lat="42.773422" lon="0.201604">
        <ele>1585.6</ele>
        <time>2020-07-04T07:30:26Z</time>
      </trkpt>
      <trkpt lat="42.773349" lon="0.201687">
        <ele>1590.2</ele>
        <time>2020-07-04T07:30:46Z</time>
      </trkpt>
      <trkpt lat="42.773212" lon="0.201757">
        <ele>1594.7</ele>
        <time>2020-07-04T07:31:06Z</time>
      </trkpt>
      <trkpt lat="42.773122" lon="0.201804">
        <ele>1599.0</ele>
        <time>2020-07-04T07:31:24Z</time>
      </trkpt>
      <trkpt lat="42.773059" lon="0.201833">
        <ele>1603.1</ele>
        <time>2020-07-04T07:31:44Z</time>
      </trkpt>
      <trkpt lat="42.772989" lon="0.201865">
        <ele>1605.8</ele>
        <time>2020-07-04T07:31:58Z</time>
      </trkpt>
      <trkpt lat="42.773011" lon="0.201880">
        <ele>1608.3</ele>
        <time>2020-07-04T07:32:14Z</time>
      </trkpt>
      <trkpt lat="42.773099" lon="0.201942">
        <ele>1613.2</ele>
        <time>2020-07-04T07:32:33Z</time>
      </trkpt>
      <trkpt lat="42.773157" lon="0.202050">
        <ele>1618.2</ele>
        <time>2020-07-04T07:32:56Z</time>
      </trkpt>
      <trkpt lat="42.773256" lon="0.202123">
        <ele>1622.4</ele>
        <time>2020-07-04T07:33:14Z</time>
      </trkpt>
      <trkpt lat="42.773376" lon="0.202211">
        <ele>1624.9</ele>
        <time>2020-07-04T07:33:32Z</time>
      </trkpt>
      <trkpt lat="42.773441" lon="0.202236">
        <ele>1625.6</ele>
        <time>2020-07-04T07:33:53Z</time>
      </trkpt>
      <trkpt lat="42.773557" lon="0.202241">
        <ele>1626.4</ele>
        <time>2020-07-04T07:34:05Z</time>
      </trkpt>
      <trkpt lat="42.773677" lon="0.202282">
        <ele>1626.4</ele>
        <time>2020-07-04T07:34:15Z</time>
      </trkpt>
      <trkpt lat="42.773736" lon="0.202385">
        <ele>1626.4</ele>
        <time>2020-07-04T07:34:55Z</time>
      </trkpt>
      <trkpt lat="42.773758" lon="0.202421">
        <ele>1626.4</ele>
        <time>2020-07-04T07:35:34Z</time>
      </trkpt>
      <trkpt lat="42.773784" lon="0.202535">
        <ele>1626.4</ele>
        <time>2020-07-04T07:35:43Z</time>
      </trkpt>
      <trkpt lat="42.773849" lon="0.202642">
        <ele>1626.4</ele>
        <time>2020-07-04T07:35:52Z</time>
      </trkpt>
      <trkpt lat="42.773948" lon="0.202756">
        <ele>1626.4</ele>
        <time>2020-07-04T07:36:01Z</time>
      </trkpt>
      <trkpt lat="42.774027" lon="0.202820">
        <ele>1627.2</ele>
        <time>2020-07-04T07:36:09Z</time>
      </trkpt>
      <trkpt lat="42.774124" lon="0.202916">
        <ele>1628.8</ele>
        <time>2020-07-04T07:36:58Z</time>
      </trkpt>
      <trkpt lat="42.774121" lon="0.202986">
        <ele>1628.9</ele>
        <time>2020-07-04T07:37:27Z</time>
      </trkpt>
      <trkpt lat="42.774205" lon="0.203133">
        <ele>1629.8</ele>
        <time>2020-07-04T07:37:44Z</time>
      </trkpt>
      <trkpt lat="42.774157" lon="0.203288">
        <ele>1630.7</ele>
        <time>2020-07-04T07:37:56Z</time>
      </trkpt>
      <trkpt lat="42.774042" lon="0.203329">
        <ele>1631.6</ele>
        <time>2020-07-04T07:38:07Z</time>
      </trkpt>
      <trkpt lat="42.773906" lon="0.203325">
        <ele>1632.5</ele>
        <time>2020-07-04T07:38:16Z</time>
      </trkpt>
      <trkpt lat="42.773778" lon="0.203276">
        <ele>1633.3</ele>
        <time>2020-07-04T07:38:27Z</time>
      </trkpt>
      <trkpt lat="42.773656" lon="0.203160">
        <ele>1635.0</ele>
        <time>2020-07-04T07:38:39Z</time>
      </trkpt>
      <trkpt lat="42.773573" lon="0.203227">
        <ele>1635.7</ele>
        <time>2020-07-04T07:38:51Z</time>
      </trkpt>
      <trkpt lat="42.773642" lon="0.203330">
        <ele>1636.6</ele>
        <time>2020-07-04T07:39:00Z</time>
      </trkpt>
      <trkpt lat="42.773751" lon="0.203413">
        <ele>1638.3</ele>
        <time>2020-07-04T07:39:10Z</time>
      </trkpt>
      <trkpt lat="42.773850" lon="0.203495">
        <ele>1639.9</ele>
        <time>2020-07-04T07:39:21Z</time>
      </trkpt>
      <trkpt lat="42.773882" lon="0.203645">
        <ele>1640.7</ele>
        <time>2020-07-04T07:39:32Z</time>
      </trkpt>
      <trkpt lat="42.773900" lon="0.203840">
        <ele>1642.3</ele>
        <time>2020-07-04T07:39:44Z</time>
      </trkpt>
      <trkpt lat="42.773886" lon="0.204046">
        <ele>1644.7</ele>
        <time>2020-07-04T07:39:59Z</time>
      </trkpt>
      <trkpt lat="42.773893" lon="0.204224">
        <ele>1647.2</ele>
        <time>2020-07-04T07:40:12Z</time>
      </trkpt>
      <trkpt lat="42.773893" lon="0.204419">
        <ele>1648.8</ele>
        <time>2020-07-04T07:40:26Z</time>
      </trkpt>
      <trkpt lat="42.773875" lon="0.204602">
        <ele>1650.3</ele>
        <time>2020-07-04T07:40:39Z</time>
      </trkpt>
      <trkpt lat="42.773875" lon="0.204877">
        <ele>1651.7</ele>
        <time>2020-07-04T07:40:52Z</time>
      </trkpt>
      <trkpt lat="42.773859" lon="0.205095">
        <ele>1653.2</ele>
        <time>2020-07-04T07:41:03Z</time>
      </trkpt>
      <trkpt lat="42.773879" lon="0.205286">
        <ele>1655.7</ele>
        <time>2020-07-04T07:41:16Z</time>
      </trkpt>
      <trkpt lat="42.773909" lon="0.205492">
        <ele>1657.1</ele>
        <time>2020-07-04T07:41:28Z</time>
      </trkpt>
      <trkpt lat="42.773966" lon="0.205636">
        <ele>1658.7</ele>
        <time>2020-07-04T07:41:39Z</time>
      </trkpt>
      <trkpt lat="42.774039" lon="0.205800">
        <ele>1660.4</ele>
        <time>2020-07-04T07:41:51Z</time>
      </trkpt>
      <trkpt lat="42.774084" lon="0.205932">
        <ele>1662.5</ele>
        <time>2020-07-04T07:42:02Z</time>
      </trkpt>
      <trkpt lat="42.774169" lon="0.206069">
        <ele>1663.3</ele>
        <time>2020-07-04T07:42:14Z</time>
      </trkpt>
      <trkpt lat="42.774168" lon="0.206239">
        <ele>1665.7</ele>
        <time>2020-07-04T07:42:26Z</time>
      </trkpt>
      <trkpt lat="42.774210" lon="0.206421">
        <ele>1667.1</ele>
        <time>2020-07-04T07:42:38Z</time>
      </trkpt>
      <trkpt lat="42.774233" lon="0.206618">
        <ele>1668.6</ele>
        <time>2020-07-04T07:42:51Z</time>
      </trkpt>
      <trkpt lat="42.774294" lon="0.206790">
        <ele>1670.2</ele>
        <time>2020-07-04T07:43:03Z</time>
      </trkpt>
      <trkpt lat="42.774350" lon="0.206980">
        <ele>1672.3</ele>
        <time>2020-07-04T07:43:17Z</time>
      </trkpt>
      <trkpt lat="42.774445" lon="0.207171">
        <ele>1673.9</ele>
        <time>2020-07-04T07:43:29Z</time>
      </trkpt>
      <trkpt lat="42.774528" lon="0.207329">
        <ele>1675.7</ele>
        <time>2020-07-04T07:43:39Z</time>
      </trkpt>
      <trkpt lat="42.774635" lon="0.207497">
        <ele>1677.4</ele>
        <time>2020-07-04T07:43:51Z</time>
      </trkpt>
      <trkpt lat="42.774735" lon="0.207637">
        <ele>1679.2</ele>
        <time>2020-07-04T07:44:01Z</time>
      </trkpt>
      <trkpt lat="42.774834" lon="0.207793">
        <ele>1680.8</ele>
        <time>2020-07-04T07:44:12Z</time>
      </trkpt>
      <trkpt lat="42.774890" lon="0.207960">
        <ele>1686.6</ele>
        <time>2020-07-04T07:51:22Z</time>
      </trkpt>
      <trkpt lat="42.774929" lon="0.208137">
        <ele>1687.6</ele>
        <time>2020-07-04T07:51:44Z</time>
      </trkpt>
      <trkpt lat="42.774996" lon="0.208298">
        <ele>1689.3</ele>
        <time>2020-07-04T07:51:55Z</time>
      </trkpt>
      <trkpt lat="42.775033" lon="0.208463">
        <ele>1691.1</ele>
        <time>2020-07-04T07:52:06Z</time>
      </trkpt>
      <trkpt lat="42.775049" lon="0.208641">
        <ele>1692.7</ele>
        <time>2020-07-04T07:52:18Z</time>
      </trkpt>
      <trkpt lat="42.775057" lon="0.208808">
        <ele>1694.4</ele>
        <time>2020-07-04T07:52:30Z</time>
      </trkpt>
      <trkpt lat="42.775063" lon="0.208956">
        <ele>1696.0</ele>
        <time>2020-07-04T07:52:42Z</time>
      </trkpt>
      <trkpt lat="42.775045" lon="0.209148">
        <ele>1697.7</ele>
        <time>2020-07-04T07:52:54Z</time>
      </trkpt>
      <trkpt lat="42.775018" lon="0.209334">
        <ele>1699.9</ele>
        <time>2020-07-04T07:53:05Z</time>
      </trkpt>
      <trkpt lat="42.774974" lon="0.209526">
        <ele>1702.5</ele>
        <time>2020-07-04T07:53:16Z</time>
      </trkpt>
      <trkpt lat="42.774918" lon="0.209705">
        <ele>1704.2</ele>
        <time>2020-07-04T07:53:28Z</time>
      </trkpt>
      <trkpt lat="42.774908" lon="0.209913">
        <ele>1706.0</ele>
        <time>2020-07-04T07:53:40Z</time>
      </trkpt>
      <trkpt lat="42.775000" lon="0.210035">
        <ele>1706.7</ele>
        <time>2020-07-04T07:53:49Z</time>
      </trkpt>
      <trkpt lat="42.775136" lon="0.210096">
        <ele>1708.3</ele>
        <time>2020-07-04T07:53:59Z</time>
      </trkpt>
      <trkpt lat="42.775223" lon="0.210194">
        <ele>1710.3</ele>
        <time>2020-07-04T07:54:11Z</time>
      </trkpt>
      <trkpt lat="42.775269" lon="0.210360">
        <ele>1713.0</ele>
        <time>2020-07-04T07:54:28Z</time>
      </trkpt>
      <trkpt lat="42.775250" lon="0.210603">
        <ele>1715.5</ele>
        <time>2020-07-04T07:54:47Z</time>
      </trkpt>
      <trkpt lat="42.775227" lon="0.210858">
        <ele>1719.0</ele>
        <time>2020-07-04T07:55:05Z</time>
      </trkpt>
      <trkpt lat="42.775198" lon="0.211086">
        <ele>1721.5</ele>
        <time>2020-07-04T07:55:23Z</time>
      </trkpt>
      <trkpt lat="42.775179" lon="0.211293">
        <ele>1724.1</ele>
        <time>2020-07-04T07:55:40Z</time>
      </trkpt>
      <trkpt lat="42.775156" lon="0.211497">
        <ele>1727.4</ele>
        <time>2020-07-04T07:55:55Z</time>
      </trkpt>
      <trkpt lat="42.775134" lon="0.211709">
        <ele>1728.8</ele>
        <time>2020-07-04T07:56:05Z</time>
      </trkpt>
      <trkpt lat="42.775166" lon="0.211940">
        <ele>1730.4</ele>
        <time>2020-07-04T07:56:15Z</time>
      </trkpt>
      <trkpt lat="42.775168" lon="0.212136">
        <ele>1731.2</ele>
        <time>2020-07-04T07:56:24Z</time>
      </trkpt>
      <trkpt lat="42.775223" lon="0.212289">
        <ele>1732.8</ele>
        <time>2020-07-04T07:56:33Z</time>
      </trkpt>
      <trkpt lat="42.775255" lon="0.212446">
        <ele>1733.5</ele>
        <time>2020-07-04T07:56:41Z</time>
      </trkpt>
      <trkpt lat="42.775282" lon="0.212601">
        <ele>1735.2</ele>
        <time>2020-07-04T07:56:51Z</time>
      </trkpt>
      <trkpt lat="42.775301" lon="0.212759">
        <ele>1736.8</ele>
        <time>2020-07-04T07:56:59Z</time>
      </trkpt>
      <trkpt lat="42.775315" lon="0.212909">
        <ele>1737.6</ele>
        <time>2020-07-04T07:57:06Z</time>
      </trkpt>
      <trkpt lat="42.775329" lon="0.213060">
        <ele>1738.5</ele>
        <time>2020-07-04T07:57:14Z</time>
      </trkpt>
      <trkpt lat="42.775350" lon="0.213222">
        <ele>1739.3</ele>
        <time>2020-07-04T07:57:23Z</time>
      </trkpt>
      <trkpt lat="42.775283" lon="0.213306">
        <ele>1741.0</ele>
        <time>2020-07-04T07:57:32Z</time>
      </trkpt>
      <trkpt lat="42.775224" lon="0.213187">
        <ele>1742.9</ele>
        <time>2020-07-04T07:57:41Z</time>
      </trkpt>
      <trkpt lat="42.775174" lon="0.213071">
        <ele>1743.8</ele>
        <time>2020-07-04T07:57:49Z</time>
      </trkpt>
      <trkpt lat="42.775108" lon="0.212971">
        <ele>1744.7</ele>
        <time>2020-07-04T07:57:58Z</time>
      </trkpt>
      <trkpt lat="42.775017" lon="0.212961">
        <ele>1747.6</ele>
        <time>2020-07-04T07:58:53Z</time>
      </trkpt>
      <trkpt lat="42.774930" lon="0.213010">
        <ele>1749.5</ele>
        <time>2020-07-04T07:59:06Z</time>
      </trkpt>
      <trkpt lat="42.774851" lon="0.213086">
        <ele>1752.2</ele>
        <time>2020-07-04T07:59:18Z</time>
      </trkpt>
      <trkpt lat="42.774778" lon="0.213174">
        <ele>1755.0</ele>
        <time>2020-07-04T07:59:30Z</time>
      </trkpt>
      <trkpt lat="42.774690" lon="0.213248">
        <ele>1757.1</ele>
        <time>2020-07-04T07:59:42Z</time>
      </trkpt>
      <trkpt lat="42.774599" lon="0.213292">
        <ele>1759.9</ele>
        <time>2020-07-04T07:59:54Z</time>
      </trkpt>
      <trkpt lat="42.774512" lon="0.213356">
        <ele>1763.6</ele>
        <time>2020-07-04T08:00:09Z</time>
      </trkpt>
      <trkpt lat="42.774432" lon="0.213409">
        <ele>1767.2</ele>
        <time>2020-07-04T08:00:25Z</time>
      </trkpt>
      <trkpt lat="42.774345" lon="0.213448">
        <ele>1769.9</ele>
        <time>2020-07-04T08:00:39Z</time>
      </trkpt>
      <trkpt lat="42.774263" lon="0.213506">
        <ele>1773.6</ele>
        <time>2020-07-04T08:00:54Z</time>
      </trkpt>
      <trkpt lat="42.774181" lon="0.213600">
        <ele>1776.1</ele>
        <time>2020-07-04T08:01:11Z</time>
      </trkpt>
      <trkpt lat="42.774107" lon="0.213691">
        <ele>1779.3</ele>
        <time>2020-07-04T08:01:26Z</time>
      </trkpt>
      <trkpt lat="42.774061" lon="0.213787">
        <ele>1779.7</ele>
        <time>2020-07-04T08:01:42Z</time>
      </trkpt>
      <trkpt lat="42.774034" lon="0.213894">
        <ele>1784.2</ele>
        <time>2020-07-04T08:02:00Z</time>
      </trkpt>
      <trkpt lat="42.773986" lon="0.213978">
        <ele>1785.2</ele>
        <time>2020-07-04T08:04:25Z</time>
      </trkpt>
      <trkpt lat="42.773903" lon="0.213930">
        <ele>1786.3</ele>
        <time>2020-07-04T08:04:39Z</time>
      </trkpt>
      <trkpt lat="42.773833" lon="0.213850">
        <ele>1787.1</ele>
        <time>2020-07-04T08:04:49Z</time>
      </trkpt>
      <trkpt lat="42.773750" lon="0.213767">
        <ele>1788.7</ele>
        <time>2020-07-04T08:05:00Z</time>
      </trkpt>
      <trkpt lat="42.773659" lon="0.213761">
        <ele>1790.8</ele>
        <time>2020-07-04T08:05:12Z</time>
      </trkpt>
      <trkpt lat="42.773571" lon="0.213780">
        <ele>1793.8</ele>
        <time>2020-07-04T08:05:25Z</time>
      </trkpt>
      <trkpt lat="42.773471" lon="0.213789">
        <ele>1795.6</ele>
        <time>2020-07-04T08:05:38Z</time>
      </trkpt>
      <trkpt lat="42.773453" lon="0.213896">
        <ele>1798.5</ele>
        <time>2020-07-04T08:06:15Z</time>
      </trkpt>
      <trkpt lat="42.773488" lon="0.214015">
        <ele>1798.8</ele>
        <time>2020-07-04T08:06:40Z</time>
      </trkpt>
      <trkpt lat="42.773552" lon="0.214128">
        <ele>1798.9</ele>
        <time>2020-07-04T08:06:55Z</time>
      </trkpt>
      <trkpt lat="42.773639" lon="0.214236">
        <ele>1799.0</ele>
        <time>2020-07-04T08:07:09Z</time>
      </trkpt>
      <trkpt lat="42.773679" lon="0.214330">
        <ele>1799.9</ele>
        <time>2020-07-04T08:07:39Z</time>
      </trkpt>
      <trkpt lat="42.773715" lon="0.214451">
        <ele>1802.1</ele>
        <time>2020-07-04T08:08:19Z</time>
      </trkpt>
      <trkpt lat="42.773626" lon="0.214597">
        <ele>1808.3</ele>
        <time>2020-07-04T08:13:12Z</time>
      </trkpt>
      <trkpt lat="42.773537" lon="0.214646">
        <ele>1810.2</ele>
        <time>2020-07-04T08:13:29Z</time>
      </trkpt>
      <trkpt lat="42.773456" lon="0.214694">
        <ele>1812.7</ele>
        <time>2020-07-04T08:13:53Z</time>
      </trkpt>
      <trkpt lat="42.773415" lon="0.214811">
        <ele>1815.6</ele>
        <time>2020-07-04T08:14:13Z</time>
      </trkpt>
      <trkpt lat="42.773330" lon="0.214873">
        <ele>1819.0</ele>
        <time>2020-07-04T08:14:29Z</time>
      </trkpt>
      <trkpt lat="42.773269" lon="0.214972">
        <ele>1821.5</ele>
        <time>2020-07-04T08:14:48Z</time>
      </trkpt>
      <trkpt lat="42.773205" lon="0.215071">
        <ele>1825.9</ele>
        <time>2020-07-04T08:15:06Z</time>
      </trkpt>
      <trkpt lat="42.773141" lon="0.215162">
        <ele>1830.3</ele>
        <time>2020-07-04T08:15:26Z</time>
      </trkpt>
      <trkpt lat="42.773088" lon="0.215270">
        <ele>1835.2</ele>
        <time>2020-07-04T08:15:54Z</time>
      </trkpt>
      <trkpt lat="42.773049" lon="0.215377">
        <ele>1839.7</ele>
        <time>2020-07-04T08:16:14Z</time>
      </trkpt>
      <trkpt lat="42.773031" lon="0.215481">
        <ele>1844.0</ele>
        <time>2020-07-04T08:16:42Z</time>
      </trkpt>
      <trkpt lat="42.773001" lon="0.215593">
        <ele>1849.1</ele>
        <time>2020-07-04T08:17:14Z</time>
      </trkpt>
      <trkpt lat="42.773007" lon="0.215712">
        <ele>1853.8</ele>
        <time>2020-07-04T08:17:50Z</time>
      </trkpt>
      <trkpt lat="42.773013" lon="0.215848">
        <ele>1858.1</ele>
        <time>2020-07-04T08:18:16Z</time>
      </trkpt>
      <trkpt lat="42.772974" lon="0.215943">
        <ele>1862.9</ele>
        <time>2020-07-04T08:18:44Z</time>
      </trkpt>
      <trkpt lat="42.772885" lon="0.215975">
        <ele>1865.5</ele>
        <time>2020-07-04T08:19:19Z</time>
      </trkpt>
      <trkpt lat="42.772848" lon="0.216080">
        <ele>1870.0</ele>
        <time>2020-07-04T08:19:45Z</time>
      </trkpt>
      <trkpt lat="42.772793" lon="0.216153">
        <ele>1872.4</ele>
        <time>2020-07-04T08:20:07Z</time>
      </trkpt>
      <trkpt lat="42.772731" lon="0.216242">
        <ele>1876.0</ele>
        <time>2020-07-04T08:20:32Z</time>
      </trkpt>
      <trkpt lat="42.772664" lon="0.216316">
        <ele>1879.7</ele>
        <time>2020-07-04T08:20:53Z</time>
      </trkpt>
      <trkpt lat="42.772561" lon="0.216347">
        <ele>1881.2</ele>
        <time>2020-07-04T08:21:09Z</time>
      </trkpt>
      <trkpt lat="42.772565" lon="0.216414">
        <ele>1884.4</ele>
        <time>2020-07-04T08:22:51Z</time>
      </trkpt>
      <trkpt lat="42.772611" lon="0.216561">
        <ele>1887.0</ele>
        <time>2020-07-04T08:23:06Z</time>
      </trkpt>
      <trkpt lat="42.772668" lon="0.216701">
        <ele>1887.1</ele>
        <time>2020-07-04T08:23:19Z</time>
      </trkpt>
      <trkpt lat="42.772734" lon="0.216818">
        <ele>1887.9</ele>
        <time>2020-07-04T08:23:30Z</time>
      </trkpt>
      <trkpt lat="42.772828" lon="0.216900">
        <ele>1887.9</ele>
        <time>2020-07-04T08:23:41Z</time>
      </trkpt>
      <trkpt lat="42.772917" lon="0.217012">
        <ele>1888.0</ele>
        <time>2020-07-04T08:23:55Z</time>
      </trkpt>
      <trkpt lat="42.773000" lon="0.217133">
        <ele>1888.1</ele>
        <time>2020-07-04T08:24:11Z</time>
      </trkpt>
      <trkpt lat="42.773068" lon="0.217218">
        <ele>1889.1</ele>
        <time>2020-07-04T08:24:35Z</time>
      </trkpt>
      <trkpt lat="42.772998" lon="0.217295">
        <ele>1890.7</ele>
        <time>2020-07-04T08:24:56Z</time>
      </trkpt>
      <trkpt lat="42.772964" lon="0.217376">
        <ele>1893.4</ele>
        <time>2020-07-04T08:25:11Z</time>
      </trkpt>
      <trkpt lat="42.772970" lon="0.217500">
        <ele>1896.9</ele>
        <time>2020-07-04T08:25:29Z</time>
      </trkpt>
      <trkpt lat="42.772936" lon="0.217609">
        <ele>1899.5</ele>
        <time>2020-07-04T08:25:49Z</time>
      </trkpt>
      <trkpt lat="42.772928" lon="0.217739">
        <ele>1903.3</ele>
        <time>2020-07-04T08:26:08Z</time>
      </trkpt>
      <trkpt lat="42.772933" lon="0.217874">
        <ele>1905.8</ele>
        <time>2020-07-04T08:26:28Z</time>
      </trkpt>
      <trkpt lat="42.772961" lon="0.218009">
        <ele>1909.6</ele>
        <time>2020-07-04T08:26:50Z</time>
      </trkpt>
      <trkpt lat="42.772975" lon="0.218151">
        <ele>1913.0</ele>
        <time>2020-07-04T08:27:09Z</time>
      </trkpt>
      <trkpt lat="42.772974" lon="0.218206">
        <ele>1914.7</ele>
        <time>2020-07-04T08:28:16Z</time>
      </trkpt>
      <trkpt lat="42.773021" lon="0.218233">
        <ele>1915.6</ele>
        <time>2020-07-04T08:28:36Z</time>
      </trkpt>
      <trkpt lat="42.773096" lon="0.218333">
        <ele>1916.6</ele>
        <time>2020-07-04T08:28:51Z</time>
      </trkpt>
      <trkpt lat="42.773134" lon="0.218473">
        <ele>1920.8</ele>
        <time>2020-07-04T08:29:14Z</time>
      </trkpt>
      <trkpt lat="42.773084" lon="0.218514">
        <ele>1921.7</ele>
        <time>2020-07-04T08:29:31Z</time>
      </trkpt>
      <trkpt lat="42.773011" lon="0.218568">
        <ele>1923.3</ele>
        <time>2020-07-04T08:29:56Z</time>
      </trkpt>
      <trkpt lat="42.772932" lon="0.218502">
        <ele>1923.4</ele>
        <time>2020-07-04T08:30:19Z</time>
      </trkpt>
      <trkpt lat="42.772838" lon="0.218450">
        <ele>1923.5</ele>
        <time>2020-07-04T08:30:33Z</time>
      </trkpt>
      <trkpt lat="42.772730" lon="0.218458">
        <ele>1921.3</ele>
        <time>2020-07-04T08:30:57Z</time>
      </trkpt>
      <trkpt lat="42.772644" lon="0.218442">
        <ele>1923.8</ele>
        <time>2020-07-04T08:31:20Z</time>
      </trkpt>
      <trkpt lat="42.772618" lon="0.218549">
        <ele>1927.4</ele>
        <time>2020-07-04T08:31:41Z</time>
      </trkpt>
      <trkpt lat="42.772649" lon="0.218670">
        <ele>1931.8</ele>
        <time>2020-07-04T08:32:03Z</time>
      </trkpt>
      <trkpt lat="42.772745" lon="0.218742">
        <ele>1932.6</ele>
        <time>2020-07-04T08:32:15Z</time>
      </trkpt>
      <trkpt lat="42.772841" lon="0.218821">
        <ele>1934.3</ele>
        <time>2020-07-04T08:32:31Z</time>
      </trkpt>
      <trkpt lat="42.772788" lon="0.218907">
        <ele>1937.1</ele>
        <time>2020-07-04T08:32:49Z</time>
      </trkpt>
      <trkpt lat="42.772705" lon="0.218952">
        <ele>1939.0</ele>
        <time>2020-07-04T08:33:05Z</time>
      </trkpt>
      <trkpt lat="42.772643" lon="0.219039">
        <ele>1941.7</ele>
        <time>2020-07-04T08:33:20Z</time>
      </trkpt>
      <trkpt lat="42.772609" lon="0.219160">
        <ele>1947.1</ele>
        <time>2020-07-04T08:33:43Z</time>
      </trkpt>
      <trkpt lat="42.772587" lon="0.219276">
        <ele>1951.2</ele>
        <time>2020-07-04T08:34:06Z</time>
      </trkpt>
      <trkpt lat="42.772620" lon="0.219408">
        <ele>1957.0</ele>
        <time>2020-07-04T08:34:38Z</time>
      </trkpt>
      <trkpt lat="42.772655" lon="0.219538">
        <ele>1960.4</ele>
        <time>2020-07-04T08:35:00Z</time>
      </trkpt>
      <trkpt lat="42.772593" lon="0.219607">
        <ele>1965.5</ele>
        <time>2020-07-04T08:35:22Z</time>
      </trkpt>
      <trkpt lat="42.772595" lon="0.219725">
        <ele>1969.6</ele>
        <time>2020-07-04T08:35:44Z</time>
      </trkpt>
      <trkpt lat="42.772552" lon="0.219816">
        <ele>1973.0</ele>
        <time>2020-07-04T08:36:03Z</time>
      </trkpt>
      <trkpt lat="42.772579" lon="0.219939">
        <ele>1977.4</ele>
        <time>2020-07-04T08:36:21Z</time>
      </trkpt>
      <trkpt lat="42.772551" lon="0.220042">
        <ele>1980.9</ele>
        <time>2020-07-04T08:36:47Z</time>
      </trkpt>
      <trkpt lat="42.772450" lon="0.219989">
        <ele>1984.8</ele>
        <time>2020-07-04T08:37:04Z</time>
      </trkpt>
      <trkpt lat="42.772406" lon="0.220044">
        <ele>1988.1</ele>
        <time>2020-07-04T08:37:24Z</time>
      </trkpt>
      <trkpt lat="42.772465" lon="0.220183">
        <ele>1991.6</ele>
        <time>2020-07-04T08:37:42Z</time>
      </trkpt>
      <trkpt lat="42.772371" lon="0.220207">
        <ele>1995.1</ele>
        <time>2020-07-04T08:38:00Z</time>
      </trkpt>
      <trkpt lat="42.772284" lon="0.220223">
        <ele>1998.4</ele>
        <time>2020-07-04T08:38:19Z</time>
      </trkpt>
      <trkpt lat="42.772261" lon="0.220347">
        <ele>2002.5</ele>
        <time>2020-07-04T08:38:42Z</time>
      </trkpt>
      <trkpt lat="42.772169" lon="0.220389">
        <ele>2007.3</ele>
        <time>2020-07-04T08:39:02Z</time>
      </trkpt>
      <trkpt lat="42.772126" lon="0.220529">
        <ele>2011.6</ele>
        <time>2020-07-04T08:39:22Z</time>
      </trkpt>
      <trkpt lat="42.772186" lon="0.220707">
        <ele>2015.0</ele>
        <time>2020-07-04T08:39:39Z</time>
      </trkpt>
      <trkpt lat="42.772243" lon="0.220804">
        <ele>2017.1</ele>
        <time>2020-07-04T08:40:00Z</time>
      </trkpt>
      <trkpt lat="42.772280" lon="0.220953">
        <ele>2020.8</ele>
        <time>2020-07-04T08:40:17Z</time>
      </trkpt>
      <trkpt lat="42.772217" lon="0.221034">
        <ele>2024.1</ele>
        <time>2020-07-04T08:40:37Z</time>
      </trkpt>
      <trkpt lat="42.772148" lon="0.221117">
        <ele>2028.3</ele>
        <time>2020-07-04T08:41:00Z</time>
      </trkpt>
      <trkpt lat="42.772060" lon="0.221120">
        <ele>2030.8</ele>
        <time>2020-07-04T08:41:18Z</time>
      </trkpt>
      <trkpt lat="42.771927" lon="0.221010">
        <ele>2033.9</ele>
        <time>2020-07-04T08:41:35Z</time>
      </trkpt>
      <trkpt lat="42.771834" lon="0.220973">
        <ele>2037.1</ele>
        <time>2020-07-04T08:41:55Z</time>
      </trkpt>
      <trkpt lat="42.771734" lon="0.220922">
        <ele>2039.6</ele>
        <time>2020-07-04T08:42:11Z</time>
      </trkpt>
      <trkpt lat="42.771649" lon="0.220909">
        <ele>2042.2</ele>
        <time>2020-07-04T08:42:27Z</time>
      </trkpt>
      <trkpt lat="42.771564" lon="0.220897">
        <ele>2045.7</ele>
        <time>2020-07-04T08:42:43Z</time>
      </trkpt>
      <trkpt lat="42.771485" lon="0.220806">
        <ele>2048.3</ele>
        <time>2020-07-04T08:42:58Z</time>
      </trkpt>
      <trkpt lat="42.771390" lon="0.220743">
        <ele>2050.9</ele>
        <time>2020-07-04T08:43:15Z</time>
      </trkpt>
      <trkpt lat="42.771307" lon="0.220742">
        <ele>2055.1</ele>
        <time>2020-07-04T08:43:38Z</time>
      </trkpt>
      <trkpt lat="42.771209" lon="0.220711">
        <ele>2058.8</ele>
        <time>2020-07-04T08:43:54Z</time>
      </trkpt>
      <trkpt lat="42.771128" lon="0.220701">
        <ele>2060.6</ele>
        <time>2020-07-04T08:44:10Z</time>
      </trkpt>
      <trkpt lat="42.771060" lon="0.220778">
        <ele>2065.2</ele>
        <time>2020-07-04T08:44:34Z</time>
      </trkpt>
      <trkpt lat="42.771048" lon="0.220872">
        <ele>2068.9</ele>
        <time>2020-07-04T08:45:07Z</time>
      </trkpt>
      <trkpt lat="42.771065" lon="0.220817">
        <ele>2069.1</ele>
        <time>2020-07-04T08:46:27Z</time>
      </trkpt>
      <trkpt lat="42.771112" lon="0.220974">
        <ele>2070.0</ele>
        <time>2020-07-04T08:46:45Z</time>
      </trkpt>
      <trkpt lat="42.771170" lon="0.221056">
        <ele>2070.8</ele>
        <time>2020-07-04T08:46:57Z</time>
      </trkpt>
      <trkpt lat="42.771233" lon="0.221139">
        <ele>2072.5</ele>
        <time>2020-07-04T08:47:07Z</time>
      </trkpt>
      <trkpt lat="42.771291" lon="0.221251">
        <ele>2073.3</ele>
        <time>2020-07-04T08:47:17Z</time>
      </trkpt>
      <trkpt lat="42.771314" lon="0.221376">
        <ele>2074.3</ele>
        <time>2020-07-04T08:47:28Z</time>
      </trkpt>
      <trkpt lat="42.771373" lon="0.221499">
        <ele>2076.9</ele>
        <time>2020-07-04T08:47:43Z</time>
      </trkpt>
      <trkpt lat="42.771349" lon="0.221584">
        <ele>2079.3</ele>
        <time>2020-07-04T08:48:02Z</time>
      </trkpt>
      <trkpt lat="42.771241" lon="0.221614">
        <ele>2082.7</ele>
        <time>2020-07-04T08:48:21Z</time>
      </trkpt>
      <trkpt lat="42.771139" lon="0.221643">
        <ele>2086.5</ele>
        <time>2020-07-04T08:48:39Z</time>
      </trkpt>
      <trkpt lat="42.771112" lon="0.221745">
        <ele>2089.8</ele>
        <time>2020-07-04T08:49:00Z</time>
      </trkpt>
      <trkpt lat="42.771110" lon="0.221812">
        <ele>2090.9</ele>
        <time>2020-07-04T08:49:38Z</time>
      </trkpt>
      <trkpt lat="42.771102" lon="0.221952">
        <ele>2094.3</ele>
        <time>2020-07-04T08:49:56Z</time>
      </trkpt>
      <trkpt lat="42.771134" lon="0.222089">
        <ele>2096.1</ele>
        <time>2020-07-04T08:50:10Z</time>
      </trkpt>
      <trkpt lat="42.771171" lon="0.222213">
        <ele>2097.8</ele>
        <time>2020-07-04T08:50:21Z</time>
      </trkpt>
      <trkpt lat="42.771216" lon="0.222376">
        <ele>2100.7</ele>
        <time>2020-07-04T08:50:35Z</time>
      </trkpt>
      <trkpt lat="42.771271" lon="0.222526">
        <ele>2103.2</ele>
        <time>2020-07-04T08:50:49Z</time>
      </trkpt>
      <trkpt lat="42.771325" lon="0.222644">
        <ele>2106.1</ele>
        <time>2020-07-04T08:51:05Z</time>
      </trkpt>
      <trkpt lat="42.771234" lon="0.222648">
        <ele>2108.0</ele>
        <time>2020-07-04T08:51:18Z</time>
      </trkpt>
      <trkpt lat="42.771137" lon="0.222637">
        <ele>2110.8</ele>
        <time>2020-07-04T08:51:32Z</time>
      </trkpt>
      <trkpt lat="42.771039" lon="0.222615">
        <ele>2113.7</ele>
        <time>2020-07-04T08:51:47Z</time>
      </trkpt>
      <trkpt lat="42.770940" lon="0.222610">
        <ele>2117.3</ele>
        <time>2020-07-04T08:52:05Z</time>
      </trkpt>
      <trkpt lat="42.770938" lon="0.222710">
        <ele>2119.9</ele>
        <time>2020-07-04T08:52:22Z</time>
      </trkpt>
      <trkpt lat="42.770983" lon="0.222852">
        <ele>2123.3</ele>
        <time>2020-07-04T08:52:39Z</time>
      </trkpt>
      <trkpt lat="42.771016" lon="0.222984">
        <ele>2126.2</ele>
        <time>2020-07-04T08:52:57Z</time>
      </trkpt>
      <trkpt lat="42.771059" lon="0.223110">
        <ele>2129.7</ele>
        <time>2020-07-04T08:53:14Z</time>
      </trkpt>
      <trkpt lat="42.771000" lon="0.223194">
        <ele>2134.2</ele>
        <time>2020-07-04T08:53:38Z</time>
      </trkpt>
      <trkpt lat="42.770901" lon="0.223175">
        <ele>2136.9</ele>
        <time>2020-07-04T08:54:01Z</time>
      </trkpt>
      <trkpt lat="42.770808" lon="0.223186">
        <ele>2140.3</ele>
        <time>2020-07-04T08:54:18Z</time>
      </trkpt>
      <trkpt lat="42.770709" lon="0.223208">
        <ele>2143.8</ele>
        <time>2020-07-04T08:54:39Z</time>
      </trkpt>
      <trkpt lat="42.770708" lon="0.223335">
        <ele>2146.9</ele>
        <time>2020-07-04T08:55:00Z</time>
      </trkpt>
      <trkpt lat="42.770730" lon="0.223455">
        <ele>2150.3</ele>
        <time>2020-07-04T08:55:18Z</time>
      </trkpt>
      <trkpt lat="42.770789" lon="0.223555">
        <ele>2151.9</ele>
        <time>2020-07-04T08:55:32Z</time>
      </trkpt>
      <trkpt lat="42.770780" lon="0.223673">
        <ele>2155.6</ele>
        <time>2020-07-04T08:55:53Z</time>
      </trkpt>
      <trkpt lat="42.770682" lon="0.223641">
        <ele>2156.7</ele>
        <time>2020-07-04T08:57:02Z</time>
      </trkpt>
      <trkpt lat="42.770609" lon="0.223659">
        <ele>2158.6</ele>
        <time>2020-07-04T08:57:37Z</time>
      </trkpt>
      <trkpt lat="42.770629" lon="0.223783">
        <ele>2160.4</ele>
        <time>2020-07-04T08:57:52Z</time>
      </trkpt>
      <trkpt lat="42.770606" lon="0.223833">
        <ele>2161.3</ele>
        <time>2020-07-04T08:58:26Z</time>
      </trkpt>
      <trkpt lat="42.770575" lon="0.223713">
        <ele>2161.3</ele>
        <time>2020-07-04T08:58:47Z</time>
      </trkpt>
      <trkpt lat="42.770505" lon="0.223646">
        <ele>2161.4</ele>
        <time>2020-07-04T08:59:08Z</time>
      </trkpt>
      <trkpt lat="42.770409" lon="0.223610">
        <ele>2165.1</ele>
        <time>2020-07-04T08:59:25Z</time>
      </trkpt>
      <trkpt lat="42.770329" lon="0.223544">
        <ele>2169.3</ele>
        <time>2020-07-04T08:59:46Z</time>
      </trkpt>
      <trkpt lat="42.770245" lon="0.223512">
        <ele>2174.4</ele>
        <time>2020-07-04T09:00:13Z</time>
      </trkpt>
      <trkpt lat="42.770173" lon="0.223436">
        <ele>2179.7</ele>
        <time>2020-07-04T09:00:38Z</time>
      </trkpt>
      <trkpt lat="42.770138" lon="0.223363">
        <ele>2182.1</ele>
        <time>2020-07-04T09:00:58Z</time>
      </trkpt>
      <trkpt lat="42.770080" lon="0.223279">
        <ele>2185.0</ele>
        <time>2020-07-04T09:01:49Z</time>
      </trkpt>
      <trkpt lat="42.769990" lon="0.223248">
        <ele>2189.3</ele>
        <time>2020-07-04T09:02:22Z</time>
      </trkpt>
      <trkpt lat="42.769906" lon="0.223221">
        <ele>2195.9</ele>
        <time>2020-07-04T09:02:59Z</time>
      </trkpt>
      <trkpt lat="42.769856" lon="0.223293">
        <ele>2200.2</ele>
        <time>2020-07-04T09:03:27Z</time>
      </trkpt>
      <trkpt lat="42.769812" lon="0.223378">
        <ele>2205.7</ele>
        <time>2020-07-04T09:03:56Z</time>
      </trkpt>
      <trkpt lat="42.769814" lon="0.223499">
        <ele>2211.0</ele>
        <time>2020-07-04T09:04:26Z</time>
      </trkpt>
      <trkpt lat="42.769821" lon="0.223605">
        <ele>2216.3</ele>
        <time>2020-07-04T09:04:57Z</time>
      </trkpt>
      <trkpt lat="42.769798" lon="0.223702">
        <ele>2218.8</ele>
        <time>2020-07-04T09:05:17Z</time>
      </trkpt>
      <trkpt lat="42.769744" lon="0.223776">
        <ele>2223.0</ele>
        <time>2020-07-04T09:05:39Z</time>
      </trkpt>
      <trkpt lat="42.769683" lon="0.223784">
        <ele>2225.9</ele>
        <time>2020-07-04T09:06:06Z</time>
      </trkpt>
      <trkpt lat="42.769646" lon="0.223863">
        <ele>2230.0</ele>
        <time>2020-07-04T09:06:28Z</time>
      </trkpt>
      <trkpt lat="42.769546" lon="0.223870">
        <ele>2233.5</ele>
        <time>2020-07-04T09:06:48Z</time>
      </trkpt>
      <trkpt lat="42.769488" lon="0.223854">
        <ele>2236.9</ele>
        <time>2020-07-04T09:07:17Z</time>
      </trkpt>
      <trkpt lat="42.769422" lon="0.223785">
        <ele>2241.3</ele>
        <time>2020-07-04T09:07:48Z</time>
      </trkpt>
      <trkpt lat="42.769366" lon="0.223732">
        <ele>2243.8</ele>
        <time>2020-07-04T09:12:57Z</time>
      </trkpt>
      <trkpt lat="42.769274" lon="0.223688">
        <ele>2241.5</ele>
        <time>2020-07-04T09:13:08Z</time>
      </trkpt>
      <trkpt lat="42.769197" lon="0.223617">
        <ele>2241.7</ele>
        <time>2020-07-04T09:13:19Z</time>
      </trkpt>
      <trkpt lat="42.769125" lon="0.223549">
        <ele>2241.9</ele>
        <time>2020-07-04T09:13:31Z</time>
      </trkpt>
      <trkpt lat="42.769029" lon="0.223522">
        <ele>2244.2</ele>
        <time>2020-07-04T09:13:47Z</time>
      </trkpt>
      <trkpt lat="42.768935" lon="0.223520">
        <ele>2244.3</ele>
        <time>2020-07-04T09:14:00Z</time>
      </trkpt>
      <trkpt lat="42.768849" lon="0.223552">
        <ele>2247.1</ele>
        <time>2020-07-04T09:14:13Z</time>
      </trkpt>
      <trkpt lat="42.768758" lon="0.223535">
        <ele>2247.9</ele>
        <time>2020-07-04T09:14:25Z</time>
      </trkpt>
      <trkpt lat="42.768665" lon="0.223537">
        <ele>2250.7</ele>
        <time>2020-07-04T09:14:42Z</time>
      </trkpt>
      <trkpt lat="42.768582" lon="0.223588">
        <ele>2254.3</ele>
        <time>2020-07-04T09:15:01Z</time>
      </trkpt>
      <trkpt lat="42.768547" lon="0.223597">
        <ele>2259.1</ele>
        <time>2020-07-04T09:15:24Z</time>
      </trkpt>
      <trkpt lat="42.768454" lon="0.223574">
        <ele>2262.8</ele>
        <time>2020-07-04T09:15:42Z</time>
      </trkpt>
      <trkpt lat="42.768369" lon="0.223589">
        <ele>2266.7</ele>
        <time>2020-07-04T09:16:05Z</time>
      </trkpt>
      <trkpt lat="42.768280" lon="0.223592">
        <ele>2271.3</ele>
        <time>2020-07-04T09:16:27Z</time>
      </trkpt>
      <trkpt lat="42.768193" lon="0.223562">
        <ele>2274.9</ele>
        <time>2020-07-04T09:16:49Z</time>
      </trkpt>
      <trkpt lat="42.768102" lon="0.223540">
        <ele>2274.8</ele>
        <time>2020-07-04T09:17:02Z</time>
      </trkpt>
      <trkpt lat="42.768044" lon="0.223475">
        <ele>2271.4</ele>
        <time>2020-07-04T09:17:17Z</time>
      </trkpt>
      <trkpt lat="42.767953" lon="0.223422">
        <ele>2270.7</ele>
        <time>2020-07-04T09:17:27Z</time>
      </trkpt>
      <trkpt lat="42.767869" lon="0.223364">
        <ele>2270.8</ele>
        <time>2020-07-04T09:17:37Z</time>
      </trkpt>
      <trkpt lat="42.767786" lon="0.223321">
        <ele>2271.0</ele>
        <time>2020-07-04T09:17:49Z</time>
      </trkpt>
      <trkpt lat="42.767714" lon="0.223255">
        <ele>2271.1</ele>
        <time>2020-07-04T09:18:00Z</time>
      </trkpt>
      <trkpt lat="42.767628" lon="0.223189">
        <ele>2271.1</ele>
        <time>2020-07-04T09:18:11Z</time>
      </trkpt>
      <trkpt lat="42.767553" lon="0.223107">
        <ele>2270.2</ele>
        <time>2020-07-04T09:18:21Z</time>
      </trkpt>
      <trkpt lat="42.767490" lon="0.223031">
        <ele>2267.7</ele>
        <time>2020-07-04T09:18:33Z</time>
      </trkpt>
      <trkpt lat="42.767409" lon="0.222976">
        <ele>2267.8</ele>
        <time>2020-07-04T09:18:43Z</time>
      </trkpt>
      <trkpt lat="42.767331" lon="0.222904">
        <ele>2267.0</ele>
        <time>2020-07-04T09:18:53Z</time>
      </trkpt>
      <trkpt lat="42.767257" lon="0.222824">
        <ele>2267.1</ele>
        <time>2020-07-04T09:19:03Z</time>
      </trkpt>
      <trkpt lat="42.767187" lon="0.222740">
        <ele>2267.2</ele>
        <time>2020-07-04T09:19:13Z</time>
      </trkpt>
      <trkpt lat="42.767101" lon="0.222697">
        <ele>2269.8</ele>
        <time>2020-07-04T09:19:28Z</time>
      </trkpt>
      <trkpt lat="42.767019" lon="0.222641">
        <ele>2269.9</ele>
        <time>2020-07-04T09:19:39Z</time>
      </trkpt>
      <trkpt lat="42.766955" lon="0.222552">
        <ele>2269.9</ele>
        <time>2020-07-04T09:19:50Z</time>
      </trkpt>
      <trkpt lat="42.766880" lon="0.222493">
        <ele>2270.0</ele>
        <time>2020-07-04T09:20:02Z</time>
      </trkpt>
      <trkpt lat="42.766873" lon="0.222498">
        <ele>2271.4</ele>
        <time>2020-07-04T09:23:38Z</time>
      </trkpt>
      <trkpt lat="42.766790" lon="0.222442">
        <ele>2271.4</ele>
        <time>2020-07-04T09:23:47Z</time>
      </trkpt>
      <trkpt lat="42.766704" lon="0.222375">
        <ele>2271.4</ele>
        <time>2020-07-04T09:23:57Z</time>
      </trkpt>
      <trkpt lat="42.766629" lon="0.222296">
        <ele>2272.4</ele>
        <time>2020-07-04T09:24:09Z</time>
      </trkpt>
      <trkpt lat="42.766545" lon="0.222234">
        <ele>2275.2</ele>
        <time>2020-07-04T09:24:23Z</time>
      </trkpt>
      <trkpt lat="42.766465" lon="0.222167">
        <ele>2276.8</ele>
        <time>2020-07-04T09:24:39Z</time>
      </trkpt>
      <trkpt lat="42.766380" lon="0.222131">
        <ele>2274.4</ele>
        <time>2020-07-04T09:24:53Z</time>
      </trkpt>
      <trkpt lat="42.766306" lon="0.222065">
        <ele>2274.6</ele>
        <time>2020-07-04T09:25:17Z</time>
      </trkpt>
      <trkpt lat="42.766235" lon="0.222024">
        <ele>2277.8</ele>
        <time>2020-07-04T09:25:36Z</time>
      </trkpt>
      <trkpt lat="42.766181" lon="0.221947">
        <ele>2277.9</ele>
        <time>2020-07-04T09:25:53Z</time>
      </trkpt>
      <trkpt lat="42.766095" lon="0.221917">
        <ele>2278.9</ele>
        <time>2020-07-04T09:26:08Z</time>
      </trkpt>
      <trkpt lat="42.766047" lon="0.221809">
        <ele>2279.8</ele>
        <time>2020-07-04T09:26:22Z</time>
      </trkpt>
      <trkpt lat="42.766058" lon="0.221696">
        <ele>2276.6</ele>
        <time>2020-07-04T09:26:38Z</time>
      </trkpt>
      <trkpt lat="42.766011" lon="0.221583">
        <ele>2276.7</ele>
        <time>2020-07-04T09:26:51Z</time>
      </trkpt>
      <trkpt lat="42.765950" lon="0.221497">
        <ele>2276.9</ele>
        <time>2020-07-04T09:27:06Z</time>
      </trkpt>
      <trkpt lat="42.765861" lon="0.221473">
        <ele>2276.9</ele>
        <time>2020-07-04T09:27:21Z</time>
      </trkpt>
      <trkpt lat="42.765772" lon="0.221440">
        <ele>2279.3</ele>
        <time>2020-07-04T09:27:37Z</time>
      </trkpt>
      <trkpt lat="42.765698" lon="0.221349">
        <ele>2280.1</ele>
        <time>2020-07-04T09:27:52Z</time>
      </trkpt>
      <trkpt lat="42.765762" lon="0.221313">
        <ele>2277.8</ele>
        <time>2020-07-04T09:28:10Z</time>
      </trkpt>
      <trkpt lat="42.765701" lon="0.221258">
        <ele>2276.0</ele>
        <time>2020-07-04T09:28:41Z</time>
      </trkpt>
      <trkpt lat="42.765626" lon="0.221259">
        <ele>2274.6</ele>
        <time>2020-07-04T09:29:26Z</time>
      </trkpt>
      <trkpt lat="42.765581" lon="0.221220">
        <ele>2271.1</ele>
        <time>2020-07-04T09:30:01Z</time>
      </trkpt>
      <trkpt lat="42.765516" lon="0.221144">
        <ele>2268.5</ele>
        <time>2020-07-04T09:30:20Z</time>
      </trkpt>
      <trkpt lat="42.765537" lon="0.221074">
        <ele>2265.6</ele>
        <time>2020-07-04T09:30:38Z</time>
      </trkpt>
      <trkpt lat="42.765553" lon="0.221023">
        <ele>2260.9</ele>
        <time>2020-07-04T09:31:00Z</time>
      </trkpt>
      <trkpt lat="42.765454" lon="0.221003">
        <ele>2260.2</ele>
        <time>2020-07-04T09:31:13Z</time>
      </trkpt>
      <trkpt lat="42.765363" lon="0.220949">
        <ele>2260.2</ele>
        <time>2020-07-04T09:31:24Z</time>
      </trkpt>
      <trkpt lat="42.765286" lon="0.220886">
        <ele>2260.3</ele>
        <time>2020-07-04T09:31:35Z</time>
      </trkpt>
      <trkpt lat="42.765224" lon="0.220797">
        <ele>2260.4</ele>
        <time>2020-07-04T09:31:46Z</time>
      </trkpt>
      <trkpt lat="42.765139" lon="0.220749">
        <ele>2263.6</ele>
        <time>2020-07-04T09:31:58Z</time>
      </trkpt>
      <trkpt lat="42.765050" lon="0.220711">
        <ele>2266.3</ele>
        <time>2020-07-04T09:32:13Z</time>
      </trkpt>
      <trkpt lat="42.764954" lon="0.220696">
        <ele>2267.9</ele>
        <time>2020-07-04T09:32:27Z</time>
      </trkpt>
      <trkpt lat="42.764888" lon="0.220636">
        <ele>2270.7</ele>
        <time>2020-07-04T09:32:42Z</time>
      </trkpt>
      <trkpt lat="42.764834" lon="0.220619">
        <ele>2274.2</ele>
        <time>2020-07-04T09:33:04Z</time>
      </trkpt>
      <trkpt lat="42.764748" lon="0.220580">
        <ele>2277.0</ele>
        <time>2020-07-04T09:33:25Z</time>
      </trkpt>
      <trkpt lat="42.764661" lon="0.220532">
        <ele>2278.9</ele>
        <time>2020-07-04T09:33:40Z</time>
      </trkpt>
      <trkpt lat="42.764572" lon="0.220532">
        <ele>2280.8</ele>
        <time>2020-07-04T09:33:56Z</time>
      </trkpt>
      <trkpt lat="42.764478" lon="0.220519">
        <ele>2284.4</ele>
        <time>2020-07-04T09:34:15Z</time>
      </trkpt>
      <trkpt lat="42.764403" lon="0.220480">
        <ele>2287.2</ele>
        <time>2020-07-04T09:34:36Z</time>
      </trkpt>
      <trkpt lat="42.764327" lon="0.220436">
        <ele>2291.4</ele>
        <time>2020-07-04T09:34:58Z</time>
      </trkpt>
      <trkpt lat="42.764249" lon="0.220383">
        <ele>2294.1</ele>
        <time>2020-07-04T09:35:19Z</time>
      </trkpt>
      <trkpt lat="42.764209" lon="0.220439">
        <ele>2298.5</ele>
        <time>2020-07-04T09:35:42Z</time>
      </trkpt>
      <trkpt lat="42.764133" lon="0.220447">
        <ele>2301.5</ele>
        <time>2020-07-04T09:36:01Z</time>
      </trkpt>
      <trkpt lat="42.764061" lon="0.220424">
        <ele>2306.0</ele>
        <time>2020-07-04T09:36:22Z</time>
      </trkpt>
      <trkpt lat="42.763988" lon="0.220408">
        <ele>2309.3</ele>
        <time>2020-07-04T09:36:42Z</time>
      </trkpt>
      <trkpt lat="42.763922" lon="0.220368">
        <ele>2312.8</ele>
        <time>2020-07-04T09:37:03Z</time>
      </trkpt>
      <trkpt lat="42.763860" lon="0.220319">
        <ele>2316.5</ele>
        <time>2020-07-04T09:37:25Z</time>
      </trkpt>
      <trkpt lat="42.763786" lon="0.220315">
        <ele>2320.1</ele>
        <time>2020-07-04T09:37:49Z</time>
      </trkpt>
      <trkpt lat="42.763710" lon="0.220281">
        <ele>2323.4</ele>
        <time>2020-07-04T09:38:13Z</time>
      </trkpt>
      <trkpt lat="42.763659" lon="0.220255">
        <ele>2327.1</ele>
        <time>2020-07-04T09:39:13Z</time>
      </trkpt>
      <trkpt lat="42.763605" lon="0.220220">
        <ele>2330.4</ele>
        <time>2020-07-04T09:40:44Z</time>
      </trkpt>
      <trkpt lat="42.763550" lon="0.220186">
        <ele>2333.8</ele>
        <time>2020-07-04T09:41:06Z</time>
      </trkpt>
      <trkpt lat="42.763479" lon="0.220143">
        <ele>2337.6</ele>
        <time>2020-07-04T09:41:29Z</time>
      </trkpt>
      <trkpt lat="42.763410" lon="0.220144">
        <ele>2341.8</ele>
        <time>2020-07-04T09:41:55Z</time>
      </trkpt>
      <trkpt lat="42.763333" lon="0.220082">
        <ele>2346.2</ele>
        <time>2020-07-04T09:42:26Z</time>
      </trkpt>
      <trkpt lat="42.763261" lon="0.220062">
        <ele>2349.7</ele>
        <time>2020-07-04T09:42:49Z</time>
      </trkpt>
      <trkpt lat="42.763187" lon="0.220044">
        <ele>2354.1</ele>
        <time>2020-07-04T09:43:12Z</time>
      </trkpt>
      <trkpt lat="42.763104" lon="0.220030">
        <ele>2357.7</ele>
        <time>2020-07-04T09:43:35Z</time>
      </trkpt>
      <trkpt lat="42.763025" lon="0.220010">
        <ele>2361.5</ele>
        <time>2020-07-04T09:43:57Z</time>
      </trkpt>
      <trkpt lat="42.762945" lon="0.220005">
        <ele>2366.0</ele>
        <time>2020-07-04T09:44:21Z</time>
      </trkpt>
      <trkpt lat="42.762875" lon="0.219967">
        <ele>2370.4</ele>
        <time>2020-07-04T09:44:44Z</time>
      </trkpt>
      <trkpt lat="42.762814" lon="0.219981">
        <ele>2374.0</ele>
        <time>2020-07-04T09:45:06Z</time>
      </trkpt>
      <trkpt lat="42.762775" lon="0.219924">
        <ele>2376.7</ele>
        <time>2020-07-04T09:45:33Z</time>
      </trkpt>
      <trkpt lat="42.762725" lon="0.219894">
        <ele>2380.3</ele>
        <time>2020-07-04T09:46:17Z</time>
      </trkpt>
      <trkpt lat="42.762668" lon="0.219912">
        <ele>2384.8</ele>
        <time>2020-07-04T09:46:39Z</time>
      </trkpt>
      <trkpt lat="42.762618" lon="0.219895">
        <ele>2388.1</ele>
        <time>2020-07-04T09:47:00Z</time>
      </trkpt>
      <trkpt lat="42.762551" lon="0.219836">
        <ele>2391.3</ele>
        <time>2020-07-04T09:47:26Z</time>
      </trkpt>
      <trkpt lat="42.762487" lon="0.219786">
        <ele>2396.1</ele>
        <time>2020-07-04T09:47:52Z</time>
      </trkpt>
      <trkpt lat="42.762424" lon="0.219771">
        <ele>2400.5</ele>
        <time>2020-07-04T09:48:18Z</time>
      </trkpt>
      <trkpt lat="42.762368" lon="0.219682">
        <ele>2403.1</ele>
        <time>2020-07-04T09:48:37Z</time>
      </trkpt>
      <trkpt lat="42.762283" lon="0.219622">
        <ele>2407.4</ele>
        <time>2020-07-04T09:48:58Z</time>
      </trkpt>
      <trkpt lat="42.762217" lon="0.219558">
        <ele>2410.9</ele>
        <time>2020-07-04T09:49:20Z</time>
      </trkpt>
      <trkpt lat="42.762149" lon="0.219501">
        <ele>2415.3</ele>
        <time>2020-07-04T09:49:45Z</time>
      </trkpt>
      <trkpt lat="42.762088" lon="0.219534">
        <ele>2418.8</ele>
        <time>2020-07-04T09:50:10Z</time>
      </trkpt>
      <trkpt lat="42.762015" lon="0.219469">
        <ele>2422.6</ele>
        <time>2020-07-04T09:50:34Z</time>
      </trkpt>
      <trkpt lat="42.761946" lon="0.219410">
        <ele>2426.8</ele>
        <time>2020-07-04T09:50:59Z</time>
      </trkpt>
      <trkpt lat="42.761874" lon="0.219357">
        <ele>2430.6</ele>
        <time>2020-07-04T09:51:23Z</time>
      </trkpt>
      <trkpt lat="42.761803" lon="0.219311">
        <ele>2434.8</ele>
        <time>2020-07-04T09:51:49Z</time>
      </trkpt>
      <trkpt lat="42.761747" lon="0.219225">
        <ele>2440.5</ele>
        <time>2020-07-04T09:52:25Z</time>
      </trkpt>
      <trkpt lat="42.761705" lon="0.219154">
        <ele>2444.2</ele>
        <time>2020-07-04T09:52:54Z</time>
      </trkpt>
      <trkpt lat="42.761651" lon="0.219084">
        <ele>2449.7</ele>
        <time>2020-07-04T09:53:31Z</time>
      </trkpt>
      <trkpt lat="42.761632" lon="0.219014">
        <ele>2451.4</ele>
        <time>2020-07-04T09:53:53Z</time>
      </trkpt>
      <trkpt lat="42.761591" lon="0.218918">
        <ele>2455.9</ele>
        <time>2020-07-04T09:54:19Z</time>
      </trkpt>
      <trkpt lat="42.761542" lon="0.218823">
        <ele>2460.2</ele>
        <time>2020-07-04T09:54:54Z</time>
      </trkpt>
      <trkpt lat="42.761478" lon="0.218731">
        <ele>2462.8</ele>
        <time>2020-07-04T09:55:16Z</time>
      </trkpt>
      <trkpt lat="42.761423" lon="0.218650">
        <ele>2467.1</ele>
        <time>2020-07-04T09:55:54Z</time>
      </trkpt>
      <trkpt lat="42.761374" lon="0.218547">
        <ele>2471.5</ele>
        <time>2020-07-04T09:56:22Z</time>
      </trkpt>
      <trkpt lat="42.761365" lon="0.218534">
        <ele>2474.2</ele>
        <time>2020-07-04T10:04:07Z</time>
      </trkpt>
      <trkpt lat="42.761355" lon="0.218525">
        <ele>2474.4</ele>
        <time>2020-07-04T10:05:43Z</time>
      </trkpt>
      <trkpt lat="42.761306" lon="0.218453">
        <ele>2478.6</ele>
        <time>2020-07-04T10:06:15Z</time>
      </trkpt>
      <trkpt lat="42.761246" lon="0.218368">
        <ele>2482.2</ele>
        <time>2020-07-04T10:06:37Z</time>
      </trkpt>
      <trkpt lat="42.761181" lon="0.218284">
        <ele>2486.8</ele>
        <time>2020-07-04T10:07:08Z</time>
      </trkpt>
      <trkpt lat="42.761111" lon="0.218215">
        <ele>2491.4</ele>
        <time>2020-07-04T10:07:39Z</time>
      </trkpt>
      <trkpt lat="42.761044" lon="0.218159">
        <ele>2495.2</ele>
        <time>2020-07-04T10:08:06Z</time>
      </trkpt>
      <trkpt lat="42.760992" lon="0.218086">
        <ele>2499.6</ele>
        <time>2020-07-04T10:08:40Z</time>
      </trkpt>
      <trkpt lat="42.760935" lon="0.218001">
        <ele>2503.1</ele>
        <time>2020-07-04T10:09:07Z</time>
      </trkpt>
      <trkpt lat="42.760864" lon="0.217968">
        <ele>2508.6</ele>
        <time>2020-07-04T10:09:47Z</time>
      </trkpt>
      <trkpt lat="42.760791" lon="0.217910">
        <ele>2512.2</ele>
        <time>2020-07-04T10:10:12Z</time>
      </trkpt>
      <trkpt lat="42.760711" lon="0.217856">
        <ele>2515.6</ele>
        <time>2020-07-04T10:10:39Z</time>
      </trkpt>
      <trkpt lat="42.760647" lon="0.217777">
        <ele>2518.3</ele>
        <time>2020-07-04T10:10:59Z</time>
      </trkpt>
      <trkpt lat="42.760569" lon="0.217751">
        <ele>2521.6</ele>
        <time>2020-07-04T10:11:24Z</time>
      </trkpt>
      <trkpt lat="42.760518" lon="0.217679">
        <ele>2524.5</ele>
        <time>2020-07-04T10:11:50Z</time>
      </trkpt>
      <trkpt lat="42.760449" lon="0.217644">
        <ele>2530.2</ele>
        <time>2020-07-04T10:12:20Z</time>
      </trkpt>
      <trkpt lat="42.760385" lon="0.217558">
        <ele>2533.8</ele>
        <time>2020-07-04T10:12:46Z</time>
      </trkpt>
      <trkpt lat="42.760325" lon="0.217471">
        <ele>2537.0</ele>
        <time>2020-07-04T10:13:15Z</time>
      </trkpt>
      <trkpt lat="42.760282" lon="0.217459">
        <ele>2542.2</ele>
        <time>2020-07-04T10:13:46Z</time>
      </trkpt>
      <trkpt lat="42.760226" lon="0.217448">
        <ele>2546.7</ele>
        <time>2020-07-04T10:14:22Z</time>
      </trkpt>
      <trkpt lat="42.760167" lon="0.217412">
        <ele>2552.8</ele>
        <time>2020-07-04T10:14:58Z</time>
      </trkpt>
      <trkpt lat="42.760109" lon="0.217350">
        <ele>2557.3</ele>
        <time>2020-07-04T10:15:24Z</time>
      </trkpt>
      <trkpt lat="42.760040" lon="0.217286">
        <ele>2560.5</ele>
        <time>2020-07-04T10:16:14Z</time>
      </trkpt>
      <trkpt lat="42.759975" lon="0.217263">
        <ele>2564.9</ele>
        <time>2020-07-04T10:16:40Z</time>
      </trkpt>
      <trkpt lat="42.759894" lon="0.217192">
        <ele>2568.9</ele>
        <time>2020-07-04T10:17:05Z</time>
      </trkpt>
      <trkpt lat="42.759865" lon="0.217076">
        <ele>2570.6</ele>
        <time>2020-07-04T10:17:23Z</time>
      </trkpt>
      <trkpt lat="42.759800" lon="0.217031">
        <ele>2574.8</ele>
        <time>2020-07-04T10:18:13Z</time>
      </trkpt>
      <trkpt lat="42.759743" lon="0.216996">
        <ele>2578.2</ele>
        <time>2020-07-04T10:18:36Z</time>
      </trkpt>
      <trkpt lat="42.759669" lon="0.216963">
        <ele>2582.8</ele>
        <time>2020-07-04T10:19:01Z</time>
      </trkpt>
      <trkpt lat="42.759636" lon="0.216905">
        <ele>2585.7</ele>
        <time>2020-07-04T10:20:16Z</time>
      </trkpt>
      <trkpt lat="42.759573" lon="0.216848">
        <ele>2588.5</ele>
        <time>2020-07-04T10:21:05Z</time>
      </trkpt>
      <trkpt lat="42.759503" lon="0.216808">
        <ele>2592.2</ele>
        <time>2020-07-04T10:21:28Z</time>
      </trkpt>
      <trkpt lat="42.759424" lon="0.216756">
        <ele>2595.8</ele>
        <time>2020-07-04T10:21:51Z</time>
      </trkpt>
      <trkpt lat="42.759339" lon="0.216716">
        <ele>2600.0</ele>
        <time>2020-07-04T10:22:14Z</time>
      </trkpt>
      <trkpt lat="42.759263" lon="0.216650">
        <ele>2603.7</ele>
        <time>2020-07-04T10:22:33Z</time>
      </trkpt>
      <trkpt lat="42.759192" lon="0.216577">
        <ele>2606.4</ele>
        <time>2020-07-04T10:23:29Z</time>
      </trkpt>
      <trkpt lat="42.759107" lon="0.216528">
        <ele>2609.8</ele>
        <time>2020-07-04T10:23:57Z</time>
      </trkpt>
      <trkpt lat="42.759025" lon="0.216491">
        <ele>2613.4</ele>
        <time>2020-07-04T10:24:23Z</time>
      </trkpt>
      <trkpt lat="42.758941" lon="0.216423">
        <ele>2615.4</ele>
        <time>2020-07-04T10:24:51Z</time>
      </trkpt>
      <trkpt lat="42.758854" lon="0.216392">
        <ele>2617.3</ele>
        <time>2020-07-04T10:25:10Z</time>
      </trkpt>
      <trkpt lat="42.758774" lon="0.216348">
        <ele>2618.3</ele>
        <time>2020-07-04T10:25:47Z</time>
      </trkpt>
      <trkpt lat="42.758752" lon="0.216364">
        <ele>2622.3</ele>
        <time>2020-07-04T10:38:18Z</time>
      </trkpt>
      <trkpt lat="42.758663" lon="0.216343">
        <ele>2620.0</ele>
        <time>2020-07-04T10:38:39Z</time>
      </trkpt>
      <trkpt lat="42.758657" lon="0.216273">
        <ele>2615.7</ele>
        <time>2020-07-04T10:39:13Z</time>
      </trkpt>
      <trkpt lat="42.758575" lon="0.216327">
        <ele>2615.0</ele>
        <time>2020-07-04T10:39:35Z</time>
      </trkpt>
      <trkpt lat="42.758493" lon="0.216352">
        <ele>2614.2</ele>
        <time>2020-07-04T10:39:57Z</time>
      </trkpt>
      <trkpt lat="42.758406" lon="0.216380">
        <ele>2613.4</ele>
        <time>2020-07-04T10:40:13Z</time>
      </trkpt>
      <trkpt lat="42.758328" lon="0.216432">
        <ele>2613.5</ele>
        <time>2020-07-04T10:40:30Z</time>
      </trkpt>
      <trkpt lat="42.758239" lon="0.216447">
        <ele>2612.7</ele>
        <time>2020-07-04T10:40:45Z</time>
      </trkpt>
      <trkpt lat="42.758156" lon="0.216485">
        <ele>2610.3</ele>
        <time>2020-07-04T10:41:03Z</time>
      </trkpt>
      <trkpt lat="42.758083" lon="0.216559">
        <ele>2609.5</ele>
        <time>2020-07-04T10:41:16Z</time>
      </trkpt>
      <trkpt lat="42.758000" lon="0.216597">
        <ele>2609.5</ele>
        <time>2020-07-04T10:41:31Z</time>
      </trkpt>
      <trkpt lat="42.757918" lon="0.216583">
        <ele>2607.9</ele>
        <time>2020-07-04T10:41:49Z</time>
      </trkpt>
      <trkpt lat="42.757837" lon="0.216631">
        <ele>2607.2</ele>
        <time>2020-07-04T10:42:17Z</time>
      </trkpt>
      <trkpt lat="42.757744" lon="0.216639">
        <ele>2605.6</ele>
        <time>2020-07-04T10:42:33Z</time>
      </trkpt>
      <trkpt lat="42.757653" lon="0.216655">
        <ele>2605.6</ele>
        <time>2020-07-04T10:42:45Z</time>
      </trkpt>
      <trkpt lat="42.757563" lon="0.216679">
        <ele>2605.7</ele>
        <time>2020-07-04T10:43:01Z</time>
      </trkpt>
      <trkpt lat="42.757484" lon="0.216711">
        <ele>2608.0</ele>
        <time>2020-07-04T10:43:15Z</time>
      </trkpt>
      <trkpt lat="42.757396" lon="0.216724">
        <ele>2609.7</ele>
        <time>2020-07-04T10:44:00Z</time>
      </trkpt>
      <trkpt lat="42.757313" lon="0.216770">
        <ele>2611.6</ele>
        <time>2020-07-04T10:44:18Z</time>
      </trkpt>
      <trkpt lat="42.757231" lon="0.216794">
        <ele>2612.6</ele>
        <time>2020-07-04T10:44:39Z</time>
      </trkpt>
      <trkpt lat="42.757157" lon="0.216824">
        <ele>2614.3</ele>
        <time>2020-07-04T10:44:59Z</time>
      </trkpt>
      <trkpt lat="42.757091" lon="0.216884">
        <ele>2617.5</ele>
        <time>2020-07-04T10:45:22Z</time>
      </trkpt>
      <trkpt lat="42.757019" lon="0.216893">
        <ele>2620.9</ele>
        <time>2020-07-04T10:45:55Z</time>
      </trkpt>
      <trkpt lat="42.756959" lon="0.216950">
        <ele>2622.6</ele>
        <time>2020-07-04T10:46:24Z</time>
      </trkpt>
      <trkpt lat="42.756906" lon="0.217033">
        <ele>2624.4</ele>
        <time>2020-07-04T10:46:44Z</time>
      </trkpt>
      <trkpt lat="42.756852" lon="0.217089">
        <ele>2625.4</ele>
        <time>2020-07-04T10:47:28Z</time>
      </trkpt>
      <trkpt lat="42.756753" lon="0.217111">
        <ele>2625.5</ele>
        <time>2020-07-04T10:48:00Z</time>
      </trkpt>
      <trkpt lat="42.756678" lon="0.217151">
        <ele>2626.5</ele>
        <time>2020-07-04T10:48:46Z</time>
      </trkpt>
      <trkpt lat="42.756598" lon="0.217202">
        <ele>2627.4</ele>
        <time>2020-07-04T10:49:12Z</time>
      </trkpt>
      <trkpt lat="42.756517" lon="0.217249">
        <ele>2627.3</ele>
        <time>2020-07-04T10:49:27Z</time>
      </trkpt>
      <trkpt lat="42.756437" lon="0.217258">
        <ele>2630.8</ele>
        <time>2020-07-04T10:49:56Z</time>
      </trkpt>
      <trkpt lat="42.756355" lon="0.217281">
        <ele>2632.6</ele>
        <time>2020-07-04T10:51:13Z</time>
      </trkpt>
      <trkpt lat="42.756268" lon="0.217335">
        <ele>2632.6</ele>
        <time>2020-07-04T10:51:30Z</time>
      </trkpt>
      <trkpt lat="42.756178" lon="0.217335">
        <ele>2632.7</ele>
        <time>2020-07-04T10:51:49Z</time>
      </trkpt>
      <trkpt lat="42.756116" lon="0.217388">
        <ele>2628.8</ele>
        <time>2020-07-04T10:52:24Z</time>
      </trkpt>
      <trkpt lat="42.756023" lon="0.217427">
        <ele>2624.6</ele>
        <time>2020-07-04T10:53:23Z</time>
      </trkpt>
      <trkpt lat="42.755984" lon="0.217382">
        <ele>2620.1</ele>
        <time>2020-07-04T10:53:56Z</time>
      </trkpt>
      <trkpt lat="42.755902" lon="0.217343">
        <ele>2616.0</ele>
        <time>2020-07-04T10:55:03Z</time>
      </trkpt>
      <trkpt lat="42.755819" lon="0.217346">
        <ele>2615.2</ele>
        <time>2020-07-04T10:55:24Z</time>
      </trkpt>
      <trkpt lat="42.755746" lon="0.217372">
        <ele>2613.6</ele>
        <time>2020-07-04T10:56:13Z</time>
      </trkpt>
      <trkpt lat="42.755658" lon="0.217396">
        <ele>2613.8</ele>
        <time>2020-07-04T10:56:32Z</time>
      </trkpt>
      <trkpt lat="42.755584" lon="0.217420">
        <ele>2612.9</ele>
        <time>2020-07-04T10:57:09Z</time>
      </trkpt>
      <trkpt lat="42.755522" lon="0.217414">
        <ele>2610.5</ele>
        <time>2020-07-04T10:57:38Z</time>
      </trkpt>
      <trkpt lat="42.755470" lon="0.217458">
        <ele>2609.6</ele>
        <time>2020-07-04T10:58:00Z</time>
      </trkpt>
      <trkpt lat="42.755399" lon="0.217510">
        <ele>2608.1</ele>
        <time>2020-07-04T10:58:23Z</time>
      </trkpt>
      <trkpt lat="42.755335" lon="0.217535">
        <ele>2607.2</ele>
        <time>2020-07-04T10:58:47Z</time>
      </trkpt>
      <trkpt lat="42.755261" lon="0.217586">
        <ele>2607.5</ele>
        <time>2020-07-04T10:59:55Z</time>
      </trkpt>
      <trkpt lat="42.755172" lon="0.217623">
        <ele>2607.6</ele>
        <time>2020-07-04T11:00:12Z</time>
      </trkpt>
      <trkpt lat="42.755098" lon="0.217630">
        <ele>2606.1</ele>
        <time>2020-07-04T11:00:55Z</time>
      </trkpt>
      <trkpt lat="42.755019" lon="0.217605">
        <ele>2604.5</ele>
        <time>2020-07-04T11:01:15Z</time>
      </trkpt>
      <trkpt lat="42.754958" lon="0.217560">
        <ele>2601.9</ele>
        <time>2020-07-04T11:01:36Z</time>
      </trkpt>
      <trkpt lat="42.754943" lon="0.217513">
        <ele>2598.5</ele>
        <time>2020-07-04T11:01:59Z</time>
      </trkpt>
      <trkpt lat="42.754896" lon="0.217457">
        <ele>2594.9</ele>
        <time>2020-07-04T11:02:21Z</time>
      </trkpt>
      <trkpt lat="42.754860" lon="0.217395">
        <ele>2590.6</ele>
        <time>2020-07-04T11:02:40Z</time>
      </trkpt>
      <trkpt lat="42.754805" lon="0.217354">
        <ele>2587.1</ele>
        <time>2020-07-04T11:02:58Z</time>
      </trkpt>
      <trkpt lat="42.754712" lon="0.217380">
        <ele>2587.2</ele>
        <time>2020-07-04T11:03:11Z</time>
      </trkpt>
      <trkpt lat="42.754635" lon="0.217424">
        <ele>2587.4</ele>
        <time>2020-07-04T11:03:29Z</time>
      </trkpt>
      <trkpt lat="42.754545" lon="0.217462">
        <ele>2590.6</ele>
        <time>2020-07-04T11:03:47Z</time>
      </trkpt>
      <trkpt lat="42.754446" lon="0.217471">
        <ele>2591.4</ele>
        <time>2020-07-04T11:04:02Z</time>
      </trkpt>
      <trkpt lat="42.754357" lon="0.217463">
        <ele>2591.4</ele>
        <time>2020-07-04T11:04:18Z</time>
      </trkpt>
      <trkpt lat="42.754276" lon="0.217507">
        <ele>2595.1</ele>
        <time>2020-07-04T11:04:38Z</time>
      </trkpt>
      <trkpt lat="42.754182" lon="0.217500">
        <ele>2596.8</ele>
        <time>2020-07-04T11:04:56Z</time>
      </trkpt>
      <trkpt lat="42.754098" lon="0.217531">
        <ele>2598.4</ele>
        <time>2020-07-04T11:05:13Z</time>
      </trkpt>
      <trkpt lat="42.754015" lon="0.217509">
        <ele>2600.2</ele>
        <time>2020-07-04T11:05:30Z</time>
      </trkpt>
      <trkpt lat="42.753935" lon="0.217433">
        <ele>2600.1</ele>
        <time>2020-07-04T11:05:45Z</time>
      </trkpt>
      <trkpt lat="42.753847" lon="0.217440">
        <ele>2600.4</ele>
        <time>2020-07-04T11:06:03Z</time>
      </trkpt>
      <trkpt lat="42.753755" lon="0.217486">
        <ele>2602.9</ele>
        <time>2020-07-04T11:06:22Z</time>
      </trkpt>
      <trkpt lat="42.753695" lon="0.217421">
        <ele>2600.4</ele>
        <time>2020-07-04T11:06:46Z</time>
      </trkpt>
      <trkpt lat="42.753727" lon="0.217378">
        <ele>2596.9</ele>
        <time>2020-07-04T11:07:12Z</time>
      </trkpt>
      <trkpt lat="42.753736" lon="0.217326">
        <ele>2592.9</ele>
        <time>2020-07-04T11:07:42Z</time>
      </trkpt>
      <trkpt lat="42.753648" lon="0.217346">
        <ele>2591.4</ele>
        <time>2020-07-04T11:08:02Z</time>
      </trkpt>
      <trkpt lat="42.753561" lon="0.217348">
        <ele>2590.5</ele>
        <time>2020-07-04T11:08:19Z</time>
      </trkpt>
      <trkpt lat="42.753480" lon="0.217306">
        <ele>2586.8</ele>
        <time>2020-07-04T11:08:41Z</time>
      </trkpt>
      <trkpt lat="42.753406" lon="0.217319">
        <ele>2586.1</ele>
        <time>2020-07-04T11:09:26Z</time>
      </trkpt>
      <trkpt lat="42.753322" lon="0.217361">
        <ele>2588.4</ele>
        <time>2020-07-04T11:09:52Z</time>
      </trkpt>
      <trkpt lat="42.753234" lon="0.217365">
        <ele>2589.3</ele>
        <time>2020-07-04T11:10:10Z</time>
      </trkpt>
      <trkpt lat="42.753191" lon="0.217294">
        <ele>2586.0</ele>
        <time>2020-07-04T11:10:29Z</time>
      </trkpt>
      <trkpt lat="42.753175" lon="0.217234">
        <ele>2581.9</ele>
        <time>2020-07-04T11:10:51Z</time>
      </trkpt>
      <trkpt lat="42.753130" lon="0.217203">
        <ele>2579.2</ele>
        <time>2020-07-04T11:11:09Z</time>
      </trkpt>
      <trkpt lat="42.753070" lon="0.217251">
        <ele>2581.6</ele>
        <time>2020-07-04T11:11:28Z</time>
      </trkpt>
      <trkpt lat="42.752977" lon="0.217291">
        <ele>2584.1</ele>
        <time>2020-07-04T11:11:47Z</time>
      </trkpt>
      <trkpt lat="42.752913" lon="0.217373">
        <ele>2588.6</ele>
        <time>2020-07-04T11:12:11Z</time>
      </trkpt>
      <trkpt lat="42.752852" lon="0.217468">
        <ele>2591.7</ele>
        <time>2020-07-04T11:12:37Z</time>
      </trkpt>
      <trkpt lat="42.752786" lon="0.217537">
        <ele>2595.1</ele>
        <time>2020-07-04T11:13:00Z</time>
      </trkpt>
      <trkpt lat="42.752728" lon="0.217620">
        <ele>2598.6</ele>
        <time>2020-07-04T11:13:22Z</time>
      </trkpt>
      <trkpt lat="42.752651" lon="0.217628">
        <ele>2601.8</ele>
        <time>2020-07-04T11:14:24Z</time>
      </trkpt>
      <trkpt lat="42.752566" lon="0.217659">
        <ele>2604.3</ele>
        <time>2020-07-04T11:14:46Z</time>
      </trkpt>
      <trkpt lat="42.752483" lon="0.217705">
        <ele>2607.9</ele>
        <time>2020-07-04T11:15:15Z</time>
      </trkpt>
      <trkpt lat="42.752409" lon="0.217756">
        <ele>2611.5</ele>
        <time>2020-07-04T11:15:40Z</time>
      </trkpt>
      <trkpt lat="42.752326" lon="0.217804">
        <ele>2615.5</ele>
        <time>2020-07-04T11:16:02Z</time>
      </trkpt>
      <trkpt lat="42.752250" lon="0.217860">
        <ele>2618.9</ele>
        <time>2020-07-04T11:16:26Z</time>
      </trkpt>
      <trkpt lat="42.752163" lon="0.217900">
        <ele>2622.5</ele>
        <time>2020-07-04T11:16:49Z</time>
      </trkpt>
      <trkpt lat="42.752078" lon="0.217934">
        <ele>2626.6</ele>
        <time>2020-07-04T11:17:12Z</time>
      </trkpt>
      <trkpt lat="42.752027" lon="0.217991">
        <ele>2631.0</ele>
        <time>2020-07-04T11:17:41Z</time>
      </trkpt>
      <trkpt lat="42.751955" lon="0.218037">
        <ele>2634.5</ele>
        <time>2020-07-04T11:18:04Z</time>
      </trkpt>
      <trkpt lat="42.751928" lon="0.218115">
        <ele>2638.1</ele>
        <time>2020-07-04T11:18:27Z</time>
      </trkpt>
      <trkpt lat="42.751897" lon="0.218204">
        <ele>2642.5</ele>
        <time>2020-07-04T11:18:52Z</time>
      </trkpt>
      <trkpt lat="42.751818" lon="0.218234">
        <ele>2645.8</ele>
        <time>2020-07-04T11:19:16Z</time>
      </trkpt>
      <trkpt lat="42.751757" lon="0.218290">
        <ele>2649.9</ele>
        <time>2020-07-04T11:19:43Z</time>
      </trkpt>
      <trkpt lat="42.751679" lon="0.218325">
        <ele>2654.3</ele>
        <time>2020-07-04T11:20:07Z</time>
      </trkpt>
      <trkpt lat="42.751591" lon="0.218338">
        <ele>2657.6</ele>
        <time>2020-07-04T11:20:30Z</time>
      </trkpt>
      <trkpt lat="42.751496" lon="0.218343">
        <ele>2661.1</ele>
        <time>2020-07-04T11:20:51Z</time>
      </trkpt>
      <trkpt lat="42.751456" lon="0.218440">
        <ele>2664.0</ele>
        <time>2020-07-04T11:21:11Z</time>
      </trkpt>
      <trkpt lat="42.751381" lon="0.218500">
        <ele>2667.6</ele>
        <time>2020-07-04T11:21:53Z</time>
      </trkpt>
      <trkpt lat="42.751297" lon="0.218513">
        <ele>2671.0</ele>
        <time>2020-07-04T11:22:15Z</time>
      </trkpt>
      <trkpt lat="42.751230" lon="0.218449">
        <ele>2674.5</ele>
        <time>2020-07-04T11:22:45Z</time>
      </trkpt>
      <trkpt lat="42.751147" lon="0.218442">
        <ele>2677.0</ele>
        <time>2020-07-04T11:23:06Z</time>
      </trkpt>
      <trkpt lat="42.751085" lon="0.218492">
        <ele>2680.9</ele>
        <time>2020-07-04T11:23:33Z</time>
      </trkpt>
      <trkpt lat="42.750998" lon="0.218494">
        <ele>2684.5</ele>
        <time>2020-07-04T11:23:54Z</time>
      </trkpt>
      <trkpt lat="42.750917" lon="0.218464">
        <ele>2688.0</ele>
        <time>2020-07-04T11:24:17Z</time>
      </trkpt>
      <trkpt lat="42.750828" lon="0.218444">
        <ele>2691.5</ele>
        <time>2020-07-04T11:24:39Z</time>
      </trkpt>
      <trkpt lat="42.750743" lon="0.218411">
        <ele>2694.1</ele>
        <time>2020-07-04T11:25:01Z</time>
      </trkpt>
      <trkpt lat="42.750671" lon="0.218365">
        <ele>2695.8</ele>
        <time>2020-07-04T11:25:27Z</time>
      </trkpt>
      <trkpt lat="42.750577" lon="0.218344">
        <ele>2699.4</ele>
        <time>2020-07-04T11:25:55Z</time>
      </trkpt>
      <trkpt lat="42.750493" lon="0.218320">
        <ele>2702.1</ele>
        <time>2020-07-04T11:26:17Z</time>
      </trkpt>
      <trkpt lat="42.750406" lon="0.218263">
        <ele>2702.9</ele>
        <time>2020-07-04T11:26:35Z</time>
      </trkpt>
      <trkpt lat="42.750331" lon="0.218203">
        <ele>2703.7</ele>
        <time>2020-07-04T11:26:52Z</time>
      </trkpt>
      <trkpt lat="42.750244" lon="0.218153">
        <ele>2705.3</ele>
        <time>2020-07-04T11:27:09Z</time>
      </trkpt>
      <trkpt lat="42.750153" lon="0.218131">
        <ele>2707.1</ele>
        <time>2020-07-04T11:27:26Z</time>
      </trkpt>
      <trkpt lat="42.750064" lon="0.218136">
        <ele>2708.7</ele>
        <time>2020-07-04T11:27:42Z</time>
      </trkpt>
      <trkpt lat="42.749985" lon="0.218168">
        <ele>2711.5</ele>
        <time>2020-07-04T11:28:05Z</time>
      </trkpt>
      <trkpt lat="42.749894" lon="0.218203">
        <ele>2715.9</ele>
        <time>2020-07-04T11:28:24Z</time>
      </trkpt>
      <trkpt lat="42.749802" lon="0.218193">
        <ele>2718.3</ele>
        <time>2020-07-04T11:28:39Z</time>
      </trkpt>
      <trkpt lat="42.749720" lon="0.218175">
        <ele>2718.9</ele>
        <time>2020-07-04T11:29:04Z</time>
      </trkpt>
      <trkpt lat="42.749680" lon="0.218097">
        <ele>2712.6</ele>
        <time>2020-07-04T11:33:39Z</time>
      </trkpt>
      <trkpt lat="42.749631" lon="0.218174">
        <ele>2715.0</ele>
        <time>2020-07-04T11:34:31Z</time>
      </trkpt>
      <trkpt lat="42.749673" lon="0.218222">
        <ele>2708.5</ele>
        <time>2020-07-04T11:35:47Z</time>
      </trkpt>
      <trkpt lat="42.749681" lon="0.218294">
        <ele>2703.0</ele>
        <time>2020-07-04T11:36:41Z</time>
      </trkpt>
      <trkpt lat="42.749641" lon="0.218405">
        <ele>2695.9</ele>
        <time>2020-07-04T11:37:22Z</time>
      </trkpt>
      <trkpt lat="42.749667" lon="0.218480">
        <ele>2692.7</ele>
        <time>2020-07-04T11:37:56Z</time>
      </trkpt>
      <trkpt lat="42.749622" lon="0.218549">
        <ele>2685.2</ele>
        <time>2020-07-04T11:38:41Z</time>
      </trkpt>
      <trkpt lat="42.749614" lon="0.218617">
        <ele>2682.7</ele>
        <time>2020-07-04T11:39:05Z</time>
      </trkpt>
      <trkpt lat="42.749622" lon="0.218708">
        <ele>2677.5</ele>
        <time>2020-07-04T11:39:28Z</time>
      </trkpt>
      <trkpt lat="42.749597" lon="0.218667">
        <ele>2675.9</ele>
        <time>2020-07-04T11:40:08Z</time>
      </trkpt>
      <trkpt lat="42.749541" lon="0.218535">
        <ele>2676.0</ele>
        <time>2020-07-04T11:40:26Z</time>
      </trkpt>
      <trkpt lat="42.749502" lon="0.218413">
        <ele>2676.1</ele>
        <time>2020-07-04T11:40:53Z</time>
      </trkpt>
      <trkpt lat="42.749455" lon="0.218285">
        <ele>2676.1</ele>
        <time>2020-07-04T11:41:21Z</time>
      </trkpt>
      <trkpt lat="42.749392" lon="0.218152">
        <ele>2676.2</ele>
        <time>2020-07-04T11:41:44Z</time>
      </trkpt>
      <trkpt lat="42.749295" lon="0.218047">
        <ele>2676.3</ele>
        <time>2020-07-04T11:42:04Z</time>
      </trkpt>
      <trkpt lat="42.749230" lon="0.217934">
        <ele>2678.6</ele>
        <time>2020-07-04T11:42:21Z</time>
      </trkpt>
      <trkpt lat="42.749203" lon="0.217807">
        <ele>2680.3</ele>
        <time>2020-07-04T11:43:23Z</time>
      </trkpt>
      <trkpt lat="42.749194" lon="0.217787">
        <ele>2680.2</ele>
        <time>2020-07-04T11:44:40Z</time>
      </trkpt>
      <trkpt lat="42.749144" lon="0.217736">
        <ele>2677.6</ele>
        <time>2020-07-04T11:45:02Z</time>
      </trkpt>
      <trkpt lat="42.749063" lon="0.217677">
        <ele>2676.8</ele>
        <time>2020-07-04T11:45:14Z</time>
      </trkpt>
      <trkpt lat="42.749010" lon="0.217646">
        <ele>2676.8</ele>
        <time>2020-07-04T11:46:11Z</time>
      </trkpt>
      <trkpt lat="42.748924" lon="0.217573">
        <ele>2676.8</ele>
        <time>2020-07-04T11:46:54Z</time>
      </trkpt>
      <trkpt lat="42.748854" lon="0.217509">
        <ele>2675.9</ele>
        <time>2020-07-04T11:47:09Z</time>
      </trkpt>
      <trkpt lat="42.748782" lon="0.217454">
        <ele>2674.1</ele>
        <time>2020-07-04T11:47:27Z</time>
      </trkpt>
      <trkpt lat="42.748712" lon="0.217395">
        <ele>2672.4</ele>
        <time>2020-07-04T11:47:45Z</time>
      </trkpt>
      <trkpt lat="42.748644" lon="0.217314">
        <ele>2671.6</ele>
        <time>2020-07-04T11:47:57Z</time>
      </trkpt>
      <trkpt lat="42.748569" lon="0.217234">
        <ele>2670.8</ele>
        <time>2020-07-04T11:48:08Z</time>
      </trkpt>
      <trkpt lat="42.748506" lon="0.217146">
        <ele>2670.8</ele>
        <time>2020-07-04T11:48:19Z</time>
      </trkpt>
      <trkpt lat="42.748465" lon="0.217110">
        <ele>2670.1</ele>
        <time>2020-07-04T11:48:42Z</time>
      </trkpt>
      <trkpt lat="42.748381" lon="0.217045">
        <ele>2670.0</ele>
        <time>2020-07-04T11:48:56Z</time>
      </trkpt>
      <trkpt lat="42.748303" lon="0.216959">
        <ele>2670.0</ele>
        <time>2020-07-04T11:49:08Z</time>
      </trkpt>
      <trkpt lat="42.748245" lon="0.216852">
        <ele>2672.5</ele>
        <time>2020-07-04T11:49:21Z</time>
      </trkpt>
      <trkpt lat="42.748172" lon="0.216770">
        <ele>2674.1</ele>
        <time>2020-07-04T11:49:46Z</time>
      </trkpt>
      <trkpt lat="42.748141" lon="0.216709">
        <ele>2676.5</ele>
        <time>2020-07-04T11:50:14Z</time>
      </trkpt>
      <trkpt lat="42.748095" lon="0.216591">
        <ele>2679.8</ele>
        <time>2020-07-04T11:50:33Z</time>
      </trkpt>
      <trkpt lat="42.748049" lon="0.216511">
        <ele>2682.1</ele>
        <time>2020-07-04T11:50:56Z</time>
      </trkpt>
      <trkpt lat="42.747987" lon="0.216466">
        <ele>2686.4</ele>
        <time>2020-07-04T11:51:24Z</time>
      </trkpt>
      <trkpt lat="42.747928" lon="0.216420">
        <ele>2690.6</ele>
        <time>2020-07-04T11:51:53Z</time>
      </trkpt>
      <trkpt lat="42.747904" lon="0.216358">
        <ele>2692.9</ele>
        <time>2020-07-04T11:53:33Z</time>
      </trkpt>
      <trkpt lat="42.747885" lon="0.216340">
        <ele>2693.3</ele>
        <time>2020-07-04T11:58:52Z</time>
      </trkpt>
      <trkpt lat="42.747847" lon="0.216325">
        <ele>2697.1</ele>
        <time>2020-07-04T11:59:47Z</time>
      </trkpt>
      <trkpt lat="42.747791" lon="0.216345">
        <ele>2703.2</ele>
        <time>2020-07-04T12:00:25Z</time>
      </trkpt>
      <trkpt lat="42.747754" lon="0.216310">
        <ele>2707.6</ele>
        <time>2020-07-04T12:01:14Z</time>
      </trkpt>
      <trkpt lat="42.747706" lon="0.216258">
        <ele>2713.8</ele>
        <time>2020-07-04T12:01:48Z</time>
      </trkpt>
      <trkpt lat="42.747654" lon="0.216230">
        <ele>2718.6</ele>
        <time>2020-07-04T12:02:19Z</time>
      </trkpt>
      <trkpt lat="42.747582" lon="0.216252">
        <ele>2724.4</ele>
        <time>2020-07-04T12:03:44Z</time>
      </trkpt>
      <trkpt lat="42.747551" lon="0.216195">
        <ele>2733.5</ele>
        <time>2020-07-04T12:06:08Z</time>
      </trkpt>
      <trkpt lat="42.747502" lon="0.216153">
        <ele>2735.6</ele>
        <time>2020-07-04T12:06:33Z</time>
      </trkpt>
      <trkpt lat="42.747451" lon="0.216065">
        <ele>2738.9</ele>
        <time>2020-07-04T12:06:52Z</time>
      </trkpt>
      <trkpt lat="42.747395" lon="0.216037">
        <ele>2744.6</ele>
        <time>2020-07-04T12:07:17Z</time>
      </trkpt>
      <trkpt lat="42.747331" lon="0.215954">
        <ele>2748.9</ele>
        <time>2020-07-04T12:07:43Z</time>
      </trkpt>
      <trkpt lat="42.747288" lon="0.215866">
        <ele>2752.4</ele>
        <time>2020-07-04T12:08:05Z</time>
      </trkpt>
      <trkpt lat="42.747250" lon="0.215753">
        <ele>2753.1</ele>
        <time>2020-07-04T12:08:43Z</time>
      </trkpt>
      <trkpt lat="42.747192" lon="0.215649">
        <ele>2753.2</ele>
        <time>2020-07-04T12:09:03Z</time>
      </trkpt>
      <trkpt lat="42.747112" lon="0.215570">
        <ele>2757.9</ele>
        <time>2020-07-04T12:09:26Z</time>
      </trkpt>
      <trkpt lat="42.747027" lon="0.215533">
        <ele>2760.6</ele>
        <time>2020-07-04T12:09:55Z</time>
      </trkpt>
      <trkpt lat="42.746963" lon="0.215486">
        <ele>2760.7</ele>
        <time>2020-07-04T12:10:21Z</time>
      </trkpt>
      <trkpt lat="42.746903" lon="0.215388">
        <ele>2765.0</ele>
        <time>2020-07-04T12:10:48Z</time>
      </trkpt>
      <trkpt lat="42.746837" lon="0.215287">
        <ele>2770.2</ele>
        <time>2020-07-04T12:11:28Z</time>
      </trkpt>
      <trkpt lat="42.746793" lon="0.215167">
        <ele>2774.6</ele>
        <time>2020-07-04T12:11:49Z</time>
      </trkpt>
      <trkpt lat="42.746736" lon="0.215081">
        <ele>2778.3</ele>
        <time>2020-07-04T12:12:22Z</time>
      </trkpt>
      <trkpt lat="42.746687" lon="0.214989">
        <ele>2782.9</ele>
        <time>2020-07-04T12:12:42Z</time>
      </trkpt>
      <trkpt lat="42.746631" lon="0.214888">
        <ele>2785.4</ele>
        <time>2020-07-04T12:13:02Z</time>
      </trkpt>
      <trkpt lat="42.746590" lon="0.214779">
        <ele>2788.6</ele>
        <time>2020-07-04T12:13:23Z</time>
      </trkpt>
      <trkpt lat="42.746546" lon="0.214712">
        <ele>2794.0</ele>
        <time>2020-07-04T13:41:20Z</time>
      </trkpt>
      <trkpt lat="42.746552" lon="0.214709">
        <ele>2793.9</ele>
        <time>2020-07-04T13:43:01Z</time>
      </trkpt>
      <trkpt lat="42.746470" lon="0.214629">
        <ele>2793.8</ele>
        <time>2020-07-04T13:43:15Z</time>
      </trkpt>
      <trkpt lat="42.746408" lon="0.214532">
        <ele>2793.8</ele>
        <time>2020-07-04T13:43:34Z</time>
      </trkpt>
      <trkpt lat="42.746401" lon="0.214436">
        <ele>2792.1</ele>
        <time>2020-07-04T13:44:19Z</time>
      </trkpt>
      <trkpt lat="42.746417" lon="0.214305">
        <ele>2788.7</ele>
        <time>2020-07-04T13:45:13Z</time>
      </trkpt>
      <trkpt lat="42.746406" lon="0.214187">
        <ele>2786.2</ele>
        <time>2020-07-04T13:45:37Z</time>
      </trkpt>
      <trkpt lat="42.746405" lon="0.214143">
        <ele>2781.9</ele>
        <time>2020-07-04T13:46:55Z</time>
      </trkpt>
      <trkpt lat="42.746446" lon="0.214097">
        <ele>2778.3</ele>
        <time>2020-07-04T13:47:33Z</time>
      </trkpt>
      <trkpt lat="42.746433" lon="0.214006">
        <ele>2774.0</ele>
        <time>2020-07-04T13:48:11Z</time>
      </trkpt>
      <trkpt lat="42.746474" lon="0.213991">
        <ele>2768.9</ele>
        <time>2020-07-04T13:48:55Z</time>
      </trkpt>
      <trkpt lat="42.746505" lon="0.213974">
        <ele>2764.3</ele>
        <time>2020-07-04T13:50:33Z</time>
      </trkpt>
      <trkpt lat="42.746481" lon="0.213840">
        <ele>2761.8</ele>
        <time>2020-07-04T13:50:55Z</time>
      </trkpt>
      <trkpt lat="42.746428" lon="0.213744">
        <ele>2760.0</ele>
        <time>2020-07-04T13:51:08Z</time>
      </trkpt>
      <trkpt lat="42.746397" lon="0.213732">
        <ele>2758.0</ele>
        <time>2020-07-04T13:51:40Z</time>
      </trkpt>
      <trkpt lat="42.746339" lon="0.213751">
        <ele>2758.0</ele>
        <time>2020-07-04T13:52:01Z</time>
      </trkpt>
      <trkpt lat="42.746253" lon="0.213818">
        <ele>2756.1</ele>
        <time>2020-07-04T13:52:13Z</time>
      </trkpt>
      <trkpt lat="42.746150" lon="0.213898">
        <ele>2756.3</ele>
        <time>2020-07-04T13:52:26Z</time>
      </trkpt>
      <trkpt lat="42.746072" lon="0.213870">
        <ele>2755.3</ele>
        <time>2020-07-04T13:53:19Z</time>
      </trkpt>
      <trkpt lat="42.745988" lon="0.213794">
        <ele>2755.3</ele>
        <time>2020-07-04T13:53:37Z</time>
      </trkpt>
      <trkpt lat="42.745971" lon="0.213789">
        <ele>2755.0</ele>
        <time>2020-07-04T13:55:44Z</time>
      </trkpt>
      <trkpt lat="42.745841" lon="0.213722">
        <ele>2755.1</ele>
        <time>2020-07-04T13:55:58Z</time>
      </trkpt>
      <trkpt lat="42.745768" lon="0.213623">
        <ele>2757.4</ele>
        <time>2020-07-04T13:56:25Z</time>
      </trkpt>
      <trkpt lat="42.745760" lon="0.213504">
        <ele>2754.3</ele>
        <time>2020-07-04T13:57:23Z</time>
      </trkpt>
      <trkpt lat="42.745684" lon="0.213397">
        <ele>2751.9</ele>
        <time>2020-07-04T13:58:19Z</time>
      </trkpt>
      <trkpt lat="42.745632" lon="0.213330">
        <ele>2749.5</ele>
        <time>2020-07-04T13:58:47Z</time>
      </trkpt>
      <trkpt lat="42.745557" lon="0.213261">
        <ele>2748.5</ele>
        <time>2020-07-04T13:59:01Z</time>
      </trkpt>
      <trkpt lat="42.745486" lon="0.213214">
        <ele>2752.4</ele>
        <time>2020-07-04T13:59:20Z</time>
      </trkpt>
      <trkpt lat="42.745408" lon="0.213178">
        <ele>2755.7</ele>
        <time>2020-07-04T13:59:43Z</time>
      </trkpt>
      <trkpt lat="42.745328" lon="0.213140">
        <ele>2760.3</ele>
        <time>2020-07-04T14:00:05Z</time>
      </trkpt>
      <trkpt lat="42.745229" lon="0.213172">
        <ele>2760.9</ele>
        <time>2020-07-04T14:00:25Z</time>
      </trkpt>
      <trkpt lat="42.745148" lon="0.213142">
        <ele>2764.3</ele>
        <time>2020-07-04T14:01:12Z</time>
      </trkpt>
      <trkpt lat="42.745062" lon="0.213124">
        <ele>2767.7</ele>
        <time>2020-07-04T14:01:32Z</time>
      </trkpt>
      <trkpt lat="42.744982" lon="0.213098">
        <ele>2772.6</ele>
        <time>2020-07-04T14:01:52Z</time>
      </trkpt>
      <trkpt lat="42.744921" lon="0.213074">
        <ele>2776.1</ele>
        <time>2020-07-04T14:02:11Z</time>
      </trkpt>
      <trkpt lat="42.744894" lon="0.212970">
        <ele>2775.9</ele>
        <time>2020-07-04T14:02:38Z</time>
      </trkpt>
      <trkpt lat="42.744849" lon="0.212887">
        <ele>2777.6</ele>
        <time>2020-07-04T14:03:14Z</time>
      </trkpt>
      <trkpt lat="42.744790" lon="0.212885">
        <ele>2780.4</ele>
        <time>2020-07-04T14:03:36Z</time>
      </trkpt>
      <trkpt lat="42.744737" lon="0.212919">
        <ele>2780.2</ele>
        <time>2020-07-04T14:04:59Z</time>
      </trkpt>
      <trkpt lat="42.744657" lon="0.212968">
        <ele>2780.2</ele>
        <time>2020-07-04T14:05:14Z</time>
      </trkpt>
      <trkpt lat="42.744581" lon="0.213022">
        <ele>2780.2</ele>
        <time>2020-07-04T14:05:28Z</time>
      </trkpt>
      <trkpt lat="42.744504" lon="0.213087">
        <ele>2780.1</ele>
        <time>2020-07-04T14:05:41Z</time>
      </trkpt>
      <trkpt lat="42.744422" lon="0.213138">
        <ele>2780.1</ele>
        <time>2020-07-04T14:05:53Z</time>
      </trkpt>
      <trkpt lat="42.744337" lon="0.213189">
        <ele>2780.1</ele>
        <time>2020-07-04T14:06:07Z</time>
      </trkpt>
      <trkpt lat="42.744251" lon="0.213236">
        <ele>2780.1</ele>
        <time>2020-07-04T14:06:23Z</time>
      </trkpt>
      <trkpt lat="42.744174" lon="0.213295">
        <ele>2776.8</ele>
        <time>2020-07-04T14:06:39Z</time>
      </trkpt>
      <trkpt lat="42.744087" lon="0.213346">
        <ele>2776.8</ele>
        <time>2020-07-04T14:06:51Z</time>
      </trkpt>
      <trkpt lat="42.743996" lon="0.213350">
        <ele>2775.9</ele>
        <time>2020-07-04T14:07:02Z</time>
      </trkpt>
      <trkpt lat="42.743935" lon="0.213422">
        <ele>2774.2</ele>
        <time>2020-07-04T14:07:15Z</time>
      </trkpt>
      <trkpt lat="42.743857" lon="0.213404">
        <ele>2769.4</ele>
        <time>2020-07-04T14:07:32Z</time>
      </trkpt>
      <trkpt lat="42.743807" lon="0.213355">
        <ele>2765.5</ele>
        <time>2020-07-04T14:07:48Z</time>
      </trkpt>
      <trkpt lat="42.743766" lon="0.213299">
        <ele>2760.9</ele>
        <time>2020-07-04T14:08:04Z</time>
      </trkpt>
      <trkpt lat="42.743679" lon="0.213307">
        <ele>2757.3</ele>
        <time>2020-07-04T14:08:21Z</time>
      </trkpt>
      <trkpt lat="42.743644" lon="0.213281">
        <ele>2754.6</ele>
        <time>2020-07-04T14:08:37Z</time>
      </trkpt>
      <trkpt lat="42.743579" lon="0.213257">
        <ele>2749.8</ele>
        <time>2020-07-04T14:08:52Z</time>
      </trkpt>
      <trkpt lat="42.743590" lon="0.213189">
        <ele>2747.2</ele>
        <time>2020-07-04T14:09:08Z</time>
      </trkpt>
      <trkpt lat="42.743613" lon="0.213098">
        <ele>2742.7</ele>
        <time>2020-07-04T14:09:26Z</time>
      </trkpt>
      <trkpt lat="42.743541" lon="0.213098">
        <ele>2738.5</ele>
        <time>2020-07-04T14:09:46Z</time>
      </trkpt>
      <trkpt lat="42.743461" lon="0.213101">
        <ele>2733.9</ele>
        <time>2020-07-04T14:10:04Z</time>
      </trkpt>
      <trkpt lat="42.743370" lon="0.213093">
        <ele>2731.0</ele>
        <time>2020-07-04T14:10:21Z</time>
      </trkpt>
      <trkpt lat="42.743286" lon="0.213091">
        <ele>2727.5</ele>
        <time>2020-07-04T14:10:37Z</time>
      </trkpt>
      <trkpt lat="42.743226" lon="0.213053">
        <ele>2724.0</ele>
        <time>2020-07-04T14:10:55Z</time>
      </trkpt>
      <trkpt lat="42.743206" lon="0.212967">
        <ele>2719.5</ele>
        <time>2020-07-04T14:11:16Z</time>
      </trkpt>
      <trkpt lat="42.743126" lon="0.212959">
        <ele>2715.1</ele>
        <time>2020-07-04T14:11:33Z</time>
      </trkpt>
      <trkpt lat="42.743039" lon="0.212927">
        <ele>2713.3</ele>
        <time>2020-07-04T14:11:45Z</time>
      </trkpt>
      <trkpt lat="42.742960" lon="0.212875">
        <ele>2713.4</ele>
        <time>2020-07-04T14:11:58Z</time>
      </trkpt>
      <trkpt lat="42.742882" lon="0.212867">
        <ele>2713.3</ele>
        <time>2020-07-04T14:12:24Z</time>
      </trkpt>
      <trkpt lat="42.742813" lon="0.212820">
        <ele>2712.4</ele>
        <time>2020-07-04T14:12:46Z</time>
      </trkpt>
      <trkpt lat="42.742762" lon="0.212782">
        <ele>2708.0</ele>
        <time>2020-07-04T14:13:11Z</time>
      </trkpt>
      <trkpt lat="42.742688" lon="0.212839">
        <ele>2706.4</ele>
        <time>2020-07-04T14:13:35Z</time>
      </trkpt>
      <trkpt lat="42.742626" lon="0.212837">
        <ele>2705.5</ele>
        <time>2020-07-04T14:14:02Z</time>
      </trkpt>
      <trkpt lat="42.742610" lon="0.212776">
        <ele>2701.3</ele>
        <time>2020-07-04T14:14:20Z</time>
      </trkpt>
      <trkpt lat="42.742529" lon="0.212774">
        <ele>2698.7</ele>
        <time>2020-07-04T14:14:36Z</time>
      </trkpt>
      <trkpt lat="42.742457" lon="0.212745">
        <ele>2695.9</ele>
        <time>2020-07-04T14:14:55Z</time>
      </trkpt>
      <trkpt lat="42.742411" lon="0.212681">
        <ele>2691.8</ele>
        <time>2020-07-04T14:15:13Z</time>
      </trkpt>
      <trkpt lat="42.742356" lon="0.212624">
        <ele>2689.3</ele>
        <time>2020-07-04T14:15:35Z</time>
      </trkpt>
      <trkpt lat="42.742294" lon="0.212553">
        <ele>2686.6</ele>
        <time>2020-07-04T14:15:54Z</time>
      </trkpt>
      <trkpt lat="42.742300" lon="0.212477">
        <ele>2683.0</ele>
        <time>2020-07-04T14:16:14Z</time>
      </trkpt>
      <trkpt lat="42.742259" lon="0.212408">
        <ele>2678.4</ele>
        <time>2020-07-04T14:16:34Z</time>
      </trkpt>
      <trkpt lat="42.742189" lon="0.212350">
        <ele>2675.1</ele>
        <time>2020-07-04T14:16:49Z</time>
      </trkpt>
      <trkpt lat="42.742109" lon="0.212273">
        <ele>2672.4</ele>
        <time>2020-07-04T14:17:02Z</time>
      </trkpt>
      <trkpt lat="42.742025" lon="0.212229">
        <ele>2672.3</ele>
        <time>2020-07-04T14:17:12Z</time>
      </trkpt>
      <trkpt lat="42.741966" lon="0.212139">
        <ele>2671.5</ele>
        <time>2020-07-04T14:17:26Z</time>
      </trkpt>
      <trkpt lat="42.741910" lon="0.212060">
        <ele>2670.6</ele>
        <time>2020-07-04T14:17:43Z</time>
      </trkpt>
      <trkpt lat="42.741858" lon="0.211948">
        <ele>2668.9</ele>
        <time>2020-07-04T14:17:56Z</time>
      </trkpt>
      <trkpt lat="42.741802" lon="0.211875">
        <ele>2667.1</ele>
        <time>2020-07-04T14:18:09Z</time>
      </trkpt>
      <trkpt lat="42.741740" lon="0.211838">
        <ele>2664.2</ele>
        <time>2020-07-04T14:18:29Z</time>
      </trkpt>
      <trkpt lat="42.741664" lon="0.211798">
        <ele>2663.4</ele>
        <time>2020-07-04T14:18:44Z</time>
      </trkpt>
      <trkpt lat="42.741620" lon="0.211703">
        <ele>2662.4</ele>
        <time>2020-07-04T14:19:27Z</time>
      </trkpt>
      <trkpt lat="42.741585" lon="0.211717">
        <ele>2657.8</ele>
        <time>2020-07-04T14:21:21Z</time>
      </trkpt>
      <trkpt lat="42.741539" lon="0.211709">
        <ele>2653.3</ele>
        <time>2020-07-04T14:22:00Z</time>
      </trkpt>
      <trkpt lat="42.741479" lon="0.211672">
        <ele>2649.5</ele>
        <time>2020-07-04T14:22:35Z</time>
      </trkpt>
      <trkpt lat="42.741432" lon="0.211641">
        <ele>2644.8</ele>
        <time>2020-07-04T14:30:26Z</time>
      </trkpt>
      <trkpt lat="42.741413" lon="0.211625">
        <ele>2643.8</ele>
        <time>2020-07-04T14:31:53Z</time>
      </trkpt>
      <trkpt lat="42.741428" lon="0.211549">
        <ele>2640.1</ele>
        <time>2020-07-04T14:32:11Z</time>
      </trkpt>
      <trkpt lat="42.741444" lon="0.211490">
        <ele>2637.3</ele>
        <time>2020-07-04T14:32:30Z</time>
      </trkpt>
      <trkpt lat="42.741478" lon="0.211430">
        <ele>2633.2</ele>
        <time>2020-07-04T14:32:54Z</time>
      </trkpt>
      <trkpt lat="42.741446" lon="0.211359">
        <ele>2628.2</ele>
        <time>2020-07-04T14:33:14Z</time>
      </trkpt>
      <trkpt lat="42.741351" lon="0.211330">
        <ele>2625.5</ele>
        <time>2020-07-04T14:33:30Z</time>
      </trkpt>
      <trkpt lat="42.741334" lon="0.211257">
        <ele>2622.8</ele>
        <time>2020-07-04T14:33:52Z</time>
      </trkpt>
      <trkpt lat="42.741277" lon="0.211200">
        <ele>2619.4</ele>
        <time>2020-07-04T14:34:08Z</time>
      </trkpt>
      <trkpt lat="42.741217" lon="0.211105">
        <ele>2616.1</ele>
        <time>2020-07-04T14:34:27Z</time>
      </trkpt>
      <trkpt lat="42.741132" lon="0.211062">
        <ele>2613.4</ele>
        <time>2020-07-04T14:34:44Z</time>
      </trkpt>
      <trkpt lat="42.741066" lon="0.211000">
        <ele>2610.6</ele>
        <time>2020-07-04T14:35:00Z</time>
      </trkpt>
      <trkpt lat="42.740990" lon="0.210921">
        <ele>2608.8</ele>
        <time>2020-07-04T14:35:15Z</time>
      </trkpt>
      <trkpt lat="42.740911" lon="0.210856">
        <ele>2607.1</ele>
        <time>2020-07-04T14:35:28Z</time>
      </trkpt>
      <trkpt lat="42.740835" lon="0.210787">
        <ele>2606.2</ele>
        <time>2020-07-04T14:35:42Z</time>
      </trkpt>
      <trkpt lat="42.740757" lon="0.210736">
        <ele>2605.3</ele>
        <time>2020-07-04T14:35:56Z</time>
      </trkpt>
      <trkpt lat="42.740673" lon="0.210668">
        <ele>2605.2</ele>
        <time>2020-07-04T14:36:10Z</time>
      </trkpt>
      <trkpt lat="42.740593" lon="0.210593">
        <ele>2603.6</ele>
        <time>2020-07-04T14:36:24Z</time>
      </trkpt>
      <trkpt lat="42.740518" lon="0.210544">
        <ele>2601.1</ele>
        <time>2020-07-04T14:36:42Z</time>
      </trkpt>
      <trkpt lat="42.740467" lon="0.210483">
        <ele>2599.1</ele>
        <time>2020-07-04T14:37:09Z</time>
      </trkpt>
      <trkpt lat="42.740460" lon="0.210381">
        <ele>2596.7</ele>
        <time>2020-07-04T14:37:25Z</time>
      </trkpt>
      <trkpt lat="42.740431" lon="0.210336">
        <ele>2591.4</ele>
        <time>2020-07-04T14:37:51Z</time>
      </trkpt>
      <trkpt lat="42.740378" lon="0.210275">
        <ele>2589.8</ele>
        <time>2020-07-04T14:38:10Z</time>
      </trkpt>
      <trkpt lat="42.740381" lon="0.210185">
        <ele>2585.2</ele>
        <time>2020-07-04T14:38:29Z</time>
      </trkpt>
      <trkpt lat="42.740357" lon="0.210115">
        <ele>2583.5</ele>
        <time>2020-07-04T14:38:52Z</time>
      </trkpt>
      <trkpt lat="42.740308" lon="0.210024">
        <ele>2581.7</ele>
        <time>2020-07-04T14:39:05Z</time>
      </trkpt>
      <trkpt lat="42.740238" lon="0.209938">
        <ele>2581.7</ele>
        <time>2020-07-04T14:39:20Z</time>
      </trkpt>
      <trkpt lat="42.740185" lon="0.209839">
        <ele>2581.7</ele>
        <time>2020-07-04T14:39:35Z</time>
      </trkpt>
      <trkpt lat="42.740198" lon="0.209761">
        <ele>2579.9</ele>
        <time>2020-07-04T14:39:53Z</time>
      </trkpt>
      <trkpt lat="42.740180" lon="0.209632">
        <ele>2576.4</ele>
        <time>2020-07-04T14:40:08Z</time>
      </trkpt>
      <trkpt lat="42.740152" lon="0.209527">
        <ele>2575.5</ele>
        <time>2020-07-04T14:40:20Z</time>
      </trkpt>
      <trkpt lat="42.740101" lon="0.209434">
        <ele>2575.6</ele>
        <time>2020-07-04T14:40:39Z</time>
      </trkpt>
      <trkpt lat="42.740022" lon="0.209420">
        <ele>2578.8</ele>
        <time>2020-07-04T14:40:57Z</time>
      </trkpt>
      <trkpt lat="42.739938" lon="0.209398">
        <ele>2582.3</ele>
        <time>2020-07-04T14:41:14Z</time>
      </trkpt>
      <trkpt lat="42.739865" lon="0.209360">
        <ele>2584.1</ele>
        <time>2020-07-04T14:41:31Z</time>
      </trkpt>
      <trkpt lat="42.739797" lon="0.209301">
        <ele>2586.7</ele>
        <time>2020-07-04T14:41:51Z</time>
      </trkpt>
      <trkpt lat="42.739716" lon="0.209262">
        <ele>2590.1</ele>
        <time>2020-07-04T14:42:12Z</time>
      </trkpt>
      <trkpt lat="42.739626" lon="0.209270">
        <ele>2593.7</ele>
        <time>2020-07-04T14:42:29Z</time>
      </trkpt>
      <trkpt lat="42.739536" lon="0.209244">
        <ele>2597.0</ele>
        <time>2020-07-04T14:42:43Z</time>
      </trkpt>
      <trkpt lat="42.739446" lon="0.209207">
        <ele>2599.4</ele>
        <time>2020-07-04T14:42:56Z</time>
      </trkpt>
      <trkpt lat="42.739356" lon="0.209200">
        <ele>2601.3</ele>
        <time>2020-07-04T14:43:09Z</time>
      </trkpt>
      <trkpt lat="42.739268" lon="0.209211">
        <ele>2605.4</ele>
        <time>2020-07-04T14:43:23Z</time>
      </trkpt>
      <trkpt lat="42.739192" lon="0.209147">
        <ele>2608.2</ele>
        <time>2020-07-04T14:43:33Z</time>
      </trkpt>
      <trkpt lat="42.739134" lon="0.209037">
        <ele>2608.9</ele>
        <time>2020-07-04T14:43:42Z</time>
      </trkpt>
      <trkpt lat="42.739145" lon="0.209008">
        <ele>2608.7</ele>
        <time>2020-07-04T14:46:26Z</time>
      </trkpt>
      <trkpt lat="42.739157" lon="0.208883">
        <ele>2608.7</ele>
        <time>2020-07-04T14:46:39Z</time>
      </trkpt>
      <trkpt lat="42.739234" lon="0.208835">
        <ele>2604.8</ele>
        <time>2020-07-04T14:47:05Z</time>
      </trkpt>
      <trkpt lat="42.739306" lon="0.208818">
        <ele>2602.2</ele>
        <time>2020-07-04T14:47:19Z</time>
      </trkpt>
      <trkpt lat="42.739395" lon="0.208820">
        <ele>2599.3</ele>
        <time>2020-07-04T14:47:33Z</time>
      </trkpt>
      <trkpt lat="42.739446" lon="0.208747">
        <ele>2596.6</ele>
        <time>2020-07-04T14:47:46Z</time>
      </trkpt>
      <trkpt lat="42.739505" lon="0.208689">
        <ele>2594.9</ele>
        <time>2020-07-04T14:48:02Z</time>
      </trkpt>
      <trkpt lat="42.739601" lon="0.208709">
        <ele>2592.3</ele>
        <time>2020-07-04T14:48:13Z</time>
      </trkpt>
      <trkpt lat="42.739668" lon="0.208647">
        <ele>2589.9</ele>
        <time>2020-07-04T14:48:24Z</time>
      </trkpt>
      <trkpt lat="42.739742" lon="0.208583">
        <ele>2587.4</ele>
        <time>2020-07-04T14:48:33Z</time>
      </trkpt>
      <trkpt lat="42.739830" lon="0.208550">
        <ele>2584.6</ele>
        <time>2020-07-04T14:48:44Z</time>
      </trkpt>
      <trkpt lat="42.739908" lon="0.208547">
        <ele>2581.8</ele>
        <time>2020-07-04T14:48:55Z</time>
      </trkpt>
      <trkpt lat="42.739999" lon="0.208553">
        <ele>2579.2</ele>
        <time>2020-07-04T14:49:07Z</time>
      </trkpt>
      <trkpt lat="42.740076" lon="0.208596">
        <ele>2575.8</ele>
        <time>2020-07-04T14:49:42Z</time>
      </trkpt>
      <trkpt lat="42.740180" lon="0.208568">
        <ele>2572.1</ele>
        <time>2020-07-04T14:50:39Z</time>
      </trkpt>
      <trkpt lat="42.740229" lon="0.208455">
        <ele>2569.6</ele>
        <time>2020-07-04T14:50:51Z</time>
      </trkpt>
      <trkpt lat="42.740287" lon="0.208355">
        <ele>2567.0</ele>
        <time>2020-07-04T14:51:03Z</time>
      </trkpt>
      <trkpt lat="42.740311" lon="0.208241">
        <ele>2564.4</ele>
        <time>2020-07-04T14:51:14Z</time>
      </trkpt>
      <trkpt lat="42.740342" lon="0.208127">
        <ele>2562.5</ele>
        <time>2020-07-04T14:51:25Z</time>
      </trkpt>
      <trkpt lat="42.740352" lon="0.208004">
        <ele>2560.7</ele>
        <time>2020-07-04T14:51:35Z</time>
      </trkpt>
      <trkpt lat="42.740355" lon="0.207959">
        <ele>2559.1</ele>
        <time>2020-07-04T14:51:51Z</time>
      </trkpt>
      <trkpt lat="42.740371" lon="0.207831">
        <ele>2558.3</ele>
        <time>2020-07-04T14:52:39Z</time>
      </trkpt>
      <trkpt lat="42.740418" lon="0.207727">
        <ele>2554.8</ele>
        <time>2020-07-04T14:52:52Z</time>
      </trkpt>
      <trkpt lat="42.740499" lon="0.207678">
        <ele>2551.8</ele>
        <time>2020-07-04T14:53:05Z</time>
      </trkpt>
      <trkpt lat="42.740555" lon="0.207598">
        <ele>2548.1</ele>
        <time>2020-07-04T14:53:19Z</time>
      </trkpt>
      <trkpt lat="42.740596" lon="0.207492">
        <ele>2544.6</ele>
        <time>2020-07-04T14:53:33Z</time>
      </trkpt>
      <trkpt lat="42.740650" lon="0.207405">
        <ele>2541.1</ele>
        <time>2020-07-04T14:53:47Z</time>
      </trkpt>
      <trkpt lat="42.740715" lon="0.207335">
        <ele>2537.8</ele>
        <time>2020-07-04T14:54:03Z</time>
      </trkpt>
      <trkpt lat="42.740771" lon="0.207260">
        <ele>2534.5</ele>
        <time>2020-07-04T14:54:18Z</time>
      </trkpt>
      <trkpt lat="42.740803" lon="0.207142">
        <ele>2530.1</ele>
        <time>2020-07-04T14:54:34Z</time>
      </trkpt>
      <trkpt lat="42.740856" lon="0.207043">
        <ele>2525.9</ele>
        <time>2020-07-04T14:54:48Z</time>
      </trkpt>
      <trkpt lat="42.740911" lon="0.206956">
        <ele>2524.2</ele>
        <time>2020-07-04T14:54:59Z</time>
      </trkpt>
      <trkpt lat="42.740951" lon="0.206837">
        <ele>2521.5</ele>
        <time>2020-07-04T14:55:10Z</time>
      </trkpt>
      <trkpt lat="42.741043" lon="0.206767">
        <ele>2520.1</ele>
        <time>2020-07-04T14:55:20Z</time>
      </trkpt>
      <trkpt lat="42.741124" lon="0.206697">
        <ele>2519.2</ele>
        <time>2020-07-04T14:55:30Z</time>
      </trkpt>
      <trkpt lat="42.741197" lon="0.206624">
        <ele>2517.4</ele>
        <time>2020-07-04T14:55:39Z</time>
      </trkpt>
      <trkpt lat="42.741288" lon="0.206583">
        <ele>2515.4</ele>
        <time>2020-07-04T14:55:48Z</time>
      </trkpt>
      <trkpt lat="42.741373" lon="0.206539">
        <ele>2515.3</ele>
        <time>2020-07-04T14:55:57Z</time>
      </trkpt>
      <trkpt lat="42.741462" lon="0.206496">
        <ele>2514.4</ele>
        <time>2020-07-04T14:56:08Z</time>
      </trkpt>
      <trkpt lat="42.741547" lon="0.206457">
        <ele>2512.6</ele>
        <time>2020-07-04T14:56:20Z</time>
      </trkpt>
      <trkpt lat="42.741629" lon="0.206446">
        <ele>2508.9</ele>
        <time>2020-07-04T14:56:33Z</time>
      </trkpt>
      <trkpt lat="42.741724" lon="0.206464">
        <ele>2505.9</ele>
        <time>2020-07-04T14:56:47Z</time>
      </trkpt>
      <trkpt lat="42.741805" lon="0.206522">
        <ele>2503.7</ele>
        <time>2020-07-04T14:56:58Z</time>
      </trkpt>
      <trkpt lat="42.741880" lon="0.206464">
        <ele>2500.7</ele>
        <time>2020-07-04T14:57:09Z</time>
      </trkpt>
      <trkpt lat="42.741971" lon="0.206514">
        <ele>2498.6</ele>
        <time>2020-07-04T14:57:18Z</time>
      </trkpt>
      <trkpt lat="42.742058" lon="0.206522">
        <ele>2496.5</ele>
        <time>2020-07-04T14:57:28Z</time>
      </trkpt>
      <trkpt lat="42.742153" lon="0.206506">
        <ele>2494.8</ele>
        <time>2020-07-04T14:57:38Z</time>
      </trkpt>
      <trkpt lat="42.742244" lon="0.206491">
        <ele>2491.9</ele>
        <time>2020-07-04T14:57:50Z</time>
      </trkpt>
      <trkpt lat="42.742346" lon="0.206465">
        <ele>2489.5</ele>
        <time>2020-07-04T14:58:01Z</time>
      </trkpt>
      <trkpt lat="42.742435" lon="0.206459">
        <ele>2487.4</ele>
        <time>2020-07-04T14:58:11Z</time>
      </trkpt>
      <trkpt lat="42.742524" lon="0.206455">
        <ele>2485.6</ele>
        <time>2020-07-04T14:58:22Z</time>
      </trkpt>
      <trkpt lat="42.742608" lon="0.206430">
        <ele>2483.0</ele>
        <time>2020-07-04T14:58:33Z</time>
      </trkpt>
      <trkpt lat="42.742692" lon="0.206410">
        <ele>2479.3</ele>
        <time>2020-07-04T14:58:47Z</time>
      </trkpt>
      <trkpt lat="42.742779" lon="0.206365">
        <ele>2476.5</ele>
        <time>2020-07-04T14:58:59Z</time>
      </trkpt>
      <trkpt lat="42.742845" lon="0.206300">
        <ele>2474.4</ele>
        <time>2020-07-04T14:59:10Z</time>
      </trkpt>
      <trkpt lat="42.742919" lon="0.206234">
        <ele>2471.6</ele>
        <time>2020-07-04T14:59:22Z</time>
      </trkpt>
      <trkpt lat="42.742996" lon="0.206174">
        <ele>2469.1</ele>
        <time>2020-07-04T14:59:38Z</time>
      </trkpt>
      <trkpt lat="42.743057" lon="0.206131">
        <ele>2463.7</ele>
        <time>2020-07-04T15:02:33Z</time>
      </trkpt>
      <trkpt lat="42.743095" lon="0.206035">
        <ele>2462.8</ele>
        <time>2020-07-04T15:03:18Z</time>
      </trkpt>
      <trkpt lat="42.743149" lon="0.205937">
        <ele>2459.9</ele>
        <time>2020-07-04T15:03:33Z</time>
      </trkpt>
      <trkpt lat="42.743143" lon="0.205847">
        <ele>2455.4</ele>
        <time>2020-07-04T15:03:51Z</time>
      </trkpt>
      <trkpt lat="42.743181" lon="0.205737">
        <ele>2451.0</ele>
        <time>2020-07-04T15:04:06Z</time>
      </trkpt>
      <trkpt lat="42.743104" lon="0.205674">
        <ele>2446.3</ele>
        <time>2020-07-04T15:04:18Z</time>
      </trkpt>
      <trkpt lat="42.743073" lon="0.205560">
        <ele>2441.5</ele>
        <time>2020-07-04T15:04:32Z</time>
      </trkpt>
      <trkpt lat="42.743123" lon="0.205455">
        <ele>2435.6</ele>
        <time>2020-07-04T15:04:45Z</time>
      </trkpt>
      <trkpt lat="42.743182" lon="0.205365">
        <ele>2432.4</ele>
        <time>2020-07-04T15:04:58Z</time>
      </trkpt>
      <trkpt lat="42.743209" lon="0.205287">
        <ele>2427.8</ele>
        <time>2020-07-04T15:05:12Z</time>
      </trkpt>
      <trkpt lat="42.743270" lon="0.205188">
        <ele>2424.2</ele>
        <time>2020-07-04T15:05:25Z</time>
      </trkpt>
      <trkpt lat="42.743212" lon="0.205099">
        <ele>2418.4</ele>
        <time>2020-07-04T15:05:39Z</time>
      </trkpt>
      <trkpt lat="42.743156" lon="0.204992">
        <ele>2414.9</ele>
        <time>2020-07-04T15:05:51Z</time>
      </trkpt>
      <trkpt lat="42.743124" lon="0.204864">
        <ele>2412.1</ele>
        <time>2020-07-04T15:06:02Z</time>
      </trkpt>
      <trkpt lat="42.743105" lon="0.204746">
        <ele>2408.6</ele>
        <time>2020-07-04T15:06:33Z</time>
      </trkpt>
      <trkpt lat="42.743172" lon="0.204674">
        <ele>2406.4</ele>
        <time>2020-07-04T15:06:48Z</time>
      </trkpt>
      <trkpt lat="42.743235" lon="0.204628">
        <ele>2402.3</ele>
        <time>2020-07-04T15:07:01Z</time>
      </trkpt>
      <trkpt lat="42.743309" lon="0.204552">
        <ele>2397.5</ele>
        <time>2020-07-04T15:07:13Z</time>
      </trkpt>
      <trkpt lat="42.743318" lon="0.204456">
        <ele>2394.5</ele>
        <time>2020-07-04T15:07:25Z</time>
      </trkpt>
      <trkpt lat="42.743286" lon="0.204336">
        <ele>2390.0</ele>
        <time>2020-07-04T15:07:37Z</time>
      </trkpt>
      <trkpt lat="42.743369" lon="0.204289">
        <ele>2387.3</ele>
        <time>2020-07-04T15:07:48Z</time>
      </trkpt>
      <trkpt lat="42.743404" lon="0.204185">
        <ele>2384.0</ele>
        <time>2020-07-04T15:08:00Z</time>
      </trkpt>
      <trkpt lat="42.743414" lon="0.204081">
        <ele>2380.6</ele>
        <time>2020-07-04T15:08:13Z</time>
      </trkpt>
      <trkpt lat="42.743414" lon="0.203970">
        <ele>2377.8</ele>
        <time>2020-07-04T15:08:25Z</time>
      </trkpt>
      <trkpt lat="42.743433" lon="0.203872">
        <ele>2372.9</ele>
        <time>2020-07-04T15:08:37Z</time>
      </trkpt>
      <trkpt lat="42.743445" lon="0.203767">
        <ele>2369.0</ele>
        <time>2020-07-04T15:08:50Z</time>
      </trkpt>
      <trkpt lat="42.743469" lon="0.203668">
        <ele>2365.4</ele>
        <time>2020-07-04T15:09:03Z</time>
      </trkpt>
      <trkpt lat="42.743507" lon="0.203582">
        <ele>2360.9</ele>
        <time>2020-07-04T15:09:16Z</time>
      </trkpt>
      <trkpt lat="42.743498" lon="0.203465">
        <ele>2357.0</ele>
        <time>2020-07-04T15:09:29Z</time>
      </trkpt>
      <trkpt lat="42.743533" lon="0.203348">
        <ele>2355.3</ele>
        <time>2020-07-04T15:09:40Z</time>
      </trkpt>
      <trkpt lat="42.743450" lon="0.203281">
        <ele>2353.4</ele>
        <time>2020-07-04T15:09:53Z</time>
      </trkpt>
      <trkpt lat="42.743359" lon="0.203220">
        <ele>2353.4</ele>
        <time>2020-07-04T15:10:20Z</time>
      </trkpt>
      <trkpt lat="42.743271" lon="0.203178">
        <ele>2350.8</ele>
        <time>2020-07-04T15:10:32Z</time>
      </trkpt>
      <trkpt lat="42.743201" lon="0.203131">
        <ele>2348.0</ele>
        <time>2020-07-04T15:10:44Z</time>
      </trkpt>
      <trkpt lat="42.743115" lon="0.203158">
        <ele>2346.4</ele>
        <time>2020-07-04T15:10:56Z</time>
      </trkpt>
      <trkpt lat="42.743059" lon="0.203111">
        <ele>2343.5</ele>
        <time>2020-07-04T15:11:09Z</time>
      </trkpt>
      <trkpt lat="42.743000" lon="0.203044">
        <ele>2339.9</ele>
        <time>2020-07-04T15:11:27Z</time>
      </trkpt>
      <trkpt lat="42.742975" lon="0.202971">
        <ele>2335.4</ele>
        <time>2020-07-04T15:11:57Z</time>
      </trkpt>
      <trkpt lat="42.743031" lon="0.202930">
        <ele>2331.8</ele>
        <time>2020-07-04T15:12:17Z</time>
      </trkpt>
      <trkpt lat="42.743078" lon="0.202862">
        <ele>2328.1</ele>
        <time>2020-07-04T15:12:33Z</time>
      </trkpt>
      <trkpt lat="42.743123" lon="0.202678">
        <ele>2316.2</ele>
        <time>2020-07-04T15:17:22Z</time>
      </trkpt>
      <trkpt lat="42.743207" lon="0.202653">
        <ele>2314.3</ele>
        <time>2020-07-04T15:17:32Z</time>
      </trkpt>
      <trkpt lat="42.743297" lon="0.202624">
        <ele>2310.6</ele>
        <time>2020-07-04T15:17:43Z</time>
      </trkpt>
      <trkpt lat="42.743363" lon="0.202583">
        <ele>2308.9</ele>
        <time>2020-07-04T15:17:53Z</time>
      </trkpt>
      <trkpt lat="42.743408" lon="0.202492">
        <ele>2307.1</ele>
        <time>2020-07-04T15:18:02Z</time>
      </trkpt>
      <trkpt lat="42.743461" lon="0.202419">
        <ele>2304.6</ele>
        <time>2020-07-04T15:18:13Z</time>
      </trkpt>
      <trkpt lat="42.743485" lon="0.202334">
        <ele>2302.8</ele>
        <time>2020-07-04T15:18:26Z</time>
      </trkpt>
      <trkpt lat="42.743508" lon="0.202279">
        <ele>2300.1</ele>
        <time>2020-07-04T15:18:51Z</time>
      </trkpt>
      <trkpt lat="42.743603" lon="0.202270">
        <ele>2296.9</ele>
        <time>2020-07-04T15:19:06Z</time>
      </trkpt>
      <trkpt lat="42.743693" lon="0.202207">
        <ele>2295.2</ele>
        <time>2020-07-04T15:19:19Z</time>
      </trkpt>
      <trkpt lat="42.743736" lon="0.202138">
        <ele>2292.3</ele>
        <time>2020-07-04T15:19:35Z</time>
      </trkpt>
      <trkpt lat="42.743682" lon="0.202077">
        <ele>2288.1</ele>
        <time>2020-07-04T15:19:54Z</time>
      </trkpt>
      <trkpt lat="42.743576" lon="0.202080">
        <ele>2284.1</ele>
        <time>2020-07-04T15:20:12Z</time>
      </trkpt>
      <trkpt lat="42.743475" lon="0.202078">
        <ele>2280.3</ele>
        <time>2020-07-04T15:20:31Z</time>
      </trkpt>
      <trkpt lat="42.743392" lon="0.202020">
        <ele>2277.8</ele>
        <time>2020-07-04T15:20:46Z</time>
      </trkpt>
      <trkpt lat="42.743313" lon="0.202017">
        <ele>2276.6</ele>
        <time>2020-07-04T15:21:06Z</time>
      </trkpt>
      <trkpt lat="42.743230" lon="0.202057">
        <ele>2274.8</ele>
        <time>2020-07-04T15:21:19Z</time>
      </trkpt>
      <trkpt lat="42.743138" lon="0.202060">
        <ele>2273.6</ele>
        <time>2020-07-04T15:21:30Z</time>
      </trkpt>
      <trkpt lat="42.743037" lon="0.202054">
        <ele>2271.8</ele>
        <time>2020-07-04T15:21:42Z</time>
      </trkpt>
      <trkpt lat="42.742935" lon="0.202028">
        <ele>2270.8</ele>
        <time>2020-07-04T15:21:57Z</time>
      </trkpt>
      <trkpt lat="42.742837" lon="0.202006">
        <ele>2268.9</ele>
        <time>2020-07-04T15:22:12Z</time>
      </trkpt>
      <trkpt lat="42.742860" lon="0.202039">
        <ele>2268.7</ele>
        <time>2020-07-04T15:23:11Z</time>
      </trkpt>
      <trkpt lat="42.742796" lon="0.202049">
        <ele>2268.5</ele>
        <time>2020-07-04T15:23:49Z</time>
      </trkpt>
      <trkpt lat="42.742790" lon="0.202029">
        <ele>2268.4</ele>
        <time>2020-07-04T15:24:07Z</time>
      </trkpt>
      <trkpt lat="42.742669" lon="0.201984">
        <ele>2266.7</ele>
        <time>2020-07-04T15:24:23Z</time>
      </trkpt>
      <trkpt lat="42.742565" lon="0.201982">
        <ele>2265.0</ele>
        <time>2020-07-04T15:24:37Z</time>
      </trkpt>
      <trkpt lat="42.742488" lon="0.201926">
        <ele>2262.4</ele>
        <time>2020-07-04T15:24:51Z</time>
      </trkpt>
      <trkpt lat="42.742452" lon="0.201874">
        <ele>2258.6</ele>
        <time>2020-07-04T15:25:08Z</time>
      </trkpt>
      <trkpt lat="42.742420" lon="0.201789">
        <ele>2255.7</ele>
        <time>2020-07-04T15:25:24Z</time>
      </trkpt>
      <trkpt lat="42.742359" lon="0.201754">
        <ele>2251.8</ele>
        <time>2020-07-04T15:25:40Z</time>
      </trkpt>
      <trkpt lat="42.742297" lon="0.201677">
        <ele>2250.0</ele>
        <time>2020-07-04T15:25:52Z</time>
      </trkpt>
      <trkpt lat="42.742241" lon="0.201583">
        <ele>2246.7</ele>
        <time>2020-07-04T15:26:07Z</time>
      </trkpt>
      <trkpt lat="42.742172" lon="0.201499">
        <ele>2244.1</ele>
        <time>2020-07-04T15:26:19Z</time>
      </trkpt>
      <trkpt lat="42.742156" lon="0.201404">
        <ele>2242.3</ele>
        <time>2020-07-04T15:26:34Z</time>
      </trkpt>
      <trkpt lat="42.742096" lon="0.201311">
        <ele>2245.6</ele>
        <time>2020-07-04T15:26:49Z</time>
      </trkpt>
      <trkpt lat="42.742004" lon="0.201278">
        <ele>2248.1</ele>
        <time>2020-07-04T15:27:03Z</time>
      </trkpt>
      <trkpt lat="42.741910" lon="0.201243">
        <ele>2250.8</ele>
        <time>2020-07-04T15:27:20Z</time>
      </trkpt>
      <trkpt lat="42.741821" lon="0.201208">
        <ele>2252.4</ele>
        <time>2020-07-04T15:27:35Z</time>
      </trkpt>
      <trkpt lat="42.741738" lon="0.201164">
        <ele>2254.0</ele>
        <time>2020-07-04T15:27:51Z</time>
      </trkpt>
      <trkpt lat="42.741669" lon="0.201084">
        <ele>2255.6</ele>
        <time>2020-07-04T15:28:07Z</time>
      </trkpt>
      <trkpt lat="42.741636" lon="0.200989">
        <ele>2258.1</ele>
        <time>2020-07-04T15:28:24Z</time>
      </trkpt>
      <trkpt lat="42.741666" lon="0.200889">
        <ele>2261.5</ele>
        <time>2020-07-04T15:28:38Z</time>
      </trkpt>
      <trkpt lat="42.741704" lon="0.200793">
        <ele>2262.4</ele>
        <time>2020-07-04T15:28:51Z</time>
      </trkpt>
      <trkpt lat="42.741691" lon="0.200680">
        <ele>2264.1</ele>
        <time>2020-07-04T15:29:02Z</time>
      </trkpt>
      <trkpt lat="42.741662" lon="0.200573">
        <ele>2264.9</ele>
        <time>2020-07-04T15:29:13Z</time>
      </trkpt>
      <trkpt lat="42.741603" lon="0.200485">
        <ele>2264.8</ele>
        <time>2020-07-04T15:29:38Z</time>
      </trkpt>
      <trkpt lat="42.741528" lon="0.200407">
        <ele>2262.3</ele>
        <time>2020-07-04T15:29:48Z</time>
      </trkpt>
      <trkpt lat="42.741465" lon="0.200310">
        <ele>2261.6</ele>
        <time>2020-07-04T15:29:56Z</time>
      </trkpt>
      <trkpt lat="42.741401" lon="0.200223">
        <ele>2260.7</ele>
        <time>2020-07-04T15:30:07Z</time>
      </trkpt>
      <trkpt lat="42.741338" lon="0.200130">
        <ele>2259.8</ele>
        <time>2020-07-04T15:30:16Z</time>
      </trkpt>
      <trkpt lat="42.741261" lon="0.200050">
        <ele>2259.8</ele>
        <time>2020-07-04T15:30:25Z</time>
      </trkpt>
      <trkpt lat="42.741183" lon="0.199974">
        <ele>2259.8</ele>
        <time>2020-07-04T15:30:34Z</time>
      </trkpt>
      <trkpt lat="42.741113" lon="0.199890">
        <ele>2259.8</ele>
        <time>2020-07-04T15:30:45Z</time>
      </trkpt>
      <trkpt lat="42.741050" lon="0.199790">
        <ele>2262.9</ele>
        <time>2020-07-04T15:30:58Z</time>
      </trkpt>
      <trkpt lat="42.740993" lon="0.199701">
        <ele>2262.8</ele>
        <time>2020-07-04T15:31:15Z</time>
      </trkpt>
      <trkpt lat="42.740903" lon="0.199683">
        <ele>2262.8</ele>
        <time>2020-07-04T15:31:30Z</time>
      </trkpt>
      <trkpt lat="42.740813" lon="0.199717">
        <ele>2262.8</ele>
        <time>2020-07-04T15:31:41Z</time>
      </trkpt>
      <trkpt lat="42.740720" lon="0.199748">
        <ele>2259.4</ele>
        <time>2020-07-04T15:31:53Z</time>
      </trkpt>
      <trkpt lat="42.740626" lon="0.199750">
        <ele>2259.4</ele>
        <time>2020-07-04T15:32:03Z</time>
      </trkpt>
      <trkpt lat="42.740536" lon="0.199721">
        <ele>2259.4</ele>
        <time>2020-07-04T15:32:13Z</time>
      </trkpt>
      <trkpt lat="42.740465" lon="0.199651">
        <ele>2259.3</ele>
        <time>2020-07-04T15:32:24Z</time>
      </trkpt>
      <trkpt lat="42.740367" lon="0.199656">
        <ele>2259.3</ele>
        <time>2020-07-04T15:32:34Z</time>
      </trkpt>
      <trkpt lat="42.740278" lon="0.199689">
        <ele>2259.3</ele>
        <time>2020-07-04T15:32:40Z</time>
      </trkpt>
      <trkpt lat="42.740197" lon="0.199615">
        <ele>2259.3</ele>
        <time>2020-07-04T15:32:47Z</time>
      </trkpt>
      <trkpt lat="42.740112" lon="0.199546">
        <ele>2259.3</ele>
        <time>2020-07-04T15:32:54Z</time>
      </trkpt>
      <trkpt lat="42.740017" lon="0.199493">
        <ele>2259.3</ele>
        <time>2020-07-04T15:33:02Z</time>
      </trkpt>
      <trkpt lat="42.739942" lon="0.199426">
        <ele>2262.6</ele>
        <time>2020-07-04T15:33:12Z</time>
      </trkpt>
      <trkpt lat="42.739865" lon="0.199362">
        <ele>2263.4</ele>
        <time>2020-07-04T15:33:21Z</time>
      </trkpt>
      <trkpt lat="42.739798" lon="0.199256">
        <ele>2260.1</ele>
        <time>2020-07-04T15:33:28Z</time>
      </trkpt>
      <trkpt lat="42.739730" lon="0.199175">
        <ele>2259.0</ele>
        <time>2020-07-04T15:33:35Z</time>
      </trkpt>
      <trkpt lat="42.739659" lon="0.199093">
        <ele>2258.2</ele>
        <time>2020-07-04T15:33:43Z</time>
      </trkpt>
      <trkpt lat="42.739605" lon="0.198987">
        <ele>2256.7</ele>
        <time>2020-07-04T15:33:52Z</time>
      </trkpt>
      <trkpt lat="42.739549" lon="0.198877">
        <ele>2254.3</ele>
        <time>2020-07-04T15:34:00Z</time>
      </trkpt>
      <trkpt lat="42.739489" lon="0.198785">
        <ele>2253.5</ele>
        <time>2020-07-04T15:34:07Z</time>
      </trkpt>
      <trkpt lat="42.739427" lon="0.198688">
        <ele>2252.6</ele>
        <time>2020-07-04T15:34:14Z</time>
      </trkpt>
      <trkpt lat="42.739372" lon="0.198585">
        <ele>2251.8</ele>
        <time>2020-07-04T15:34:21Z</time>
      </trkpt>
      <trkpt lat="42.739322" lon="0.198465">
        <ele>2250.9</ele>
        <time>2020-07-04T15:34:29Z</time>
      </trkpt>
      <trkpt lat="42.739284" lon="0.198349">
        <ele>2250.1</ele>
        <time>2020-07-04T15:34:37Z</time>
      </trkpt>
      <trkpt lat="42.739241" lon="0.198239">
        <ele>2250.0</ele>
        <time>2020-07-04T15:34:46Z</time>
      </trkpt>
      <trkpt lat="42.739227" lon="0.198109">
        <ele>2248.8</ele>
        <time>2020-07-04T15:34:55Z</time>
      </trkpt>
      <trkpt lat="42.739208" lon="0.197987">
        <ele>2248.0</ele>
        <time>2020-07-04T15:35:05Z</time>
      </trkpt>
      <trkpt lat="42.739169" lon="0.197890">
        <ele>2246.3</ele>
        <time>2020-07-04T15:35:15Z</time>
      </trkpt>
      <trkpt lat="42.739117" lon="0.197795">
        <ele>2246.2</ele>
        <time>2020-07-04T15:35:26Z</time>
      </trkpt>
      <trkpt lat="42.739048" lon="0.197692">
        <ele>2248.9</ele>
        <time>2020-07-04T15:35:37Z</time>
      </trkpt>
      <trkpt lat="42.738999" lon="0.197580">
        <ele>2248.9</ele>
        <time>2020-07-04T15:35:47Z</time>
      </trkpt>
      <trkpt lat="42.738973" lon="0.197481">
        <ele>2245.4</ele>
        <time>2020-07-04T15:36:00Z</time>
      </trkpt>
      <trkpt lat="42.738913" lon="0.197392">
        <ele>2242.8</ele>
        <time>2020-07-04T15:36:10Z</time>
      </trkpt>
      <trkpt lat="42.738877" lon="0.197290">
        <ele>2239.5</ele>
        <time>2020-07-04T15:36:27Z</time>
      </trkpt>
      <trkpt lat="42.738829" lon="0.197182">
        <ele>2236.9</ele>
        <time>2020-07-04T15:36:41Z</time>
      </trkpt>
      <trkpt lat="42.738831" lon="0.197049">
        <ele>2234.2</ele>
        <time>2020-07-04T15:36:51Z</time>
      </trkpt>
      <trkpt lat="42.738838" lon="0.196926">
        <ele>2228.6</ele>
        <time>2020-07-04T15:37:06Z</time>
      </trkpt>
      <trkpt lat="42.738818" lon="0.196847">
        <ele>2224.4</ele>
        <time>2020-07-04T15:37:23Z</time>
      </trkpt>
      <trkpt lat="42.738802" lon="0.196721">
        <ele>2221.2</ele>
        <time>2020-07-04T15:37:33Z</time>
      </trkpt>
      <trkpt lat="42.738780" lon="0.196600">
        <ele>2218.1</ele>
        <time>2020-07-04T15:37:49Z</time>
      </trkpt>
      <trkpt lat="42.738760" lon="0.196515">
        <ele>2212.4</ele>
        <time>2020-07-04T15:38:09Z</time>
      </trkpt>
      <trkpt lat="42.738737" lon="0.196453">
        <ele>2209.8</ele>
        <time>2020-07-04T15:38:22Z</time>
      </trkpt>
      <trkpt lat="42.738708" lon="0.196344">
        <ele>2206.9</ele>
        <time>2020-07-04T15:38:35Z</time>
      </trkpt>
      <trkpt lat="42.738689" lon="0.196225">
        <ele>2206.0</ele>
        <time>2020-07-04T15:38:45Z</time>
      </trkpt>
      <trkpt lat="42.738642" lon="0.196117">
        <ele>2205.2</ele>
        <time>2020-07-04T15:38:54Z</time>
      </trkpt>
      <trkpt lat="42.738609" lon="0.196010">
        <ele>2204.4</ele>
        <time>2020-07-04T15:39:08Z</time>
      </trkpt>
      <trkpt lat="42.738600" lon="0.195884">
        <ele>2202.0</ele>
        <time>2020-07-04T15:39:19Z</time>
      </trkpt>
      <trkpt lat="42.738623" lon="0.195765">
        <ele>2199.9</ele>
        <time>2020-07-04T15:39:25Z</time>
      </trkpt>
      <trkpt lat="42.738612" lon="0.195649">
        <ele>2197.1</ele>
        <time>2020-07-04T15:39:34Z</time>
      </trkpt>
      <trkpt lat="42.738574" lon="0.195549">
        <ele>2193.9</ele>
        <time>2020-07-04T15:39:45Z</time>
      </trkpt>
      <trkpt lat="42.738493" lon="0.195503">
        <ele>2191.7</ele>
        <time>2020-07-04T15:39:59Z</time>
      </trkpt>
      <trkpt lat="42.738553" lon="0.195387">
        <ele>2189.7</ele>
        <time>2020-07-04T15:40:05Z</time>
      </trkpt>
      <trkpt lat="42.738547" lon="0.195260">
        <ele>2186.3</ele>
        <time>2020-07-04T15:40:13Z</time>
      </trkpt>
      <trkpt lat="42.738547" lon="0.195155">
        <ele>2183.3</ele>
        <time>2020-07-04T15:40:21Z</time>
      </trkpt>
      <trkpt lat="42.738568" lon="0.195038">
        <ele>2182.4</ele>
        <time>2020-07-04T15:40:30Z</time>
      </trkpt>
      <trkpt lat="42.738580" lon="0.194919">
        <ele>2181.6</ele>
        <time>2020-07-04T15:40:39Z</time>
      </trkpt>
      <trkpt lat="42.738633" lon="0.194810">
        <ele>2180.8</ele>
        <time>2020-07-04T15:40:46Z</time>
      </trkpt>
      <trkpt lat="42.738680" lon="0.194707">
        <ele>2179.9</ele>
        <time>2020-07-04T15:40:52Z</time>
      </trkpt>
      <trkpt lat="42.738704" lon="0.194594">
        <ele>2179.2</ele>
        <time>2020-07-04T15:40:59Z</time>
      </trkpt>
      <trkpt lat="42.738714" lon="0.194485">
        <ele>2179.1</ele>
        <time>2020-07-04T15:41:06Z</time>
      </trkpt>
      <trkpt lat="42.738689" lon="0.194389">
        <ele>2178.4</ele>
        <time>2020-07-04T15:41:16Z</time>
      </trkpt>
      <trkpt lat="42.738724" lon="0.194293">
        <ele>2178.4</ele>
        <time>2020-07-04T15:41:24Z</time>
      </trkpt>
      <trkpt lat="42.738794" lon="0.194196">
        <ele>2177.5</ele>
        <time>2020-07-04T15:41:33Z</time>
      </trkpt>
      <trkpt lat="42.738862" lon="0.194132">
        <ele>2177.5</ele>
        <time>2020-07-04T15:41:39Z</time>
      </trkpt>
      <trkpt lat="42.738946" lon="0.194089">
        <ele>2177.5</ele>
        <time>2020-07-04T15:41:48Z</time>
      </trkpt>
      <trkpt lat="42.739029" lon="0.194047">
        <ele>2177.5</ele>
        <time>2020-07-04T15:41:57Z</time>
      </trkpt>
      <trkpt lat="42.739080" lon="0.193956">
        <ele>2177.4</ele>
        <time>2020-07-04T15:42:05Z</time>
      </trkpt>
      <trkpt lat="42.739077" lon="0.193840">
        <ele>2177.5</ele>
        <time>2020-07-04T15:42:15Z</time>
      </trkpt>
      <trkpt lat="42.739047" lon="0.193760">
        <ele>2177.4</ele>
        <time>2020-07-04T15:42:31Z</time>
      </trkpt>
      <trkpt lat="42.739027" lon="0.193639">
        <ele>2175.5</ele>
        <time>2020-07-04T15:42:58Z</time>
      </trkpt>
      <trkpt lat="42.739088" lon="0.193568">
        <ele>2172.0</ele>
        <time>2020-07-04T15:43:14Z</time>
      </trkpt>
      <trkpt lat="42.739128" lon="0.193511">
        <ele>2168.3</ele>
        <time>2020-07-04T15:43:30Z</time>
      </trkpt>
      <trkpt lat="42.739183" lon="0.193416">
        <ele>2164.9</ele>
        <time>2020-07-04T15:43:44Z</time>
      </trkpt>
      <trkpt lat="42.739252" lon="0.193328">
        <ele>2159.0</ele>
        <time>2020-07-04T15:43:58Z</time>
      </trkpt>
      <trkpt lat="42.739309" lon="0.193226">
        <ele>2156.3</ele>
        <time>2020-07-04T15:44:11Z</time>
      </trkpt>
      <trkpt lat="42.739377" lon="0.193140">
        <ele>2154.4</ele>
        <time>2020-07-04T15:44:20Z</time>
      </trkpt>
      <trkpt lat="42.739446" lon="0.193062">
        <ele>2152.4</ele>
        <time>2020-07-04T15:44:28Z</time>
      </trkpt>
      <trkpt lat="42.739507" lon="0.193013">
        <ele>2151.5</ele>
        <time>2020-07-04T15:44:37Z</time>
      </trkpt>
      <trkpt lat="42.739561" lon="0.192903">
        <ele>2150.8</ele>
        <time>2020-07-04T15:44:46Z</time>
      </trkpt>
      <trkpt lat="42.739633" lon="0.192843">
        <ele>2150.8</ele>
        <time>2020-07-04T15:44:52Z</time>
      </trkpt>
      <trkpt lat="42.739718" lon="0.192807">
        <ele>2150.0</ele>
        <time>2020-07-04T15:45:02Z</time>
      </trkpt>
      <trkpt lat="42.739778" lon="0.192733">
        <ele>2147.5</ele>
        <time>2020-07-04T15:45:12Z</time>
      </trkpt>
      <trkpt lat="42.739849" lon="0.192820">
        <ele>2146.6</ele>
        <time>2020-07-04T15:45:21Z</time>
      </trkpt>
      <trkpt lat="42.739899" lon="0.192911">
        <ele>2144.0</ele>
        <time>2020-07-04T15:45:29Z</time>
      </trkpt>
      <trkpt lat="42.739948" lon="0.192990">
        <ele>2142.3</ele>
        <time>2020-07-04T15:45:38Z</time>
      </trkpt>
      <trkpt lat="42.739998" lon="0.193083">
        <ele>2140.7</ele>
        <time>2020-07-04T15:45:46Z</time>
      </trkpt>
      <trkpt lat="42.740087" lon="0.193056">
        <ele>2139.2</ele>
        <time>2020-07-04T15:45:53Z</time>
      </trkpt>
      <trkpt lat="42.740169" lon="0.192951">
        <ele>2137.4</ele>
        <time>2020-07-04T15:46:04Z</time>
      </trkpt>
      <trkpt lat="42.740216" lon="0.192820">
        <ele>2134.9</ele>
        <time>2020-07-04T15:46:17Z</time>
      </trkpt>
      <trkpt lat="42.740304" lon="0.192760">
        <ele>2133.2</ele>
        <time>2020-07-04T15:46:26Z</time>
      </trkpt>
      <trkpt lat="42.740280" lon="0.192822">
        <ele>2131.5</ele>
        <time>2020-07-04T15:46:48Z</time>
      </trkpt>
      <trkpt lat="42.740277" lon="0.192948">
        <ele>2130.7</ele>
        <time>2020-07-04T15:46:58Z</time>
      </trkpt>
      <trkpt lat="42.740319" lon="0.192858">
        <ele>2127.9</ele>
        <time>2020-07-04T15:47:08Z</time>
      </trkpt>
      <trkpt lat="42.740350" lon="0.192735">
        <ele>2126.9</ele>
        <time>2020-07-04T15:47:18Z</time>
      </trkpt>
      <trkpt lat="42.740383" lon="0.192613">
        <ele>2127.0</ele>
        <time>2020-07-04T15:47:28Z</time>
      </trkpt>
      <trkpt lat="42.740406" lon="0.192493">
        <ele>2126.1</ele>
        <time>2020-07-04T15:47:39Z</time>
      </trkpt>
      <trkpt lat="42.740429" lon="0.192381">
        <ele>2123.5</ele>
        <time>2020-07-04T15:47:50Z</time>
      </trkpt>
      <trkpt lat="42.740510" lon="0.192336">
        <ele>2119.9</ele>
        <time>2020-07-04T15:48:02Z</time>
      </trkpt>
      <trkpt lat="42.740597" lon="0.192285">
        <ele>2118.0</ele>
        <time>2020-07-04T15:48:11Z</time>
      </trkpt>
      <trkpt lat="42.740666" lon="0.192192">
        <ele>2117.1</ele>
        <time>2020-07-04T15:48:20Z</time>
      </trkpt>
      <trkpt lat="42.740747" lon="0.192165">
        <ele>2114.3</ele>
        <time>2020-07-04T15:48:29Z</time>
      </trkpt>
      <trkpt lat="42.740764" lon="0.192287">
        <ele>2112.5</ele>
        <time>2020-07-04T15:48:40Z</time>
      </trkpt>
      <trkpt lat="42.740772" lon="0.192395">
        <ele>2109.2</ele>
        <time>2020-07-04T15:48:51Z</time>
      </trkpt>
      <trkpt lat="42.740802" lon="0.192508">
        <ele>2106.4</ele>
        <time>2020-07-04T15:49:03Z</time>
      </trkpt>
      <trkpt lat="42.740865" lon="0.192594">
        <ele>2103.7</ele>
        <time>2020-07-04T15:49:14Z</time>
      </trkpt>
      <trkpt lat="42.740852" lon="0.192722">
        <ele>2101.8</ele>
        <time>2020-07-04T15:49:24Z</time>
      </trkpt>
      <trkpt lat="42.740881" lon="0.192830">
        <ele>2100.2</ele>
        <time>2020-07-04T15:49:34Z</time>
      </trkpt>
      <trkpt lat="42.740916" lon="0.192939">
        <ele>2097.2</ele>
        <time>2020-07-04T15:49:45Z</time>
      </trkpt>
      <trkpt lat="42.740892" lon="0.193064">
        <ele>2096.4</ele>
        <time>2020-07-04T15:49:54Z</time>
      </trkpt>
      <trkpt lat="42.740924" lon="0.193154">
        <ele>2093.8</ele>
        <time>2020-07-04T15:50:05Z</time>
      </trkpt>
      <trkpt lat="42.740985" lon="0.193169">
        <ele>2091.0</ele>
        <time>2020-07-04T15:50:17Z</time>
      </trkpt>
      <trkpt lat="42.741071" lon="0.193130">
        <ele>2089.0</ele>
        <time>2020-07-04T15:50:28Z</time>
      </trkpt>
      <trkpt lat="42.741147" lon="0.193046">
        <ele>2087.1</ele>
        <time>2020-07-04T15:50:38Z</time>
      </trkpt>
      <trkpt lat="42.741224" lon="0.192985">
        <ele>2084.5</ele>
        <time>2020-07-04T15:50:50Z</time>
      </trkpt>
      <trkpt lat="42.741267" lon="0.192921">
        <ele>2082.4</ele>
        <time>2020-07-04T15:51:56Z</time>
      </trkpt>
      <trkpt lat="42.741303" lon="0.192806">
        <ele>2079.4</ele>
        <time>2020-07-04T15:52:09Z</time>
      </trkpt>
      <trkpt lat="42.741329" lon="0.192688">
        <ele>2075.6</ele>
        <time>2020-07-04T15:52:21Z</time>
      </trkpt>
      <trkpt lat="42.741362" lon="0.192577">
        <ele>2072.7</ele>
        <time>2020-07-04T15:52:33Z</time>
      </trkpt>
      <trkpt lat="42.741424" lon="0.192504">
        <ele>2069.7</ele>
        <time>2020-07-04T15:52:47Z</time>
      </trkpt>
      <trkpt lat="42.741486" lon="0.192520">
        <ele>2065.5</ele>
        <time>2020-07-04T15:53:05Z</time>
      </trkpt>
      <trkpt lat="42.741547" lon="0.192572">
        <ele>2061.1</ele>
        <time>2020-07-04T15:53:22Z</time>
      </trkpt>
      <trkpt lat="42.741579" lon="0.192512">
        <ele>2057.5</ele>
        <time>2020-07-04T15:54:32Z</time>
      </trkpt>
      <trkpt lat="42.741641" lon="0.192582">
        <ele>2055.8</ele>
        <time>2020-07-04T15:54:59Z</time>
      </trkpt>
      <trkpt lat="42.741691" lon="0.192627">
        <ele>2051.8</ele>
        <time>2020-07-04T15:55:14Z</time>
      </trkpt>
      <trkpt lat="42.741742" lon="0.192681">
        <ele>2048.8</ele>
        <time>2020-07-04T15:55:28Z</time>
      </trkpt>
      <trkpt lat="42.741737" lon="0.192803">
        <ele>2047.0</ele>
        <time>2020-07-04T15:55:40Z</time>
      </trkpt>
      <trkpt lat="42.741752" lon="0.192906">
        <ele>2044.3</ele>
        <time>2020-07-04T15:55:52Z</time>
      </trkpt>
      <trkpt lat="42.741829" lon="0.192874">
        <ele>2040.6</ele>
        <time>2020-07-04T15:56:04Z</time>
      </trkpt>
      <trkpt lat="42.741905" lon="0.192799">
        <ele>2037.8</ele>
        <time>2020-07-04T15:56:16Z</time>
      </trkpt>
      <trkpt lat="42.741993" lon="0.192757">
        <ele>2034.6</ele>
        <time>2020-07-04T15:56:28Z</time>
      </trkpt>
      <trkpt lat="42.742059" lon="0.192676">
        <ele>2030.8</ele>
        <time>2020-07-04T15:56:42Z</time>
      </trkpt>
      <trkpt lat="42.742111" lon="0.192657">
        <ele>2028.1</ele>
        <time>2020-07-04T15:56:55Z</time>
      </trkpt>
      <trkpt lat="42.742189" lon="0.192581">
        <ele>2027.3</ele>
        <time>2020-07-04T15:57:07Z</time>
      </trkpt>
      <trkpt lat="42.742273" lon="0.192518">
        <ele>2025.5</ele>
        <time>2020-07-04T15:57:18Z</time>
      </trkpt>
      <trkpt lat="42.742365" lon="0.192533">
        <ele>2023.5</ele>
        <time>2020-07-04T15:57:31Z</time>
      </trkpt>
      <trkpt lat="42.742423" lon="0.192566">
        <ele>2020.7</ele>
        <time>2020-07-04T15:57:46Z</time>
      </trkpt>
      <trkpt lat="42.742455" lon="0.192671">
        <ele>2018.0</ele>
        <time>2020-07-04T15:58:00Z</time>
      </trkpt>
      <trkpt lat="42.742548" lon="0.192740">
        <ele>2015.0</ele>
        <time>2020-07-04T15:58:13Z</time>
      </trkpt>
      <trkpt lat="42.742641" lon="0.192773">
        <ele>2012.8</ele>
        <time>2020-07-04T15:58:25Z</time>
      </trkpt>
      <trkpt lat="42.742737" lon="0.192801">
        <ele>2009.4</ele>
        <time>2020-07-04T15:58:38Z</time>
      </trkpt>
      <trkpt lat="42.742808" lon="0.192863">
        <ele>2007.0</ele>
        <time>2020-07-04T15:58:51Z</time>
      </trkpt>
      <trkpt lat="42.742885" lon="0.192928">
        <ele>2004.5</ele>
        <time>2020-07-04T15:59:04Z</time>
      </trkpt>
      <trkpt lat="42.742992" lon="0.192909">
        <ele>2002.6</ele>
        <time>2020-07-04T15:59:15Z</time>
      </trkpt>
      <trkpt lat="42.743077" lon="0.192973">
        <ele>2000.7</ele>
        <time>2020-07-04T15:59:27Z</time>
      </trkpt>
      <trkpt lat="42.743163" lon="0.193000">
        <ele>1999.0</ele>
        <time>2020-07-04T15:59:39Z</time>
      </trkpt>
      <trkpt lat="42.743257" lon="0.193012">
        <ele>1997.1</ele>
        <time>2020-07-04T15:59:50Z</time>
      </trkpt>
      <trkpt lat="42.743335" lon="0.193007">
        <ele>1994.5</ele>
        <time>2020-07-04T16:00:01Z</time>
      </trkpt>
      <trkpt lat="42.743404" lon="0.193061">
        <ele>1992.5</ele>
        <time>2020-07-04T16:00:11Z</time>
      </trkpt>
      <trkpt lat="42.743502" lon="0.193101">
        <ele>1989.9</ele>
        <time>2020-07-04T16:00:24Z</time>
      </trkpt>
      <trkpt lat="42.743584" lon="0.193117">
        <ele>1987.2</ele>
        <time>2020-07-04T16:00:36Z</time>
      </trkpt>
      <trkpt lat="42.743658" lon="0.193162">
        <ele>1985.3</ele>
        <time>2020-07-04T16:00:48Z</time>
      </trkpt>
      <trkpt lat="42.743752" lon="0.193199">
        <ele>1982.5</ele>
        <time>2020-07-04T16:00:59Z</time>
      </trkpt>
      <trkpt lat="42.743821" lon="0.193247">
        <ele>1979.4</ele>
        <time>2020-07-04T16:01:11Z</time>
      </trkpt>
      <trkpt lat="42.743872" lon="0.193331">
        <ele>1976.5</ele>
        <time>2020-07-04T16:01:22Z</time>
      </trkpt>
      <trkpt lat="42.743940" lon="0.193381">
        <ele>1972.8</ele>
        <time>2020-07-04T16:01:32Z</time>
      </trkpt>
      <trkpt lat="42.744015" lon="0.193413">
        <ele>1971.1</ele>
        <time>2020-07-04T16:01:43Z</time>
      </trkpt>
      <trkpt lat="42.744102" lon="0.193450">
        <ele>1969.2</ele>
        <time>2020-07-04T16:01:53Z</time>
      </trkpt>
      <trkpt lat="42.744181" lon="0.193496">
        <ele>1966.2</ele>
        <time>2020-07-04T16:02:04Z</time>
      </trkpt>
      <trkpt lat="42.744252" lon="0.193571">
        <ele>1963.4</ele>
        <time>2020-07-04T16:02:14Z</time>
      </trkpt>
      <trkpt lat="42.744368" lon="0.193562">
        <ele>1960.8</ele>
        <time>2020-07-04T16:02:23Z</time>
      </trkpt>
      <trkpt lat="42.744458" lon="0.193511">
        <ele>1959.1</ele>
        <time>2020-07-04T16:02:31Z</time>
      </trkpt>
      <trkpt lat="42.744554" lon="0.193543">
        <ele>1957.3</ele>
        <time>2020-07-04T16:02:40Z</time>
      </trkpt>
      <trkpt lat="42.744643" lon="0.193603">
        <ele>1954.7</ele>
        <time>2020-07-04T16:02:49Z</time>
      </trkpt>
      <trkpt lat="42.744731" lon="0.193639">
        <ele>1952.1</ele>
        <time>2020-07-04T16:02:59Z</time>
      </trkpt>
      <trkpt lat="42.744820" lon="0.193637">
        <ele>1949.0</ele>
        <time>2020-07-04T16:03:10Z</time>
      </trkpt>
      <trkpt lat="42.744923" lon="0.193654">
        <ele>1946.9</ele>
        <time>2020-07-04T16:03:20Z</time>
      </trkpt>
      <trkpt lat="42.744993" lon="0.193765">
        <ele>1944.2</ele>
        <time>2020-07-04T16:03:31Z</time>
      </trkpt>
      <trkpt lat="42.745060" lon="0.193856">
        <ele>1941.7</ele>
        <time>2020-07-04T16:03:43Z</time>
      </trkpt>
      <trkpt lat="42.745146" lon="0.193963">
        <ele>1939.6</ele>
        <time>2020-07-04T16:03:59Z</time>
      </trkpt>
      <trkpt lat="42.745224" lon="0.194033">
        <ele>1937.5</ele>
        <time>2020-07-04T16:04:08Z</time>
      </trkpt>
      <trkpt lat="42.745323" lon="0.194027">
        <ele>1934.7</ele>
        <time>2020-07-04T16:04:19Z</time>
      </trkpt>
      <trkpt lat="42.745439" lon="0.194056">
        <ele>1931.8</ele>
        <time>2020-07-04T16:04:31Z</time>
      </trkpt>
      <trkpt lat="42.745528" lon="0.194071">
        <ele>1928.1</ele>
        <time>2020-07-04T16:04:47Z</time>
      </trkpt>
      <trkpt lat="42.745625" lon="0.194057">
        <ele>1923.2</ele>
        <time>2020-07-04T16:05:01Z</time>
      </trkpt>
      <trkpt lat="42.745717" lon="0.194076">
        <ele>1920.4</ele>
        <time>2020-07-04T16:05:11Z</time>
      </trkpt>
      <trkpt lat="42.745803" lon="0.194028">
        <ele>1918.5</ele>
        <time>2020-07-04T16:05:20Z</time>
      </trkpt>
      <trkpt lat="42.745902" lon="0.194041">
        <ele>1916.7</ele>
        <time>2020-07-04T16:05:28Z</time>
      </trkpt>
      <trkpt lat="42.746008" lon="0.194048">
        <ele>1913.9</ele>
        <time>2020-07-04T16:05:44Z</time>
      </trkpt>
      <trkpt lat="42.746108" lon="0.194032">
        <ele>1911.3</ele>
        <time>2020-07-04T16:05:53Z</time>
      </trkpt>
      <trkpt lat="42.746177" lon="0.193993">
        <ele>1909.3</ele>
        <time>2020-07-04T16:06:03Z</time>
      </trkpt>
      <trkpt lat="42.746258" lon="0.193933">
        <ele>1905.6</ele>
        <time>2020-07-04T16:06:14Z</time>
      </trkpt>
      <trkpt lat="42.746347" lon="0.193903">
        <ele>1901.4</ele>
        <time>2020-07-04T16:06:24Z</time>
      </trkpt>
      <trkpt lat="42.746441" lon="0.193886">
        <ele>1899.2</ele>
        <time>2020-07-04T16:06:34Z</time>
      </trkpt>
      <trkpt lat="42.746532" lon="0.193847">
        <ele>1895.6</ele>
        <time>2020-07-04T16:06:54Z</time>
      </trkpt>
      <trkpt lat="42.746605" lon="0.193787">
        <ele>1891.4</ele>
        <time>2020-07-04T16:07:05Z</time>
      </trkpt>
      <trkpt lat="42.746671" lon="0.193701">
        <ele>1888.1</ele>
        <time>2020-07-04T16:07:15Z</time>
      </trkpt>
      <trkpt lat="42.746742" lon="0.193623">
        <ele>1883.1</ele>
        <time>2020-07-04T16:07:27Z</time>
      </trkpt>
      <trkpt lat="42.746790" lon="0.193524">
        <ele>1879.2</ele>
        <time>2020-07-04T16:07:39Z</time>
      </trkpt>
      <trkpt lat="42.746866" lon="0.193450">
        <ele>1875.7</ele>
        <time>2020-07-04T16:07:50Z</time>
      </trkpt>
      <trkpt lat="42.746948" lon="0.193372">
        <ele>1871.7</ele>
        <time>2020-07-04T16:08:00Z</time>
      </trkpt>
      <trkpt lat="42.747008" lon="0.193292">
        <ele>1868.1</ele>
        <time>2020-07-04T16:08:11Z</time>
      </trkpt>
      <trkpt lat="42.747045" lon="0.193235">
        <ele>1863.1</ele>
        <time>2020-07-04T16:08:27Z</time>
      </trkpt>
      <trkpt lat="42.747121" lon="0.193183">
        <ele>1858.2</ele>
        <time>2020-07-04T16:08:42Z</time>
      </trkpt>
      <trkpt lat="42.747174" lon="0.193076">
        <ele>1854.0</ele>
        <time>2020-07-04T16:08:53Z</time>
      </trkpt>
      <trkpt lat="42.747143" lon="0.192942">
        <ele>1850.4</ele>
        <time>2020-07-04T16:09:02Z</time>
      </trkpt>
      <trkpt lat="42.747143" lon="0.192795">
        <ele>1847.4</ele>
        <time>2020-07-04T16:09:15Z</time>
      </trkpt>
      <trkpt lat="42.747183" lon="0.192677">
        <ele>1844.8</ele>
        <time>2020-07-04T16:09:28Z</time>
      </trkpt>
      <trkpt lat="42.747252" lon="0.192584">
        <ele>1842.1</ele>
        <time>2020-07-04T16:09:39Z</time>
      </trkpt>
      <trkpt lat="42.747315" lon="0.192487">
        <ele>1840.9</ele>
        <time>2020-07-04T16:09:48Z</time>
      </trkpt>
      <trkpt lat="42.747386" lon="0.192405">
        <ele>1840.7</ele>
        <time>2020-07-04T16:09:58Z</time>
      </trkpt>
      <trkpt lat="42.747456" lon="0.192308">
        <ele>1839.9</ele>
        <time>2020-07-04T16:10:07Z</time>
      </trkpt>
      <trkpt lat="42.747527" lon="0.192218">
        <ele>1838.8</ele>
        <time>2020-07-04T16:10:17Z</time>
      </trkpt>
      <trkpt lat="42.747626" lon="0.192159">
        <ele>1836.3</ele>
        <time>2020-07-04T16:10:27Z</time>
      </trkpt>
      <trkpt lat="42.747728" lon="0.192108">
        <ele>1834.7</ele>
        <time>2020-07-04T16:10:37Z</time>
      </trkpt>
      <trkpt lat="42.747821" lon="0.192040">
        <ele>1832.8</ele>
        <time>2020-07-04T16:10:47Z</time>
      </trkpt>
      <trkpt lat="42.747905" lon="0.191990">
        <ele>1832.0</ele>
        <time>2020-07-04T16:10:55Z</time>
      </trkpt>
      <trkpt lat="42.748003" lon="0.191953">
        <ele>1831.9</ele>
        <time>2020-07-04T16:11:06Z</time>
      </trkpt>
      <trkpt lat="42.748082" lon="0.191915">
        <ele>1831.8</ele>
        <time>2020-07-04T16:11:14Z</time>
      </trkpt>
      <trkpt lat="42.748144" lon="0.191849">
        <ele>1831.7</ele>
        <time>2020-07-04T16:11:22Z</time>
      </trkpt>
      <trkpt lat="42.748217" lon="0.191782">
        <ele>1831.7</ele>
        <time>2020-07-04T16:11:31Z</time>
      </trkpt>
      <trkpt lat="42.748317" lon="0.191790">
        <ele>1830.8</ele>
        <time>2020-07-04T16:11:38Z</time>
      </trkpt>
      <trkpt lat="42.748322" lon="0.191804">
        <ele>1829.8</ele>
        <time>2020-07-04T16:12:30Z</time>
      </trkpt>
      <trkpt lat="42.748403" lon="0.191702">
        <ele>1829.7</ele>
        <time>2020-07-04T16:12:37Z</time>
      </trkpt>
      <trkpt lat="42.748476" lon="0.191554">
        <ele>1829.7</ele>
        <time>2020-07-04T16:12:40Z</time>
      </trkpt>
      <trkpt lat="42.748536" lon="0.191431">
        <ele>1829.7</ele>
        <time>2020-07-04T16:12:42Z</time>
      </trkpt>
      <trkpt lat="42.748591" lon="0.191309">
        <ele>1829.7</ele>
        <time>2020-07-04T16:12:44Z</time>
      </trkpt>
      <trkpt lat="42.748660" lon="0.191188">
        <ele>1829.6</ele>
        <time>2020-07-04T16:12:48Z</time>
      </trkpt>
      <trkpt lat="42.748774" lon="0.191121">
        <ele>1829.6</ele>
        <time>2020-07-04T16:12:51Z</time>
      </trkpt>
      <trkpt lat="42.748906" lon="0.191083">
        <ele>1829.6</ele>
        <time>2020-07-04T16:12:53Z</time>
      </trkpt>
      <trkpt lat="42.749069" lon="0.191003">
        <ele>1829.7</ele>
        <time>2020-07-04T16:12:55Z</time>
      </trkpt>
      <trkpt lat="42.749156" lon="0.190942">
        <ele>1829.7</ele>
        <time>2020-07-04T16:12:56Z</time>
      </trkpt>
      <trkpt lat="42.749247" lon="0.190868">
        <ele>1829.6</ele>
        <time>2020-07-04T16:12:57Z</time>
      </trkpt>
      <trkpt lat="42.749341" lon="0.190779">
        <ele>1829.7</ele>
        <time>2020-07-04T16:12:58Z</time>
      </trkpt>
      <trkpt lat="42.749434" lon="0.190683">
        <ele>1829.6</ele>
        <time>2020-07-04T16:12:59Z</time>
      </trkpt>
      <trkpt lat="42.749524" lon="0.190586">
        <ele>1829.7</ele>
        <time>2020-07-04T16:13:00Z</time>
      </trkpt>
      <trkpt lat="42.749615" lon="0.190491">
        <ele>1829.7</ele>
        <time>2020-07-04T16:13:01Z</time>
      </trkpt>
      <trkpt lat="42.749713" lon="0.190406">
        <ele>1829.6</ele>
        <time>2020-07-04T16:13:02Z</time>
      </trkpt>
      <trkpt lat="42.749816" lon="0.190330">
        <ele>1829.6</ele>
        <time>2020-07-04T16:13:03Z</time>
      </trkpt>
      <trkpt lat="42.749922" lon="0.190266">
        <ele>1829.6</ele>
        <time>2020-07-04T16:13:04Z</time>
      </trkpt>
      <trkpt lat="42.750036" lon="0.190221">
        <ele>1829.6</ele>
        <time>2020-07-04T16:13:05Z</time>
      </trkpt>
      <trkpt lat="42.750155" lon="0.190189">
        <ele>1828.6</ele>
        <time>2020-07-04T16:13:06Z</time>
      </trkpt>
      <trkpt lat="42.750279" lon="0.190173">
        <ele>1828.6</ele>
        <time>2020-07-04T16:13:07Z</time>
      </trkpt>
      <trkpt lat="42.750406" lon="0.190183">
        <ele>1828.5</ele>
        <time>2020-07-04T16:13:08Z</time>
      </trkpt>
      <trkpt lat="42.750531" lon="0.190223">
        <ele>1826.7</ele>
        <time>2020-07-04T16:13:09Z</time>
      </trkpt>
      <trkpt lat="42.750655" lon="0.190284">
        <ele>1826.5</ele>
        <time>2020-07-04T16:13:10Z</time>
      </trkpt>
      <trkpt lat="42.750777" lon="0.190353">
        <ele>1825.6</ele>
        <time>2020-07-04T16:13:11Z</time>
      </trkpt>
      <trkpt lat="42.750901" lon="0.190425">
        <ele>1825.6</ele>
        <time>2020-07-04T16:13:12Z</time>
      </trkpt>
      <trkpt lat="42.751027" lon="0.190488">
        <ele>1824.3</ele>
        <time>2020-07-04T16:13:13Z</time>
      </trkpt>
      <trkpt lat="42.751158" lon="0.190527">
        <ele>1824.3</ele>
        <time>2020-07-04T16:13:14Z</time>
      </trkpt>
      <trkpt lat="42.751290" lon="0.190549">
        <ele>1822.8</ele>
        <time>2020-07-04T16:13:15Z</time>
      </trkpt>
      <trkpt lat="42.751424" lon="0.190562">
        <ele>1822.8</ele>
        <time>2020-07-04T16:13:16Z</time>
      </trkpt>
      <trkpt lat="42.751556" lon="0.190581">
        <ele>1822.8</ele>
        <time>2020-07-04T16:13:17Z</time>
      </trkpt>
      <trkpt lat="42.751685" lon="0.190622">
        <ele>1821.7</ele>
        <time>2020-07-04T16:13:18Z</time>
      </trkpt>
      <trkpt lat="42.751809" lon="0.190691">
        <ele>1821.4</ele>
        <time>2020-07-04T16:13:19Z</time>
      </trkpt>
      <trkpt lat="42.751929" lon="0.190781">
        <ele>1821.0</ele>
        <time>2020-07-04T16:13:20Z</time>
      </trkpt>
      <trkpt lat="42.752050" lon="0.190879">
        <ele>1820.9</ele>
        <time>2020-07-04T16:13:21Z</time>
      </trkpt>
      <trkpt lat="42.752173" lon="0.190979">
        <ele>1819.5</ele>
        <time>2020-07-04T16:13:22Z</time>
      </trkpt>
      <trkpt lat="42.752297" lon="0.191082">
        <ele>1818.3</ele>
        <time>2020-07-04T16:13:23Z</time>
      </trkpt>
      <trkpt lat="42.752425" lon="0.191187">
        <ele>1817.4</ele>
        <time>2020-07-04T16:13:24Z</time>
      </trkpt>
      <trkpt lat="42.752559" lon="0.191290">
        <ele>1816.2</ele>
        <time>2020-07-04T16:13:25Z</time>
      </trkpt>
      <trkpt lat="42.752698" lon="0.191385">
        <ele>1815.7</ele>
        <time>2020-07-04T16:13:26Z</time>
      </trkpt>
      <trkpt lat="42.752844" lon="0.191472">
        <ele>1814.6</ele>
        <time>2020-07-04T16:13:27Z</time>
      </trkpt>
      <trkpt lat="42.752995" lon="0.191551">
        <ele>1813.8</ele>
        <time>2020-07-04T16:13:28Z</time>
      </trkpt>
      <trkpt lat="42.753149" lon="0.191628">
        <ele>1813.8</ele>
        <time>2020-07-04T16:13:29Z</time>
      </trkpt>
      <trkpt lat="42.753304" lon="0.191708">
        <ele>1812.1</ele>
        <time>2020-07-04T16:13:30Z</time>
      </trkpt>
      <trkpt lat="42.753461" lon="0.191788">
        <ele>1810.9</ele>
        <time>2020-07-04T16:13:31Z</time>
      </trkpt>
      <trkpt lat="42.753617" lon="0.191869">
        <ele>1809.6</ele>
        <time>2020-07-04T16:13:32Z</time>
      </trkpt>
      <trkpt lat="42.753776" lon="0.191944">
        <ele>1808.7</ele>
        <time>2020-07-04T16:13:33Z</time>
      </trkpt>
      <trkpt lat="42.753931" lon="0.192012">
        <ele>1807.9</ele>
        <time>2020-07-04T16:13:34Z</time>
      </trkpt>
      <trkpt lat="42.754078" lon="0.192070">
        <ele>1807.8</ele>
        <time>2020-07-04T16:13:35Z</time>
      </trkpt>
      <trkpt lat="42.754209" lon="0.192128">
        <ele>1805.2</ele>
        <time>2020-07-04T16:13:36Z</time>
      </trkpt>
      <trkpt lat="42.754324" lon="0.192197">
        <ele>1803.4</ele>
        <time>2020-07-04T16:13:37Z</time>
      </trkpt>
      <trkpt lat="42.754427" lon="0.192283">
        <ele>1801.9</ele>
        <time>2020-07-04T16:13:38Z</time>
      </trkpt>
      <trkpt lat="42.754522" lon="0.192377">
        <ele>1799.8</ele>
        <time>2020-07-04T16:13:39Z</time>
      </trkpt>
      <trkpt lat="42.754617" lon="0.192454">
        <ele>1799.0</ele>
        <time>2020-07-04T16:13:40Z</time>
      </trkpt>
      <trkpt lat="42.754715" lon="0.192505">
        <ele>1797.5</ele>
        <time>2020-07-04T16:13:41Z</time>
      </trkpt>
      <trkpt lat="42.754816" lon="0.192536">
        <ele>1796.3</ele>
        <time>2020-07-04T16:13:42Z</time>
      </trkpt>
      <trkpt lat="42.754920" lon="0.192545">
        <ele>1795.4</ele>
        <time>2020-07-04T16:13:43Z</time>
      </trkpt>
      <trkpt lat="42.755030" lon="0.192556">
        <ele>1794.5</ele>
        <time>2020-07-04T16:13:44Z</time>
      </trkpt>
      <trkpt lat="42.755142" lon="0.192590">
        <ele>1793.5</ele>
        <time>2020-07-04T16:13:45Z</time>
      </trkpt>
      <trkpt lat="42.755253" lon="0.192655">
        <ele>1792.7</ele>
        <time>2020-07-04T16:13:46Z</time>
      </trkpt>
      <trkpt lat="42.755361" lon="0.192738">
        <ele>1791.8</ele>
        <time>2020-07-04T16:13:47Z</time>
      </trkpt>
      <trkpt lat="42.755472" lon="0.192823">
        <ele>1790.9</ele>
        <time>2020-07-04T16:13:48Z</time>
      </trkpt>
      <trkpt lat="42.755591" lon="0.192901">
        <ele>1791.0</ele>
        <time>2020-07-04T16:13:49Z</time>
      </trkpt>
      <trkpt lat="42.755718" lon="0.192961">
        <ele>1789.6</ele>
        <time>2020-07-04T16:13:50Z</time>
      </trkpt>
      <trkpt lat="42.755851" lon="0.193002">
        <ele>1789.5</ele>
        <time>2020-07-04T16:13:51Z</time>
      </trkpt>
      <trkpt lat="42.755980" lon="0.193034">
        <ele>1788.5</ele>
        <time>2020-07-04T16:13:52Z</time>
      </trkpt>
      <trkpt lat="42.756101" lon="0.193064">
        <ele>1787.0</ele>
        <time>2020-07-04T16:13:53Z</time>
      </trkpt>
      <trkpt lat="42.756212" lon="0.193098">
        <ele>1785.4</ele>
        <time>2020-07-04T16:13:54Z</time>
      </trkpt>
      <trkpt lat="42.756311" lon="0.193135">
        <ele>1783.8</ele>
        <time>2020-07-04T16:13:55Z</time>
      </trkpt>
      <trkpt lat="42.756399" lon="0.193181">
        <ele>1782.2</ele>
        <time>2020-07-04T16:13:56Z</time>
      </trkpt>
      <trkpt lat="42.756478" lon="0.193237">
        <ele>1780.5</ele>
        <time>2020-07-04T16:13:57Z</time>
      </trkpt>
      <trkpt lat="42.756608" lon="0.193401">
        <ele>1778.5</ele>
        <time>2020-07-04T16:13:59Z</time>
      </trkpt>
      <trkpt lat="42.756650" lon="0.193514">
        <ele>1777.1</ele>
        <time>2020-07-04T16:14:00Z</time>
      </trkpt>
      <trkpt lat="42.756677" lon="0.193649">
        <ele>1776.0</ele>
        <time>2020-07-04T16:14:01Z</time>
      </trkpt>
      <trkpt lat="42.756710" lon="0.193782">
        <ele>1775.2</ele>
        <time>2020-07-04T16:14:02Z</time>
      </trkpt>
      <trkpt lat="42.756757" lon="0.193915">
        <ele>1774.2</ele>
        <time>2020-07-04T16:14:03Z</time>
      </trkpt>
      <trkpt lat="42.756823" lon="0.194038">
        <ele>1773.4</ele>
        <time>2020-07-04T16:14:04Z</time>
      </trkpt>
      <trkpt lat="42.756900" lon="0.194152">
        <ele>1773.4</ele>
        <time>2020-07-04T16:14:05Z</time>
      </trkpt>
      <trkpt lat="42.756984" lon="0.194263">
        <ele>1772.1</ele>
        <time>2020-07-04T16:14:06Z</time>
      </trkpt>
      <trkpt lat="42.757069" lon="0.194375">
        <ele>1771.9</ele>
        <time>2020-07-04T16:14:07Z</time>
      </trkpt>
      <trkpt lat="42.757152" lon="0.194487">
        <ele>1771.1</ele>
        <time>2020-07-04T16:14:08Z</time>
      </trkpt>
      <trkpt lat="42.757234" lon="0.194586">
        <ele>1770.3</ele>
        <time>2020-07-04T16:14:09Z</time>
      </trkpt>
      <trkpt lat="42.757320" lon="0.194672">
        <ele>1769.2</ele>
        <time>2020-07-04T16:14:10Z</time>
      </trkpt>
      <trkpt lat="42.757411" lon="0.194738">
        <ele>1768.4</ele>
        <time>2020-07-04T16:14:11Z</time>
      </trkpt>
      <trkpt lat="42.757508" lon="0.194783">
        <ele>1767.6</ele>
        <time>2020-07-04T16:14:12Z</time>
      </trkpt>
      <trkpt lat="42.757610" lon="0.194812">
        <ele>1767.4</ele>
        <time>2020-07-04T16:14:13Z</time>
      </trkpt>
      <trkpt lat="42.757716" lon="0.194831">
        <ele>1766.6</ele>
        <time>2020-07-04T16:14:14Z</time>
      </trkpt>
      <trkpt lat="42.757826" lon="0.194851">
        <ele>1766.6</ele>
        <time>2020-07-04T16:14:15Z</time>
      </trkpt>
      <trkpt lat="42.757936" lon="0.194876">
        <ele>1765.9</ele>
        <time>2020-07-04T16:14:16Z</time>
      </trkpt>
      <trkpt lat="42.758049" lon="0.194907">
        <ele>1765.9</ele>
        <time>2020-07-04T16:14:17Z</time>
      </trkpt>
      <trkpt lat="42.758161" lon="0.194945">
        <ele>1764.7</ele>
        <time>2020-07-04T16:14:18Z</time>
      </trkpt>
      <trkpt lat="42.758274" lon="0.194985">
        <ele>1764.6</ele>
        <time>2020-07-04T16:14:19Z</time>
      </trkpt>
      <trkpt lat="42.758386" lon="0.195029">
        <ele>1764.6</ele>
        <time>2020-07-04T16:14:20Z</time>
      </trkpt>
      <trkpt lat="42.758495" lon="0.195077">
        <ele>1764.0</ele>
        <time>2020-07-04T16:14:21Z</time>
      </trkpt>
      <trkpt lat="42.758597" lon="0.195135">
        <ele>1762.7</ele>
        <time>2020-07-04T16:14:22Z</time>
      </trkpt>
      <trkpt lat="42.758693" lon="0.195208">
        <ele>1761.9</ele>
        <time>2020-07-04T16:14:23Z</time>
      </trkpt>
      <trkpt lat="42.758779" lon="0.195292">
        <ele>1761.0</ele>
        <time>2020-07-04T16:14:24Z</time>
      </trkpt>
      <trkpt lat="42.758855" lon="0.195387">
        <ele>1760.1</ele>
        <time>2020-07-04T16:14:25Z</time>
      </trkpt>
      <trkpt lat="42.758918" lon="0.195499">
        <ele>1760.1</ele>
        <time>2020-07-04T16:14:26Z</time>
      </trkpt>
      <trkpt lat="42.758967" lon="0.195625">
        <ele>1758.6</ele>
        <time>2020-07-04T16:14:27Z</time>
      </trkpt>
      <trkpt lat="42.759020" lon="0.195749">
        <ele>1758.6</ele>
        <time>2020-07-04T16:14:28Z</time>
      </trkpt>
      <trkpt lat="42.759084" lon="0.195865">
        <ele>1757.2</ele>
        <time>2020-07-04T16:14:29Z</time>
      </trkpt>
      <trkpt lat="42.759160" lon="0.195963">
        <ele>1757.2</ele>
        <time>2020-07-04T16:14:30Z</time>
      </trkpt>
      <trkpt lat="42.759250" lon="0.196034">
        <ele>1756.0</ele>
        <time>2020-07-04T16:14:31Z</time>
      </trkpt>
      <trkpt lat="42.759353" lon="0.196082">
        <ele>1756.0</ele>
        <time>2020-07-04T16:14:32Z</time>
      </trkpt>
      <trkpt lat="42.759468" lon="0.196104">
        <ele>1756.0</ele>
        <time>2020-07-04T16:14:33Z</time>
      </trkpt>
      <trkpt lat="42.759593" lon="0.196113">
        <ele>1755.0</ele>
        <time>2020-07-04T16:14:34Z</time>
      </trkpt>
      <trkpt lat="42.759728" lon="0.196122">
        <ele>1755.0</ele>
        <time>2020-07-04T16:14:35Z</time>
      </trkpt>
      <trkpt lat="42.759878" lon="0.196133">
        <ele>1755.0</ele>
        <time>2020-07-04T16:14:36Z</time>
      </trkpt>
      <trkpt lat="42.760038" lon="0.196150">
        <ele>1755.1</ele>
        <time>2020-07-04T16:14:37Z</time>
      </trkpt>
      <trkpt lat="42.760203" lon="0.196171">
        <ele>1755.1</ele>
        <time>2020-07-04T16:14:38Z</time>
      </trkpt>
      <trkpt lat="42.760365" lon="0.196198">
        <ele>1755.1</ele>
        <time>2020-07-04T16:14:39Z</time>
      </trkpt>
      <trkpt lat="42.760523" lon="0.196226">
        <ele>1755.1</ele>
        <time>2020-07-04T16:14:40Z</time>
      </trkpt>
      <trkpt lat="42.760679" lon="0.196261">
        <ele>1754.1</ele>
        <time>2020-07-04T16:14:41Z</time>
      </trkpt>
      <trkpt lat="42.760832" lon="0.196311">
        <ele>1752.9</ele>
        <time>2020-07-04T16:14:42Z</time>
      </trkpt>
      <trkpt lat="42.760977" lon="0.196381">
        <ele>1751.7</ele>
        <time>2020-07-04T16:14:43Z</time>
      </trkpt>
      <trkpt lat="42.761112" lon="0.196464">
        <ele>1750.6</ele>
        <time>2020-07-04T16:14:44Z</time>
      </trkpt>
      <trkpt lat="42.761236" lon="0.196554">
        <ele>1749.3</ele>
        <time>2020-07-04T16:14:45Z</time>
      </trkpt>
      <trkpt lat="42.761353" lon="0.196642">
        <ele>1747.7</ele>
        <time>2020-07-04T16:14:46Z</time>
      </trkpt>
      <trkpt lat="42.761469" lon="0.196718">
        <ele>1746.1</ele>
        <time>2020-07-04T16:14:47Z</time>
      </trkpt>
      <trkpt lat="42.761588" lon="0.196779">
        <ele>1744.8</ele>
        <time>2020-07-04T16:14:48Z</time>
      </trkpt>
      <trkpt lat="42.761706" lon="0.196838">
        <ele>1743.1</ele>
        <time>2020-07-04T16:14:49Z</time>
      </trkpt>
      <trkpt lat="42.761830" lon="0.196896">
        <ele>1741.8</ele>
        <time>2020-07-04T16:14:50Z</time>
      </trkpt>
      <trkpt lat="42.761954" lon="0.196955">
        <ele>1740.9</ele>
        <time>2020-07-04T16:14:51Z</time>
      </trkpt>
      <trkpt lat="42.762078" lon="0.197013">
        <ele>1739.6</ele>
        <time>2020-07-04T16:14:52Z</time>
      </trkpt>
      <trkpt lat="42.762202" lon="0.197072">
        <ele>1737.9</ele>
        <time>2020-07-04T16:14:53Z</time>
      </trkpt>
      <trkpt lat="42.762291" lon="0.197066">
        <ele>1736.1</ele>
        <time>2020-07-04T16:14:54Z</time>
      </trkpt>
      <trkpt lat="42.762411" lon="0.197064">
        <ele>1734.4</ele>
        <time>2020-07-04T16:14:55Z</time>
      </trkpt>
      <trkpt lat="42.762526" lon="0.197084">
        <ele>1732.4</ele>
        <time>2020-07-04T16:14:56Z</time>
      </trkpt>
      <trkpt lat="42.762638" lon="0.197084">
        <ele>1731.0</ele>
        <time>2020-07-04T16:14:57Z</time>
      </trkpt>
      <trkpt lat="42.762748" lon="0.197090">
        <ele>1730.1</ele>
        <time>2020-07-04T16:14:58Z</time>
      </trkpt>
      <trkpt lat="42.762861" lon="0.197129">
        <ele>1728.8</ele>
        <time>2020-07-04T16:14:59Z</time>
      </trkpt>
      <trkpt lat="42.762972" lon="0.197176">
        <ele>1727.8</ele>
        <time>2020-07-04T16:15:00Z</time>
      </trkpt>
      <trkpt lat="42.763091" lon="0.197215">
        <ele>1727.8</ele>
        <time>2020-07-04T16:15:01Z</time>
      </trkpt>
      <trkpt lat="42.763214" lon="0.197250">
        <ele>1726.0</ele>
        <time>2020-07-04T16:15:02Z</time>
      </trkpt>
      <trkpt lat="42.763341" lon="0.197292">
        <ele>1725.3</ele>
        <time>2020-07-04T16:15:03Z</time>
      </trkpt>
      <trkpt lat="42.763467" lon="0.197344">
        <ele>1723.7</ele>
        <time>2020-07-04T16:15:04Z</time>
      </trkpt>
      <trkpt lat="42.763597" lon="0.197395">
        <ele>1722.2</ele>
        <time>2020-07-04T16:15:05Z</time>
      </trkpt>
      <trkpt lat="42.763730" lon="0.197434">
        <ele>1720.9</ele>
        <time>2020-07-04T16:15:06Z</time>
      </trkpt>
      <trkpt lat="42.763869" lon="0.197459">
        <ele>1719.5</ele>
        <time>2020-07-04T16:15:07Z</time>
      </trkpt>
      <trkpt lat="42.764008" lon="0.197477">
        <ele>1718.3</ele>
        <time>2020-07-04T16:15:08Z</time>
      </trkpt>
      <trkpt lat="42.764138" lon="0.197490">
        <ele>1717.1</ele>
        <time>2020-07-04T16:15:09Z</time>
      </trkpt>
      <trkpt lat="42.764251" lon="0.197497">
        <ele>1715.3</ele>
        <time>2020-07-04T16:15:10Z</time>
      </trkpt>
      <trkpt lat="42.764354" lon="0.197493">
        <ele>1713.0</ele>
        <time>2020-07-04T16:15:11Z</time>
      </trkpt>
      <trkpt lat="42.764451" lon="0.197469">
        <ele>1710.6</ele>
        <time>2020-07-04T16:15:12Z</time>
      </trkpt>
      <trkpt lat="42.764545" lon="0.197418">
        <ele>1709.6</ele>
        <time>2020-07-04T16:15:13Z</time>
      </trkpt>
      <trkpt lat="42.764641" lon="0.197346">
        <ele>1706.8</ele>
        <time>2020-07-04T16:15:14Z</time>
      </trkpt>
      <trkpt lat="42.764737" lon="0.197265">
        <ele>1705.4</ele>
        <time>2020-07-04T16:15:15Z</time>
      </trkpt>
      <trkpt lat="42.764836" lon="0.197183">
        <ele>1705.5</ele>
        <time>2020-07-04T16:15:16Z</time>
      </trkpt>
      <trkpt lat="42.764941" lon="0.197115">
        <ele>1704.5</ele>
        <time>2020-07-04T16:15:17Z</time>
      </trkpt>
      <trkpt lat="42.765064" lon="0.197080">
        <ele>1703.4</ele>
        <time>2020-07-04T16:15:18Z</time>
      </trkpt>
      <trkpt lat="42.765190" lon="0.197071">
        <ele>1702.5</ele>
        <time>2020-07-04T16:15:19Z</time>
      </trkpt>
      <trkpt lat="42.765314" lon="0.197091">
        <ele>1701.3</ele>
        <time>2020-07-04T16:15:20Z</time>
      </trkpt>
      <trkpt lat="42.765435" lon="0.197143">
        <ele>1699.8</ele>
        <time>2020-07-04T16:15:21Z</time>
      </trkpt>
      <trkpt lat="42.765551" lon="0.197225">
        <ele>1698.7</ele>
        <time>2020-07-04T16:15:22Z</time>
      </trkpt>
      <trkpt lat="42.765662" lon="0.197322">
        <ele>1697.5</ele>
        <time>2020-07-04T16:15:23Z</time>
      </trkpt>
      <trkpt lat="42.765773" lon="0.197427">
        <ele>1696.3</ele>
        <time>2020-07-04T16:15:24Z</time>
      </trkpt>
      <trkpt lat="42.765888" lon="0.197514">
        <ele>1694.9</ele>
        <time>2020-07-04T16:15:25Z</time>
      </trkpt>
      <trkpt lat="42.766004" lon="0.197589">
        <ele>1693.3</ele>
        <time>2020-07-04T16:15:26Z</time>
      </trkpt>
      <trkpt lat="42.766119" lon="0.197652">
        <ele>1691.7</ele>
        <time>2020-07-04T16:15:27Z</time>
      </trkpt>
      <trkpt lat="42.766237" lon="0.197696">
        <ele>1690.2</ele>
        <time>2020-07-04T16:15:28Z</time>
      </trkpt>
      <trkpt lat="42.766359" lon="0.197726">
        <ele>1689.2</ele>
        <time>2020-07-04T16:15:29Z</time>
      </trkpt>
      <trkpt lat="42.766480" lon="0.197756">
        <ele>1688.3</ele>
        <time>2020-07-04T16:15:30Z</time>
      </trkpt>
      <trkpt lat="42.766613" lon="0.197772">
        <ele>1687.5</ele>
        <time>2020-07-04T16:15:31Z</time>
      </trkpt>
      <trkpt lat="42.766759" lon="0.197792">
        <ele>1686.2</ele>
        <time>2020-07-04T16:15:32Z</time>
      </trkpt>
      <trkpt lat="42.766893" lon="0.197812">
        <ele>1685.0</ele>
        <time>2020-07-04T16:15:33Z</time>
      </trkpt>
      <trkpt lat="42.767021" lon="0.197821">
        <ele>1683.9</ele>
        <time>2020-07-04T16:15:34Z</time>
      </trkpt>
      <trkpt lat="42.767147" lon="0.197837">
        <ele>1681.4</ele>
        <time>2020-07-04T16:15:35Z</time>
      </trkpt>
      <trkpt lat="42.767272" lon="0.197857">
        <ele>1679.6</ele>
        <time>2020-07-04T16:15:36Z</time>
      </trkpt>
      <trkpt lat="42.767382" lon="0.197897">
        <ele>1677.9</ele>
        <time>2020-07-04T16:15:37Z</time>
      </trkpt>
      <trkpt lat="42.767477" lon="0.197988">
        <ele>1677.1</ele>
        <time>2020-07-04T16:15:38Z</time>
      </trkpt>
      <trkpt lat="42.767580" lon="0.198049">
        <ele>1674.8</ele>
        <time>2020-07-04T16:15:39Z</time>
      </trkpt>
      <trkpt lat="42.767694" lon="0.198078">
        <ele>1673.7</ele>
        <time>2020-07-04T16:15:40Z</time>
      </trkpt>
      <trkpt lat="42.767811" lon="0.198078">
        <ele>1671.7</ele>
        <time>2020-07-04T16:15:41Z</time>
      </trkpt>
      <trkpt lat="42.767924" lon="0.198075">
        <ele>1670.1</ele>
        <time>2020-07-04T16:15:42Z</time>
      </trkpt>
      <trkpt lat="42.768036" lon="0.198077">
        <ele>1668.6</ele>
        <time>2020-07-04T16:15:43Z</time>
      </trkpt>
      <trkpt lat="42.768147" lon="0.198083">
        <ele>1667.5</ele>
        <time>2020-07-04T16:15:44Z</time>
      </trkpt>
      <trkpt lat="42.768263" lon="0.198102">
        <ele>1666.3</ele>
        <time>2020-07-04T16:15:45Z</time>
      </trkpt>
      <trkpt lat="42.768378" lon="0.198149">
        <ele>1665.5</ele>
        <time>2020-07-04T16:15:46Z</time>
      </trkpt>
      <trkpt lat="42.768480" lon="0.198239">
        <ele>1664.4</ele>
        <time>2020-07-04T16:15:47Z</time>
      </trkpt>
      <trkpt lat="42.768580" lon="0.198352">
        <ele>1664.4</ele>
        <time>2020-07-04T16:15:48Z</time>
      </trkpt>
      <trkpt lat="42.768695" lon="0.198443">
        <ele>1663.0</ele>
        <time>2020-07-04T16:15:49Z</time>
      </trkpt>
      <trkpt lat="42.768811" lon="0.198534">
        <ele>1662.1</ele>
        <time>2020-07-04T16:15:50Z</time>
      </trkpt>
      <trkpt lat="42.768926" lon="0.198625">
        <ele>1661.0</ele>
        <time>2020-07-04T16:15:51Z</time>
      </trkpt>
      <trkpt lat="42.769042" lon="0.198701">
        <ele>1659.1</ele>
        <time>2020-07-04T16:15:52Z</time>
      </trkpt>
      <trkpt lat="42.769161" lon="0.198767">
        <ele>1657.4</ele>
        <time>2020-07-04T16:15:53Z</time>
      </trkpt>
      <trkpt lat="42.769283" lon="0.198823">
        <ele>1656.2</ele>
        <time>2020-07-04T16:15:54Z</time>
      </trkpt>
      <trkpt lat="42.769399" lon="0.198876">
        <ele>1654.8</ele>
        <time>2020-07-04T16:15:55Z</time>
      </trkpt>
      <trkpt lat="42.769507" lon="0.198940">
        <ele>1653.2</ele>
        <time>2020-07-04T16:15:56Z</time>
      </trkpt>
      <trkpt lat="42.769608" lon="0.199011">
        <ele>1651.4</ele>
        <time>2020-07-04T16:15:57Z</time>
      </trkpt>
      <trkpt lat="42.769695" lon="0.199102">
        <ele>1649.8</ele>
        <time>2020-07-04T16:15:58Z</time>
      </trkpt>
      <trkpt lat="42.769770" lon="0.199198">
        <ele>1648.6</ele>
        <time>2020-07-04T16:15:59Z</time>
      </trkpt>
      <trkpt lat="42.769851" lon="0.199278">
        <ele>1647.5</ele>
        <time>2020-07-04T16:16:00Z</time>
      </trkpt>
      <trkpt lat="42.769939" lon="0.199335">
        <ele>1645.9</ele>
        <time>2020-07-04T16:16:01Z</time>
      </trkpt>
      <trkpt lat="42.770142" lon="0.199380">
        <ele>1643.9</ele>
        <time>2020-07-04T16:16:03Z</time>
      </trkpt>
      <trkpt lat="42.770243" lon="0.199380">
        <ele>1643.0</ele>
        <time>2020-07-04T16:16:04Z</time>
      </trkpt>
      <trkpt lat="42.770344" lon="0.199362">
        <ele>1642.2</ele>
        <time>2020-07-04T16:16:05Z</time>
      </trkpt>
      <trkpt lat="42.770444" lon="0.199324">
        <ele>1640.3</ele>
        <time>2020-07-04T16:16:06Z</time>
      </trkpt>
      <trkpt lat="42.770542" lon="0.199264">
        <ele>1638.4</ele>
        <time>2020-07-04T16:16:07Z</time>
      </trkpt>
      <trkpt lat="42.770641" lon="0.199200">
        <ele>1637.3</ele>
        <time>2020-07-04T16:16:08Z</time>
      </trkpt>
      <trkpt lat="42.770737" lon="0.199135">
        <ele>1636.1</ele>
        <time>2020-07-04T16:16:09Z</time>
      </trkpt>
      <trkpt lat="42.770838" lon="0.199086">
        <ele>1635.2</ele>
        <time>2020-07-04T16:16:10Z</time>
      </trkpt>
      <trkpt lat="42.770942" lon="0.199060">
        <ele>1633.9</ele>
        <time>2020-07-04T16:16:11Z</time>
      </trkpt>
      <trkpt lat="42.771048" lon="0.199062">
        <ele>1632.4</ele>
        <time>2020-07-04T16:16:12Z</time>
      </trkpt>
      <trkpt lat="42.771156" lon="0.199082">
        <ele>1630.7</ele>
        <time>2020-07-04T16:16:13Z</time>
      </trkpt>
      <trkpt lat="42.771267" lon="0.199112">
        <ele>1629.9</ele>
        <time>2020-07-04T16:16:14Z</time>
      </trkpt>
      <trkpt lat="42.771380" lon="0.199141">
        <ele>1629.9</ele>
        <time>2020-07-04T16:16:15Z</time>
      </trkpt>
      <trkpt lat="42.771496" lon="0.199164">
        <ele>1628.3</ele>
        <time>2020-07-04T16:16:16Z</time>
      </trkpt>
      <trkpt lat="42.771614" lon="0.199181">
        <ele>1627.1</ele>
        <time>2020-07-04T16:16:17Z</time>
      </trkpt>
      <trkpt lat="42.771731" lon="0.199186">
        <ele>1626.0</ele>
        <time>2020-07-04T16:16:18Z</time>
      </trkpt>
      <trkpt lat="42.771848" lon="0.199184">
        <ele>1624.4</ele>
        <time>2020-07-04T16:16:19Z</time>
      </trkpt>
      <trkpt lat="42.771963" lon="0.199168">
        <ele>1623.3</ele>
        <time>2020-07-04T16:16:20Z</time>
      </trkpt>
      <trkpt lat="42.772075" lon="0.199146">
        <ele>1622.0</ele>
        <time>2020-07-04T16:16:21Z</time>
      </trkpt>
      <trkpt lat="42.772181" lon="0.199123">
        <ele>1620.3</ele>
        <time>2020-07-04T16:16:22Z</time>
      </trkpt>
      <trkpt lat="42.772277" lon="0.199101">
        <ele>1618.3</ele>
        <time>2020-07-04T16:16:23Z</time>
      </trkpt>
      <trkpt lat="42.772447" lon="0.199039">
        <ele>1614.3</ele>
        <time>2020-07-04T16:16:25Z</time>
      </trkpt>
      <trkpt lat="42.772589" lon="0.198907">
        <ele>1611.2</ele>
        <time>2020-07-04T16:16:27Z</time>
      </trkpt>
      <trkpt lat="42.772703" lon="0.198703">
        <ele>1609.4</ele>
        <time>2020-07-04T16:16:29Z</time>
      </trkpt>
      <trkpt lat="42.772767" lon="0.198595">
        <ele>1608.7</ele>
        <time>2020-07-04T16:16:30Z</time>
      </trkpt>
      <trkpt lat="42.772839" lon="0.198499">
        <ele>1607.5</ele>
        <time>2020-07-04T16:16:31Z</time>
      </trkpt>
      <trkpt lat="42.772928" lon="0.198426">
        <ele>1606.7</ele>
        <time>2020-07-04T16:16:32Z</time>
      </trkpt>
      <trkpt lat="42.773028" lon="0.198371">
        <ele>1605.7</ele>
        <time>2020-07-04T16:16:33Z</time>
      </trkpt>
      <trkpt lat="42.773140" lon="0.198327">
        <ele>1604.7</ele>
        <time>2020-07-04T16:16:34Z</time>
      </trkpt>
      <trkpt lat="42.773252" lon="0.198279">
        <ele>1603.7</ele>
        <time>2020-07-04T16:16:35Z</time>
      </trkpt>
      <trkpt lat="42.773368" lon="0.198228">
        <ele>1603.0</ele>
        <time>2020-07-04T16:16:36Z</time>
      </trkpt>
      <trkpt lat="42.773486" lon="0.198179">
        <ele>1601.9</ele>
        <time>2020-07-04T16:16:37Z</time>
      </trkpt>
      <trkpt lat="42.773607" lon="0.198128">
        <ele>1601.0</ele>
        <time>2020-07-04T16:16:38Z</time>
      </trkpt>
      <trkpt lat="42.773724" lon="0.198075">
        <ele>1599.9</ele>
        <time>2020-07-04T16:16:39Z</time>
      </trkpt>
      <trkpt lat="42.773838" lon="0.198024">
        <ele>1598.8</ele>
        <time>2020-07-04T16:16:40Z</time>
      </trkpt>
      <trkpt lat="42.773952" lon="0.197975">
        <ele>1597.3</ele>
        <time>2020-07-04T16:16:41Z</time>
      </trkpt>
      <trkpt lat="42.774067" lon="0.197929">
        <ele>1595.7</ele>
        <time>2020-07-04T16:16:42Z</time>
      </trkpt>
      <trkpt lat="42.774182" lon="0.197884">
        <ele>1594.3</ele>
        <time>2020-07-04T16:16:43Z</time>
      </trkpt>
      <trkpt lat="42.774299" lon="0.197843">
        <ele>1592.9</ele>
        <time>2020-07-04T16:16:44Z</time>
      </trkpt>
      <trkpt lat="42.774416" lon="0.197806">
        <ele>1592.0</ele>
        <time>2020-07-04T16:16:45Z</time>
      </trkpt>
      <trkpt lat="42.774531" lon="0.197772">
        <ele>1591.1</ele>
        <time>2020-07-04T16:16:46Z</time>
      </trkpt>
      <trkpt lat="42.774644" lon="0.197740">
        <ele>1590.0</ele>
        <time>2020-07-04T16:16:47Z</time>
      </trkpt>
      <trkpt lat="42.774755" lon="0.197708">
        <ele>1588.5</ele>
        <time>2020-07-04T16:16:48Z</time>
      </trkpt>
      <trkpt lat="42.774860" lon="0.197682">
        <ele>1586.8</ele>
        <time>2020-07-04T16:16:49Z</time>
      </trkpt>
      <trkpt lat="42.774960" lon="0.197659">
        <ele>1585.4</ele>
        <time>2020-07-04T16:16:50Z</time>
      </trkpt>
      <trkpt lat="42.775056" lon="0.197641">
        <ele>1583.9</ele>
        <time>2020-07-04T16:16:51Z</time>
      </trkpt>
      <trkpt lat="42.775235" lon="0.197626">
        <ele>1583.0</ele>
        <time>2020-07-04T16:16:53Z</time>
      </trkpt>
      <trkpt lat="42.775399" lon="0.197632">
        <ele>1580.5</ele>
        <time>2020-07-04T16:16:55Z</time>
      </trkpt>
      <trkpt lat="42.775541" lon="0.197653">
        <ele>1579.6</ele>
        <time>2020-07-04T16:16:57Z</time>
      </trkpt>
      <trkpt lat="42.775639" lon="0.197721">
        <ele>1577.1</ele>
        <time>2020-07-04T16:16:59Z</time>
      </trkpt>
      <trkpt lat="42.775672" lon="0.197827">
        <ele>1576.2</ele>
        <time>2020-07-04T16:17:01Z</time>
      </trkpt>
      <trkpt lat="42.775592" lon="0.197957">
        <ele>1574.1</ele>
        <time>2020-07-04T16:17:04Z</time>
      </trkpt>
      <trkpt lat="42.775490" lon="0.198010">
        <ele>1573.4</ele>
        <time>2020-07-04T16:17:07Z</time>
      </trkpt>
      <trkpt lat="42.775441" lon="0.198073">
        <ele>1573.0</ele>
        <time>2020-07-04T16:17:23Z</time>
      </trkpt>
      <trkpt lat="42.775371" lon="0.198063">
        <ele>1601.1</ele>
        <time>2020-07-04T16:18:49Z</time>
      </trkpt>
    </trkseg>
  </trk>
</gpx>

